<?xml version='1.0' encoding='UTF-8'?><gpx version="1.1" creator="JPX - https://github.com/jenetics/jpx" xmlns="http://www.topografix.com/GPX/1/1"><trk><trkseg><trkpt lat="47.10184256084924" lon="5.486800353979214"><ele>235.0</ele><time>2026-04-14T12:53:01Z</time></trkpt><trkpt lat="47.1018284373424" lon="5.486683594068034"><ele>234.99999999999997</ele><time>2026-04-14T12:54:02.999Z</time></trkpt><trkpt lat="47.101792353249245" lon="5.486761378129466"><ele>235.0</ele><time>2026-04-14T12:54:50.999Z</time></trkpt><trkpt lat="47.10173024334674" lon="5.4867903795144395"><ele>235.0</ele><time>2026-04-14T12:55:01.999Z</time></trkpt><trkpt lat="47.10167441987162" lon="5.486735142772539"><ele>234.99999999999997</ele><time>2026-04-14T12:55:59.999Z</time></trkpt><trkpt lat="47.10169143513506" lon="5.486841425304754"><ele>235.0</ele><time>2026-04-14T12:56:18.999Z</time></trkpt><trkpt lat="47.10175484423255" lon="5.486863385891064"><ele>235.0</ele><time>2026-04-14T12:56:33.999Z</time></trkpt><trkpt lat="47.101825419857256" lon="5.486861625691398"><ele>235.0</ele><time>2026-04-14T12:56:37.999Z</time></trkpt><trkpt lat="47.10189570211535" lon="5.486845783894403"><ele>234.99999999999997</ele><time>2026-04-14T12:56:40.999Z</time></trkpt><trkpt lat="47.10195642900383" lon="5.486809574072702"><ele>235.0</ele><time>2026-04-14T12:56:44.999Z</time></trkpt><trkpt lat="47.10187164605325" lon="5.486847376456006"><ele>235.0</ele><time>2026-04-14T12:56:53.999Z</time></trkpt><trkpt lat="47.10180635102754" lon="5.486854501073702"><ele>234.99999999999997</ele><time>2026-04-14T12:56:55.999Z</time></trkpt><trkpt lat="47.10173393138414" lon="5.486867325385554"><ele>235.0</ele><time>2026-04-14T12:56:58.999Z</time></trkpt><trkpt lat="47.10174118173038" lon="5.486978804697736"><ele>235.0</ele><time>2026-04-14T12:58:16Z</time></trkpt><trkpt lat="47.10175103046661" lon="5.487078549345477"><ele>234.7142857142857</ele><time>2026-04-14T12:58:18Z</time></trkpt><trkpt lat="47.10176314231669" lon="5.487176030879362"><ele>234.4285714285714</ele><time>2026-04-14T12:58:22Z</time></trkpt><trkpt lat="47.10182722196644" lon="5.487245433037623"><ele>234.14285714285714</ele><time>2026-04-14T12:58:26Z</time></trkpt><trkpt lat="47.10189863578146" lon="5.487244427209243"><ele>233.85714285714283</ele><time>2026-04-14T12:58:30Z</time></trkpt><trkpt lat="47.101956554732375" lon="5.487301172693714"><ele>233.57142857142856</ele><time>2026-04-14T12:58:35Z</time></trkpt><trkpt lat="47.102025621614516" lon="5.487306704749807"><ele>233.28571428571428</ele><time>2026-04-14T12:58:39Z</time></trkpt><trkpt lat="47.10209389221585" lon="5.487311398615583"><ele>233.0</ele><time>2026-04-14T12:58:41Z</time></trkpt><trkpt lat="47.10217720833337" lon="5.48730293289338"><ele>233.0</ele><time>2026-04-14T12:58:43Z</time></trkpt><trkpt lat="47.10226878062552" lon="5.487292958428606"><ele>233.0</ele><time>2026-04-14T12:58:45Z</time></trkpt><trkpt lat="47.10236965683019" lon="5.487288180743798"><ele>233.0</ele><time>2026-04-14T12:58:47Z</time></trkpt><trkpt lat="47.10246357605523" lon="5.4872768651745165"><ele>233.0</ele><time>2026-04-14T12:58:49Z</time></trkpt><trkpt lat="47.102543581321" lon="5.487281894316419"><ele>233.0</ele><time>2026-04-14T12:58:51Z</time></trkpt><trkpt lat="47.102626813619494" lon="5.48727359623228"><ele>233.33333333333334</ele><time>2026-04-14T12:58:53Z</time></trkpt><trkpt lat="47.10269998763418" lon="5.487229088326439"><ele>233.66666666666669</ele><time>2026-04-14T12:58:55Z</time></trkpt><trkpt lat="47.1027801186285" lon="5.487195728351816"><ele>234.0</ele><time>2026-04-14T12:58:57Z</time></trkpt><trkpt lat="47.102857693142354" lon="5.487150466074689"><ele>234.33333333333331</ele><time>2026-04-14T12:58:59Z</time></trkpt><trkpt lat="47.10293849468893" lon="5.487106712540133"><ele>234.66666666666666</ele><time>2026-04-14T12:59:01Z</time></trkpt><trkpt lat="47.10301477000779" lon="5.48706111498688"><ele>235.0</ele><time>2026-04-14T12:59:03Z</time></trkpt><trkpt lat="47.10308010694301" lon="5.487007219349487"><ele>235.0</ele><time>2026-04-14T12:59:05Z</time></trkpt><trkpt lat="47.10314544387823" lon="5.487044183542474"><ele>235.0</ele><time>2026-04-14T12:59:07Z</time></trkpt><trkpt lat="47.10318827540344" lon="5.487141497438295"><ele>235.0</ele><time>2026-04-14T12:59:09Z</time></trkpt><trkpt lat="47.10322218020177" lon="5.487260269006237"><ele>235.0</ele><time>2026-04-14T12:59:11Z</time></trkpt><trkpt lat="47.10325545635736" lon="5.487403180455312"><ele>235.0</ele><time>2026-04-14T12:59:13Z</time></trkpt><trkpt lat="47.10328814577973" lon="5.487569812690362"><ele>234.66666666666666</ele><time>2026-04-14T12:59:15Z</time></trkpt><trkpt lat="47.103329552381396" lon="5.487707275902375"><ele>234.33333333333331</ele><time>2026-04-14T12:59:17Z</time></trkpt><trkpt lat="47.10337959234333" lon="5.487796794628247"><ele>234.0</ele><time>2026-04-14T12:59:19Z</time></trkpt><trkpt lat="47.10344815631127" lon="5.487782377754792"><ele>233.66666666666669</ele><time>2026-04-14T12:59:21Z</time></trkpt><trkpt lat="47.10352950268155" lon="5.487764775758132"><ele>233.33333333333334</ele><time>2026-04-14T12:59:23Z</time></trkpt><trkpt lat="47.10361126814699" lon="5.487740049143776"><ele>233.0</ele><time>2026-04-14T12:59:25Z</time></trkpt><trkpt lat="47.10369353652662" lon="5.48770358786498"><ele>233.0</ele><time>2026-04-14T12:59:27Z</time></trkpt><trkpt lat="47.103777355558336" lon="5.48769822344695"><ele>233.0</ele><time>2026-04-14T12:59:29Z</time></trkpt><trkpt lat="47.10387534000641" lon="5.487660001968488"><ele>233.0</ele><time>2026-04-14T12:59:31Z</time></trkpt><trkpt lat="47.10398074243879" lon="5.487629072745785"><ele>233.0</ele><time>2026-04-14T12:59:33Z</time></trkpt><trkpt lat="47.10405768830991" lon="5.4876037593982065"><ele>233.0</ele><time>2026-04-14T12:59:35Z</time></trkpt><trkpt lat="47.104137861213744" lon="5.487560257320746"><ele>233.16666666666669</ele><time>2026-04-14T12:59:37Z</time></trkpt><trkpt lat="47.10421690256065" lon="5.487536536534771"><ele>233.33333333333334</ele><time>2026-04-14T12:59:39Z</time></trkpt><trkpt lat="47.10429409988886" lon="5.487556150188192"><ele>233.5</ele><time>2026-04-14T12:59:41Z</time></trkpt><trkpt lat="47.10435671270555" lon="5.4876467585614765"><ele>233.66666666666669</ele><time>2026-04-14T12:59:43Z</time></trkpt><trkpt lat="47.104413751556635" lon="5.48776762560521"><ele>233.83333333333334</ele><time>2026-04-14T12:59:45Z</time></trkpt><trkpt lat="47.10446597081339" lon="5.4878449905714835"><ele>234.0</ele><time>2026-04-14T12:59:47Z</time></trkpt><trkpt lat="47.10454522170788" lon="5.487824706365808"><ele>234.0</ele><time>2026-04-14T12:59:50Z</time></trkpt><trkpt lat="47.104605990505874" lon="5.487719345842942"><ele>234.0</ele><time>2026-04-14T12:59:53Z</time></trkpt><trkpt lat="47.10463800937599" lon="5.48761809245263"><ele>234.0</ele><time>2026-04-14T12:59:56Z</time></trkpt><trkpt lat="47.10469705988383" lon="5.487524215137109"><ele>234.0</ele><time>2026-04-14T13:00:00Z</time></trkpt><trkpt lat="47.10474542346513" lon="5.487444000323757"><ele>234.0</ele><time>2026-04-14T13:00:03Z</time></trkpt><trkpt lat="47.10477559831655" lon="5.487361270939454"><ele>234.0</ele><time>2026-04-14T13:00:05Z</time></trkpt><trkpt lat="47.104815621904194" lon="5.487247779970511"><ele>234.0</ele><time>2026-04-14T13:00:08Z</time></trkpt><trkpt lat="47.104847682683825" lon="5.487133534630282"><ele>234.0</ele><time>2026-04-14T13:00:11Z</time></trkpt><trkpt lat="47.10488640707648" lon="5.487008560453995"><ele>234.0</ele><time>2026-04-14T13:00:14Z</time></trkpt><trkpt lat="47.10491398353791" lon="5.486883670096739"><ele>234.0</ele><time>2026-04-14T13:00:17Z</time></trkpt><trkpt lat="47.10493669849551" lon="5.486782165249331"><ele>234.0</ele><time>2026-04-14T13:00:19Z</time></trkpt><trkpt lat="47.10496356249517" lon="5.486696334560855"><ele>234.0</ele><time>2026-04-14T13:00:21Z</time></trkpt><trkpt lat="47.10499889221704" lon="5.486583095049007"><ele>234.14285714285717</ele><time>2026-04-14T13:00:24Z</time></trkpt><trkpt lat="47.10501670376128" lon="5.486474214126809"><ele>234.2857142857143</ele><time>2026-04-14T13:00:27Z</time></trkpt><trkpt lat="47.10502500184542" lon="5.486380001535161"><ele>234.42857142857144</ele><time>2026-04-14T13:00:30Z</time></trkpt><trkpt lat="47.10504604042238" lon="5.486284615477069"><ele>234.57142857142856</ele><time>2026-04-14T13:00:33Z</time></trkpt><trkpt lat="47.10507508371687" lon="5.48619333655153"><ele>234.7142857142857</ele><time>2026-04-14T13:00:36Z</time></trkpt><trkpt lat="47.105102534449756" lon="5.48610440455888"><ele>234.85714285714283</ele><time>2026-04-14T13:00:39Z</time></trkpt><trkpt lat="47.10512172900802" lon="5.486014215280754"><ele>235.0</ele><time>2026-04-14T13:00:42Z</time></trkpt><trkpt lat="47.10514712617463" lon="5.485922265802962"><ele>235.57142857142856</ele><time>2026-04-14T13:00:46Z</time></trkpt><trkpt lat="47.10516753610885" lon="5.485827047382934"><ele>236.1428571428571</ele><time>2026-04-14T13:00:49Z</time></trkpt><trkpt lat="47.10519108925676" lon="5.485722608869416"><ele>236.71428571428572</ele><time>2026-04-14T13:00:53Z</time></trkpt><trkpt lat="47.10520973899132" lon="5.485633509238703"><ele>237.28571428571428</ele><time>2026-04-14T13:00:56Z</time></trkpt><trkpt lat="47.105234381786644" lon="5.485544409607989"><ele>237.85714285714286</ele><time>2026-04-14T13:00:59Z</time></trkpt><trkpt lat="47.10525257051653" lon="5.485444329684121"><ele>238.42857142857144</ele><time>2026-04-14T13:01:02Z</time></trkpt><trkpt lat="47.10527830295926" lon="5.485337963332874"><ele>239.00000000000003</ele><time>2026-04-14T13:01:05Z</time></trkpt><trkpt lat="47.1052990062601" lon="5.485236793761593"><ele>239.83333333333334</ele><time>2026-04-14T13:01:08Z</time></trkpt><trkpt lat="47.1053196257419" lon="5.4851288348487435"><ele>240.66666666666669</ele><time>2026-04-14T13:01:11Z</time></trkpt><trkpt lat="47.10534267597562" lon="5.485026240353924"><ele>241.5</ele><time>2026-04-14T13:01:14Z</time></trkpt><trkpt lat="47.10536815696126" lon="5.484919957821709"><ele>242.33333333333331</ele><time>2026-04-14T13:01:17Z</time></trkpt><trkpt lat="47.10540046919799" lon="5.484813759108525"><ele>243.16666666666666</ele><time>2026-04-14T13:01:21Z</time></trkpt><trkpt lat="47.105422345965266" lon="5.484713930641752"><ele>244.0</ele><time>2026-04-14T13:01:24Z</time></trkpt><trkpt lat="47.10546329156226" lon="5.484593817969304"><ele>243.99999999999997</ele><time>2026-04-14T13:01:27Z</time></trkpt><trkpt lat="47.10550134540266" lon="5.484503377234083"><ele>244.0</ele><time>2026-04-14T13:01:29Z</time></trkpt><trkpt lat="47.105540530799985" lon="5.48441427760337"><ele>243.99999999999997</ele><time>2026-04-14T13:01:31Z</time></trkpt><trkpt lat="47.10557690825975" lon="5.484329704200369"><ele>243.99999999999997</ele><time>2026-04-14T13:01:33Z</time></trkpt><trkpt lat="47.10561684802836" lon="5.4842503275773336"><ele>244.0</ele><time>2026-04-14T13:01:35Z</time></trkpt><trkpt lat="47.10567292296058" lon="5.484152091672163"><ele>243.99999999999997</ele><time>2026-04-14T13:01:37Z</time></trkpt><trkpt lat="47.10571621549046" lon="5.484050922100883"><ele>243.99999999999997</ele><time>2026-04-14T13:01:39Z</time></trkpt><trkpt lat="47.105757035358906" lon="5.483947405596714"><ele>244.0</ele><time>2026-04-14T13:01:41Z</time></trkpt><trkpt lat="47.10581918717092" lon="5.483803823595386"><ele>243.99999999999997</ele><time>2026-04-14T13:01:43Z</time></trkpt><trkpt lat="47.105874717279434" lon="5.483670970430117"><ele>243.99999999999997</ele><time>2026-04-14T13:01:45Z</time></trkpt><trkpt lat="47.10593183994955" lon="5.483549097558003"><ele>244.0</ele><time>2026-04-14T13:01:47Z</time></trkpt><trkpt lat="47.105987202419996" lon="5.483420183887224"><ele>244.0</ele><time>2026-04-14T13:01:49Z</time></trkpt><trkpt lat="47.1060432354427" lon="5.483308369298915"><ele>243.33333333333331</ele><time>2026-04-14T13:01:51Z</time></trkpt><trkpt lat="47.106111422225" lon="5.483213737612108"><ele>242.66666666666666</ele><time>2026-04-14T13:01:53Z</time></trkpt><trkpt lat="47.10617541805571" lon="5.48313561827455"><ele>242.0</ele><time>2026-04-14T13:01:55Z</time></trkpt><trkpt lat="47.10622562565571" lon="5.4830740951052706"><ele>241.33333333333331</ele><time>2026-04-14T13:01:57Z</time></trkpt><trkpt lat="47.106265942609966" lon="5.482992790644507"><ele>240.66666666666666</ele><time>2026-04-14T13:02:01Z</time></trkpt><trkpt lat="47.10630747494018" lon="5.4828997515193025"><ele>240.0</ele><time>2026-04-14T13:02:04Z</time></trkpt><trkpt lat="47.10638266061163" lon="5.482873683800439"><ele>239.16666666666666</ele><time>2026-04-14T13:02:08Z</time></trkpt><trkpt lat="47.106459103568554" lon="5.48279849812899"><ele>238.33333333333331</ele><time>2026-04-14T13:02:11Z</time></trkpt><trkpt lat="47.106532738587916" lon="5.482730437075237"><ele>237.5</ele><time>2026-04-14T13:02:14Z</time></trkpt><trkpt lat="47.106587891510785" lon="5.4826715122959415"><ele>236.66666666666666</ele><time>2026-04-14T13:02:17Z</time></trkpt><trkpt lat="47.106656581207275" lon="5.48262943514202"><ele>235.83333333333331</ele><time>2026-04-14T13:02:21Z</time></trkpt><trkpt lat="47.10672187623298" lon="5.482643265282253"><ele>235.0</ele><time>2026-04-14T13:02:24Z</time></trkpt><trkpt lat="47.106801169036984" lon="5.482597332452873"><ele>235.0</ele><time>2026-04-14T13:02:27Z</time></trkpt><trkpt lat="47.10685837552613" lon="5.482541508977751"><ele>234.99999999999997</ele><time>2026-04-14T13:02:29Z</time></trkpt><trkpt lat="47.10690845739758" lon="5.482478141789774"><ele>235.0</ele><time>2026-04-14T13:02:31Z</time></trkpt><trkpt lat="47.10696247876352" lon="5.482411421840528"><ele>235.0</ele><time>2026-04-14T13:02:33Z</time></trkpt><trkpt lat="47.10702492394215" lon="5.482333218683937"><ele>234.99999999999997</ele><time>2026-04-14T13:02:35Z</time></trkpt><trkpt lat="47.10708539937353" lon="5.482257446279267"><ele>235.0</ele><time>2026-04-14T13:02:37Z</time></trkpt><trkpt lat="47.10714512043363" lon="5.482185697188118"><ele>235.0</ele><time>2026-04-14T13:02:39Z</time></trkpt><trkpt lat="47.10720199164665" lon="5.482114283373097"><ele>235.28571428571428</ele><time>2026-04-14T13:02:41Z</time></trkpt><trkpt lat="47.1072589466787" lon="5.482037337501982"><ele>235.57142857142856</ele><time>2026-04-14T13:02:43Z</time></trkpt><trkpt lat="47.107313806234956" lon="5.48197715543721"><ele>235.85714285714283</ele><time>2026-04-14T13:02:45Z</time></trkpt><trkpt lat="47.10737222810006" lon="5.4819258581898005"><ele>236.1428571428571</ele><time>2026-04-14T13:02:48Z</time></trkpt><trkpt lat="47.10742335770941" lon="5.4818478226712735"><ele>236.42857142857142</ele><time>2026-04-14T13:02:53Z</time></trkpt><trkpt lat="47.10745340683228" lon="5.481748664756754"><ele>236.71428571428567</ele><time>2026-04-14T13:02:56Z</time></trkpt><trkpt lat="47.10748345595515" lon="5.481630563741067"><ele>236.99999999999997</ele><time>2026-04-14T13:02:59Z</time></trkpt><trkpt lat="47.10748747926867" lon="5.481535261502007"><ele>238.5</ele><time>2026-04-14T13:03:02Z</time></trkpt><trkpt lat="47.10748462942159" lon="5.481416322296002"><ele>240.0</ele><time>2026-04-14T13:03:06Z</time></trkpt><trkpt lat="47.1074703801862" lon="5.481297299270966"><ele>241.5</ele><time>2026-04-14T13:03:10Z</time></trkpt><trkpt lat="47.107456759593546" lon="5.481190849100687"><ele>243.0</ele><time>2026-04-14T13:03:14Z</time></trkpt><trkpt lat="47.107461830644965" lon="5.481074508284666"><ele>244.5</ele><time>2026-04-14T13:03:18Z</time></trkpt><trkpt lat="47.107473984404564" lon="5.4809663817337535"><ele>246.0</ele><time>2026-04-14T13:03:22Z</time></trkpt><trkpt lat="47.107503907798886" lon="5.480877952655294"><ele>246.42857142857144</ele><time>2026-04-14T13:03:26Z</time></trkpt><trkpt lat="47.107532741545796" lon="5.4807840753397725"><ele>246.85714285714286</ele><time>2026-04-14T13:03:30Z</time></trkpt><trkpt lat="47.10756849036282" lon="5.480694305156805"><ele>247.28571428571428</ele><time>2026-04-14T13:03:35Z</time></trkpt><trkpt lat="47.107615722387195" lon="5.480611911048629"><ele>247.71428571428572</ele><time>2026-04-14T13:03:39Z</time></trkpt><trkpt lat="47.10766035602158" lon="5.480522643779852"><ele>248.1428571428571</ele><time>2026-04-14T13:03:44Z</time></trkpt><trkpt lat="47.1077008406139" lon="5.480436058720089"><ele>248.57142857142856</ele><time>2026-04-14T13:03:49Z</time></trkpt><trkpt lat="47.107741073749125" lon="5.480347964917756"><ele>249.0</ele><time>2026-04-14T13:03:54Z</time></trkpt><trkpt lat="47.10777636156148" lon="5.480262218048312"><ele>249.57142857142856</ele><time>2026-04-14T13:03:58Z</time></trkpt><trkpt lat="47.107813912487686" lon="5.480175716807581"><ele>250.1428571428571</ele><time>2026-04-14T13:04:01.999Z</time></trkpt><trkpt lat="47.10785142150438" lon="5.480080749844648"><ele>250.71428571428572</ele><time>2026-04-14T13:04:05.999Z</time></trkpt><trkpt lat="47.10788914006865" lon="5.479985615243651"><ele>251.28571428571428</ele><time>2026-04-14T13:04:09.999Z</time></trkpt><trkpt lat="47.107932893603206" lon="5.479902299126126"><ele>251.85714285714286</ele><time>2026-04-14T13:04:13.999Z</time></trkpt><trkpt lat="47.10797593467599" lon="5.479813534771539"><ele>252.42857142857144</ele><time>2026-04-14T13:04:18.999Z</time></trkpt><trkpt lat="47.10803058468467" lon="5.479720160370208"><ele>253.00000000000003</ele><time>2026-04-14T13:04:23Z</time></trkpt><trkpt lat="47.10807546977615" lon="5.479636173700429"><ele>253.28571428571433</ele><time>2026-04-14T13:04:26Z</time></trkpt><trkpt lat="47.10811687637782" lon="5.479555036877728"><ele>253.57142857142858</ele><time>2026-04-14T13:04:29Z</time></trkpt><trkpt lat="47.1081575286082" lon="5.479474738245345"><ele>253.8571428571429</ele><time>2026-04-14T13:04:32Z</time></trkpt><trkpt lat="47.108213561630905" lon="5.4793920088610415"><ele>254.14285714285717</ele><time>2026-04-14T13:04:36Z</time></trkpt><trkpt lat="47.10826209285027" lon="5.479299891745186"><ele>254.42857142857144</ele><time>2026-04-14T13:04:39Z</time></trkpt><trkpt lat="47.10829666820085" lon="5.479217329998947"><ele>254.71428571428572</ele><time>2026-04-14T13:04:41Z</time></trkpt><trkpt lat="47.10833757188833" lon="5.479132672776914"><ele>255.0</ele><time>2026-04-14T13:04:43Z</time></trkpt><trkpt lat="47.10838082250869" lon="5.479052290325499"><ele>255.2857142857143</ele><time>2026-04-14T13:04:45Z</time></trkpt><trkpt lat="47.10842352830535" lon="5.478971404959894"><ele>255.5714285714286</ele><time>2026-04-14T13:04:47Z</time></trkpt><trkpt lat="47.10846212696946" lon="5.478892028336859"><ele>255.85714285714286</ele><time>2026-04-14T13:04:49Z</time></trkpt><trkpt lat="47.108513130850255" lon="5.47876990400765"><ele>256.14285714285717</ele><time>2026-04-14T13:04:52Z</time></trkpt><trkpt lat="47.10854623936778" lon="5.4786792956343655"><ele>256.42857142857144</ele><time>2026-04-14T13:04:54Z</time></trkpt><trkpt lat="47.10858022798514" lon="5.478581311186289"><ele>256.7142857142857</ele><time>2026-04-14T13:04:56Z</time></trkpt><trkpt lat="47.1086015180192" lon="5.478492546831703"><ele>257.0</ele><time>2026-04-14T13:04:58Z</time></trkpt><trkpt lat="47.10864430763489" lon="5.478389030327534"><ele>257.2857142857143</ele><time>2026-04-14T13:05:01Z</time></trkpt><trkpt lat="47.108675823590815" lon="5.478300685068106"><ele>257.57142857142856</ele><time>2026-04-14T13:05:03Z</time></trkpt><trkpt lat="47.108708513013184" lon="5.478212339808678"><ele>257.8571428571429</ele><time>2026-04-14T13:05:05Z</time></trkpt><trkpt lat="47.108743507458925" lon="5.478091808041071"><ele>258.1428571428571</ele><time>2026-04-14T13:05:08Z</time></trkpt><trkpt lat="47.10876701869732" lon="5.478004384790992"><ele>258.42857142857144</ele><time>2026-04-14T13:05:10Z</time></trkpt><trkpt lat="47.10879011084056" lon="5.477906903257107"><ele>258.7142857142857</ele><time>2026-04-14T13:05:12Z</time></trkpt><trkpt lat="47.10882133342987" lon="5.477790562441086"><ele>259.0</ele><time>2026-04-14T13:05:14Z</time></trkpt><trkpt lat="47.108852681747734" lon="5.477643962954615"><ele>259.0</ele><time>2026-04-14T13:05:16Z</time></trkpt><trkpt lat="47.10887074474907" lon="5.477510187779997"><ele>259.0</ele><time>2026-04-14T13:05:18Z</time></trkpt><trkpt lat="47.10889094513571" lon="5.477383872499202"><ele>259.0</ele><time>2026-04-14T13:05:20Z</time></trkpt><trkpt lat="47.10893536922252" lon="5.477231405680512"><ele>259.0</ele><time>2026-04-14T13:05:22Z</time></trkpt><trkpt lat="47.10897916466659" lon="5.477099139248465"><ele>259.0</ele><time>2026-04-14T13:05:24Z</time></trkpt><trkpt lat="47.10905191958612" lon="5.477016074588035"><ele>258.5</ele><time>2026-04-14T13:05:26Z</time></trkpt><trkpt lat="47.10913175721383" lon="5.477022696291541"><ele>258.0</ele><time>2026-04-14T13:05:28Z</time></trkpt><trkpt lat="47.1092112176559" lon="5.4770413041165815"><ele>257.5</ele><time>2026-04-14T13:05:30Z</time></trkpt><trkpt lat="47.1092921030215" lon="5.477045914163326"><ele>257.0</ele><time>2026-04-14T13:05:32Z</time></trkpt><trkpt lat="47.10936728869295" lon="5.4770436510494696"><ele>256.5</ele><time>2026-04-14T13:05:34Z</time></trkpt><trkpt lat="47.109447880691945" lon="5.477055134256815"><ele>256.0</ele><time>2026-04-14T13:05:36Z</time></trkpt><trkpt lat="47.10952817932433" lon="5.477089164783691"><ele>256.8333333333333</ele><time>2026-04-14T13:05:38Z</time></trkpt><trkpt lat="47.10960948378509" lon="5.477122692396377"><ele>257.66666666666663</ele><time>2026-04-14T13:05:40Z</time></trkpt><trkpt lat="47.10969397336907" lon="5.4771582316658245"><ele>258.5</ele><time>2026-04-14T13:05:42Z</time></trkpt><trkpt lat="47.10977724757708" lon="5.47719368711624"><ele>259.3333333333333</ele><time>2026-04-14T13:05:44Z</time></trkpt><trkpt lat="47.10986052178509" lon="5.477230902766322"><ele>260.1666666666667</ele><time>2026-04-14T13:05:46Z</time></trkpt><trkpt lat="47.109935833185084" lon="5.4772677831402765"><ele>261.0</ele><time>2026-04-14T13:05:48Z</time></trkpt><trkpt lat="47.11000372660077" lon="5.477294940506552"><ele>261.0</ele><time>2026-04-14T13:05:50Z</time></trkpt><trkpt lat="47.110075643329985" lon="5.477322600787018"><ele>261.0</ele><time>2026-04-14T13:05:52Z</time></trkpt><trkpt lat="47.11015057754434" lon="5.477348417048787"><ele>261.0</ele><time>2026-04-14T13:05:54Z</time></trkpt><trkpt lat="47.11022676904417" lon="5.477372724567984"><ele>261.0</ele><time>2026-04-14T13:05:56Z</time></trkpt><trkpt lat="47.11030593611962" lon="5.477388985460137"><ele>261.0</ele><time>2026-04-14T13:05:58Z</time></trkpt><trkpt lat="47.110391515351004" lon="5.4773973673633085"><ele>261.0</ele><time>2026-04-14T13:06:00Z</time></trkpt><trkpt lat="47.11047755558706" lon="5.477401977410053"><ele>261.0</ele><time>2026-04-14T13:06:02Z</time></trkpt><trkpt lat="47.11055978205717" lon="5.477410778408383"><ele>261.0</ele><time>2026-04-14T13:06:04Z</time></trkpt><trkpt lat="47.11063651838071" lon="5.477424021815394"><ele>261.0</ele><time>2026-04-14T13:06:06Z</time></trkpt><trkpt lat="47.11070659109122" lon="5.477429721509551"><ele>261.0</ele><time>2026-04-14T13:06:08Z</time></trkpt><trkpt lat="47.11077913646317" lon="5.477429805328582"><ele>261.0</ele><time>2026-04-14T13:06:10Z</time></trkpt><trkpt lat="47.11084673651225" lon="5.477438690145944"><ele>261.0</ele><time>2026-04-14T13:06:12Z</time></trkpt><trkpt lat="47.110919030427105" lon="5.477440617983674"><ele>261.0</ele><time>2026-04-14T13:06:15Z</time></trkpt><trkpt lat="47.11097799711592" lon="5.47750054859135"><ele>260.8571428571429</ele><time>2026-04-14T13:07:07Z</time></trkpt><trkpt lat="47.11104622580773" lon="5.477527370681499"><ele>260.7142857142857</ele><time>2026-04-14T13:07:41Z</time></trkpt><trkpt lat="47.11112342313594" lon="5.47754254192624"><ele>260.57142857142856</ele><time>2026-04-14T13:07:44Z</time></trkpt><trkpt lat="47.111189179166324" lon="5.477543212478493"><ele>260.42857142857144</ele><time>2026-04-14T13:07:47Z</time></trkpt><trkpt lat="47.11125946142442" lon="5.477537764241432"><ele>260.2857142857143</ele><time>2026-04-14T13:07:50Z</time></trkpt><trkpt lat="47.11133297071523" lon="5.4775584675422655"><ele>260.14285714285717</ele><time>2026-04-14T13:07:54Z</time></trkpt><trkpt lat="47.11141557437099" lon="5.47756550834093"><ele>260.0</ele><time>2026-04-14T13:08:56Z</time></trkpt><trkpt lat="47.11149386134661" lon="5.477604651828741"><ele>259.83333333333337</ele><time>2026-04-14T13:08:59Z</time></trkpt><trkpt lat="47.11157407615996" lon="5.477629294624065"><ele>259.6666666666667</ele><time>2026-04-14T13:09:02Z</time></trkpt><trkpt lat="47.11166585799969" lon="5.477654272695517"><ele>259.5</ele><time>2026-04-14T13:09:05Z</time></trkpt><trkpt lat="47.111745108894176" lon="5.477671455597019"><ele>259.3333333333333</ele><time>2026-04-14T13:09:07Z</time></trkpt><trkpt lat="47.11182264149851" lon="5.477694170554614"><ele>259.16666666666663</ele><time>2026-04-14T13:09:09Z</time></trkpt><trkpt lat="47.11189338476128" lon="5.477718394254779"><ele>259.0</ele><time>2026-04-14T13:09:11Z</time></trkpt><trkpt lat="47.11197766479767" lon="5.477760639046764"><ele>259.0</ele><time>2026-04-14T13:09:13Z</time></trkpt><trkpt lat="47.1120747272364" lon="5.477786287670469"><ele>259.0</ele><time>2026-04-14T13:09:15Z</time></trkpt><trkpt lat="47.112172166860766" lon="5.477815791969633"><ele>259.0</ele><time>2026-04-14T13:09:17Z</time></trkpt><trkpt lat="47.11227459371752" lon="5.477855857466793"><ele>259.0</ele><time>2026-04-14T13:09:19Z</time></trkpt><trkpt lat="47.112372410527534" lon="5.477888546889162"><ele>259.0</ele><time>2026-04-14T13:09:21Z</time></trkpt><trkpt lat="47.112475382208" lon="5.477918554102516"><ele>259.59999999999997</ele><time>2026-04-14T13:09:23Z</time></trkpt><trkpt lat="47.112574540122516" lon="5.477959960704183"><ele>260.2</ele><time>2026-04-14T13:09:25Z</time></trkpt><trkpt lat="47.112677344164915" lon="5.478005893533563"><ele>260.79999999999995</ele><time>2026-04-14T13:09:27Z</time></trkpt><trkpt lat="47.11276975464738" lon="5.478071942930555"><ele>261.4</ele><time>2026-04-14T13:09:29Z</time></trkpt><trkpt lat="47.11286103357292" lon="5.478126592939233"><ele>262.0</ele><time>2026-04-14T13:09:31Z</time></trkpt><trkpt lat="47.11295017511315" lon="5.478146122773623"><ele>262.0</ele><time>2026-04-14T13:09:33Z</time></trkpt><trkpt lat="47.11304078348643" lon="5.478176213806009"><ele>262.0</ele><time>2026-04-14T13:09:35Z</time></trkpt><trkpt lat="47.11312577598459" lon="5.478156767790651"><ele>262.0</ele><time>2026-04-14T13:09:37Z</time></trkpt><trkpt lat="47.113209930292435" lon="5.478167831902837"><ele>262.0</ele><time>2026-04-14T13:09:39Z</time></trkpt><trkpt lat="47.113282978578575" lon="5.478190127765274"><ele>262.0</ele><time>2026-04-14T13:09:41Z</time></trkpt><trkpt lat="47.11335950535453" lon="5.478189038117861"><ele>262.0</ele><time>2026-04-14T13:09:43Z</time></trkpt><trkpt lat="47.113437959968216" lon="5.478197084744906"><ele>262.16666666666663</ele><time>2026-04-14T13:09:45Z</time></trkpt><trkpt lat="47.11351390001095" lon="5.478201275696492"><ele>262.3333333333333</ele><time>2026-04-14T13:09:47Z</time></trkpt><trkpt lat="47.11358778648741" lon="5.478203538810348"><ele>262.5</ele><time>2026-04-14T13:09:49Z</time></trkpt><trkpt lat="47.11366657637722" lon="5.478197922935223"><ele>262.6666666666667</ele><time>2026-04-14T13:09:51Z</time></trkpt><trkpt lat="47.11373991802997" lon="5.478193564345574"><ele>262.83333333333337</ele><time>2026-04-14T13:09:53Z</time></trkpt><trkpt lat="47.113817995458014" lon="5.478199934591984"><ele>263.0</ele><time>2026-04-14T13:09:55Z</time></trkpt><trkpt lat="47.11389967710442" lon="5.478206221019363"><ele>263.0</ele><time>2026-04-14T13:09:57Z</time></trkpt><trkpt lat="47.11397901181794" lon="5.47821192071352"><ele>263.0</ele><time>2026-04-14T13:09:59Z</time></trkpt><trkpt lat="47.1140502579949" lon="5.4782175365886445"><ele>263.0</ele><time>2026-04-14T13:10:01Z</time></trkpt><trkpt lat="47.114116139753826" lon="5.478228935976958"><ele>263.0</ele><time>2026-04-14T13:10:03Z</time></trkpt><trkpt lat="47.114191409244306" lon="5.478243352850413"><ele>263.0</ele><time>2026-04-14T13:10:05Z</time></trkpt><trkpt lat="47.114260518035955" lon="5.47826078720901"><ele>263.0</ele><time>2026-04-14T13:10:07Z</time></trkpt><trkpt lat="47.11432975255615" lon="5.4782840888998265"><ele>263.0</ele><time>2026-04-14T13:10:09Z</time></trkpt><trkpt lat="47.11440162737585" lon="5.478306300943231"><ele>263.0</ele><time>2026-04-14T13:10:11Z</time></trkpt><trkpt lat="47.11447216109104" lon="5.478329854091143"><ele>263.0</ele><time>2026-04-14T13:10:13Z</time></trkpt><trkpt lat="47.1145386714927" lon="5.47835852019999"><ele>263.0</ele><time>2026-04-14T13:10:15Z</time></trkpt><trkpt lat="47.114603715061314" lon="5.478387270127868"><ele>263.0</ele><time>2026-04-14T13:10:17Z</time></trkpt><trkpt lat="47.11467072837717" lon="5.478424401958918"><ele>263.0</ele><time>2026-04-14T13:10:19Z</time></trkpt><trkpt lat="47.1147331735558" lon="5.478458516304826"><ele>263.0</ele><time>2026-04-14T13:10:21Z</time></trkpt><trkpt lat="47.11479830094344" lon="5.478495312859749"><ele>263.0</ele><time>2026-04-14T13:10:23Z</time></trkpt><trkpt lat="47.11485839918918" lon="5.4785288404724355"><ele>262.83333333333337</ele><time>2026-04-14T13:10:25Z</time></trkpt><trkpt lat="47.1149461996249" lon="5.4785765335014815"><ele>262.6666666666667</ele><time>2026-04-14T13:10:28Z</time></trkpt><trkpt lat="47.11501078218884" lon="5.478613749151564"><ele>262.5</ele><time>2026-04-14T13:10:30Z</time></trkpt><trkpt lat="47.11507289209134" lon="5.478643756364918"><ele>262.3333333333333</ele><time>2026-04-14T13:10:32Z</time></trkpt><trkpt lat="47.11516023152239" lon="5.478686587890125"><ele>262.16666666666663</ele><time>2026-04-14T13:10:35Z</time></trkpt><trkpt lat="47.11522749629534" lon="5.478722797711826"><ele>262.0</ele><time>2026-04-14T13:10:38Z</time></trkpt><trkpt lat="47.11529723372973" lon="5.478770071645713"><ele>263.5</ele><time>2026-04-14T13:10:41Z</time></trkpt><trkpt lat="47.11536810272104" lon="5.478824218740201"><ele>265.0</ele><time>2026-04-14T13:10:44Z</time></trkpt><trkpt lat="47.11544069000251" lon="5.4788863286427025"><ele>266.5</ele><time>2026-04-14T13:10:47Z</time></trkpt><trkpt lat="47.115504057190485" lon="5.478940727194286"><ele>268.0</ele><time>2026-04-14T13:10:50Z</time></trkpt><trkpt lat="47.11556604136444" lon="5.47898540273819"><ele>269.5</ele><time>2026-04-14T13:10:53Z</time></trkpt><trkpt lat="47.115651452957756" lon="5.478998981421328"><ele>271.0</ele><time>2026-04-14T13:10:56Z</time></trkpt><trkpt lat="47.115740091583795" lon="5.478991940622664"><ele>271.0</ele><time>2026-04-14T13:10:59Z</time></trkpt><trkpt lat="47.11581733082152" lon="5.478970482950545"><ele>271.0</ele><time>2026-04-14T13:11:02Z</time></trkpt><trkpt lat="47.11588945709831" lon="5.478937542071081"><ele>271.0</ele><time>2026-04-14T13:11:05Z</time></trkpt><trkpt lat="47.115948926701314" lon="5.478903260087109"><ele>271.0</ele><time>2026-04-14T13:11:07Z</time></trkpt><trkpt lat="47.1160109946943" lon="5.478872917597628"><ele>271.0</ele><time>2026-04-14T13:11:09Z</time></trkpt><trkpt lat="47.11607767273403" lon="5.478843580936528"><ele>271.0</ele><time>2026-04-14T13:11:11Z</time></trkpt><trkpt lat="47.11614116565055" lon="5.478808209305144"><ele>271.0</ele><time>2026-04-14T13:11:13Z</time></trkpt><trkpt lat="47.116207927509315" lon="5.478787170728183"><ele>271.0</ele><time>2026-04-14T13:11:15Z</time></trkpt><trkpt lat="47.11627598856307" lon="5.478772167121506"><ele>271.0</ele><time>2026-04-14T13:11:17Z</time></trkpt><trkpt lat="47.11634518117375" lon="5.478770993655062"><ele>271.0</ele><time>2026-04-14T13:11:19Z</time></trkpt><trkpt lat="47.11640938655204" lon="5.478781806310153"><ele>271.0</ele><time>2026-04-14T13:11:21Z</time></trkpt><trkpt lat="47.11649442095972" lon="5.478798905392623"><ele>271.0</ele><time>2026-04-14T13:11:24Z</time></trkpt><trkpt lat="47.11657308512098" lon="5.478822793816662"><ele>271.0</ele><time>2026-04-14T13:11:27Z</time></trkpt><trkpt lat="47.11666025691397" lon="5.478858249267078"><ele>271.5</ele><time>2026-04-14T13:11:30Z</time></trkpt><trkpt lat="47.116733221381075" lon="5.4788748454353575"><ele>272.0</ele><time>2026-04-14T13:11:33Z</time></trkpt><trkpt lat="47.11681687277473" lon="5.478885574271417"><ele>272.5</ele><time>2026-04-14T13:11:36Z</time></trkpt><trkpt lat="47.116896417035825" lon="5.478897476573921"><ele>273.0</ele><time>2026-04-14T13:11:39Z</time></trkpt><trkpt lat="47.11696628019876" lon="5.478906109934187"><ele>273.5</ele><time>2026-04-14T13:11:42Z</time></trkpt><trkpt lat="47.117043309888906" lon="5.47893603332851"><ele>274.0</ele><time>2026-04-14T13:11:46Z</time></trkpt><trkpt lat="47.11710684471495" lon="5.47896486707542"><ele>274.0</ele><time>2026-04-14T13:11:49Z</time></trkpt><trkpt lat="47.11717461240209" lon="5.478998310869074"><ele>274.0</ele><time>2026-04-14T13:11:53Z</time></trkpt><trkpt lat="47.11724388883181" lon="5.479038627823329"><ele>274.0</ele><time>2026-04-14T13:11:57Z</time></trkpt><trkpt lat="47.117325151383056" lon="5.4790989775261645"><ele>274.0</ele><time>2026-04-14T13:12:00Z</time></trkpt><trkpt lat="47.11738449525751" lon="5.4791511129638915"><ele>274.0</ele><time>2026-04-14T13:12:02Z</time></trkpt><trkpt lat="47.11746588353731" lon="5.4791908431849246"><ele>274.0</ele><time>2026-04-14T13:12:05Z</time></trkpt><trkpt lat="47.11754132066585" lon="5.4792176652750735"><ele>274.00000000000006</ele><time>2026-04-14T13:12:08Z</time></trkpt><trkpt lat="47.11760636423446" lon="5.479252617811299"><ele>274.0</ele><time>2026-04-14T13:12:10Z</time></trkpt><trkpt lat="47.117676143578365" lon="5.479278853168226"><ele>274.0</ele><time>2026-04-14T13:12:12Z</time></trkpt><trkpt lat="47.11774064232327" lon="5.479294778784252"><ele>274.0</ele><time>2026-04-14T13:12:14Z</time></trkpt><trkpt lat="47.11780296177335" lon="5.479310536762214"><ele>274.0</ele><time>2026-04-14T13:12:16Z</time></trkpt><trkpt lat="47.11787223820306" lon="5.479344483470059"><ele>274.00000000000006</ele><time>2026-04-14T13:12:19Z</time></trkpt><trkpt lat="47.11794096980907" lon="5.479380944748855"><ele>274.0</ele><time>2026-04-14T13:12:22Z</time></trkpt><trkpt lat="47.11800806694396" lon="5.47941195779059"><ele>274.0</ele><time>2026-04-14T13:12:25Z</time></trkpt><trkpt lat="47.11809352044679" lon="5.4794538673064475"><ele>274.0</ele><time>2026-04-14T13:12:28Z</time></trkpt><trkpt lat="47.11817323234595" lon="5.479476749902106"><ele>274.0</ele><time>2026-04-14T13:12:31Z</time></trkpt><trkpt lat="47.11825160314061" lon="5.479475911711789"><ele>274.0</ele><time>2026-04-14T13:12:33Z</time></trkpt><trkpt lat="47.118335380262806" lon="5.479466440161205"><ele>274.0</ele><time>2026-04-14T13:12:35Z</time></trkpt><trkpt lat="47.118416223718896" lon="5.479456381877399"><ele>274.0</ele><time>2026-04-14T13:12:37Z</time></trkpt><trkpt lat="47.11849832446046" lon="5.479477588092423"><ele>274.0</ele><time>2026-04-14T13:12:39Z</time></trkpt><trkpt lat="47.11857028309919" lon="5.479492759337163"><ele>274.0</ele><time>2026-04-14T13:12:41Z</time></trkpt><trkpt lat="47.11864542686112" lon="5.47952385619793"><ele>274.0</ele><time>2026-04-14T13:12:43Z</time></trkpt><trkpt lat="47.118719858161285" lon="5.479529891168213"><ele>274.0</ele><time>2026-04-14T13:12:45Z</time></trkpt><trkpt lat="47.1187941637329" lon="5.479550510650015"><ele>274.0</ele><time>2026-04-14T13:12:47Z</time></trkpt><trkpt lat="47.11887722839333" lon="5.479568531741835"><ele>274.0</ele><time>2026-04-14T13:12:49Z</time></trkpt><trkpt lat="47.11894784592755" lon="5.479603819554187"><ele>274.66666666666663</ele><time>2026-04-14T13:12:51Z</time></trkpt><trkpt lat="47.11902060084708" lon="5.479634581138827"><ele>275.3333333333333</ele><time>2026-04-14T13:12:53Z</time></trkpt><trkpt lat="47.119095325513854" lon="5.479656877001263"><ele>276.0</ele><time>2026-04-14T13:12:55Z</time></trkpt><trkpt lat="47.11917000827111" lon="5.479692919184901"><ele>276.6666666666667</ele><time>2026-04-14T13:12:57Z</time></trkpt><trkpt lat="47.11924112871952" lon="5.479733822872378"><ele>277.33333333333337</ele><time>2026-04-14T13:12:59Z</time></trkpt><trkpt lat="47.1193158533863" lon="5.479792915289737"><ele>278.0</ele><time>2026-04-14T13:13:01Z</time></trkpt><trkpt lat="47.11939422418095" lon="5.479849576955177"><ele>278.0</ele><time>2026-04-14T13:13:03Z</time></trkpt><trkpt lat="47.119475822008326" lon="5.4798899777284635"><ele>278.0</ele><time>2026-04-14T13:13:05Z</time></trkpt><trkpt lat="47.119554444260075" lon="5.479921661322452"><ele>278.0</ele><time>2026-04-14T13:13:07Z</time></trkpt><trkpt lat="47.119628498374595" lon="5.479957954963185"><ele>278.0</ele><time>2026-04-14T13:13:09Z</time></trkpt><trkpt lat="47.11970473178394" lon="5.479996679355837"><ele>278.0</ele><time>2026-04-14T13:13:11Z</time></trkpt><trkpt lat="47.119778534441366" lon="5.480042025451995"><ele>278.0</ele><time>2026-04-14T13:13:13Z</time></trkpt><trkpt lat="47.11984659549512" lon="5.480098268022276"><ele>278.0</ele><time>2026-04-14T13:13:15Z</time></trkpt><trkpt lat="47.119901161684766" lon="5.480149984364845"><ele>278.0</ele><time>2026-04-14T13:13:17Z</time></trkpt><trkpt lat="47.11997232404269" lon="5.480227097874023"><ele>278.0</ele><time>2026-04-14T13:13:20Z</time></trkpt><trkpt lat="47.12002416611381" lon="5.480289459233619"><ele>278.0</ele><time>2026-04-14T13:13:22Z</time></trkpt><trkpt lat="47.12009930987574" lon="5.48034813255582"><ele>278.0</ele><time>2026-04-14T13:13:25Z</time></trkpt><trkpt lat="47.12018128488876" lon="5.480369087313749"><ele>278.0</ele><time>2026-04-14T13:13:28Z</time></trkpt><trkpt lat="47.12026179306872" lon="5.4803824145397915"><ele>278.0</ele><time>2026-04-14T13:13:31Z</time></trkpt><trkpt lat="47.12034527682431" lon="5.480425916617252"><ele>278.0</ele><time>2026-04-14T13:13:34Z</time></trkpt><trkpt lat="47.120405207431986" lon="5.480461958800889"><ele>278.0</ele><time>2026-04-14T13:13:36Z</time></trkpt><trkpt lat="47.120477668984904" lon="5.480493474756814"><ele>278.0</ele><time>2026-04-14T13:13:39Z</time></trkpt><trkpt lat="47.120556877969875" lon="5.480529014026263"><ele>278.0</ele><time>2026-04-14T13:13:42Z</time></trkpt><trkpt lat="47.120646731971874" lon="5.480557428678014"><ele>278.0</ele><time>2026-04-14T13:13:45Z</time></trkpt><trkpt lat="47.12071009915985" lon="5.48057679087434"><ele>279.6666666666667</ele><time>2026-04-14T13:13:47Z</time></trkpt><trkpt lat="47.120771370872035" lon="5.480598416184523"><ele>281.33333333333337</ele><time>2026-04-14T13:13:49Z</time></trkpt><trkpt lat="47.12083528288372" lon="5.480617778380849"><ele>283.0</ele><time>2026-04-14T13:13:51Z</time></trkpt><trkpt lat="47.120904601222946" lon="5.480646193032601"><ele>284.6666666666667</ele><time>2026-04-14T13:13:53Z</time></trkpt><trkpt lat="47.12098326538421" lon="5.480715511371829"><ele>286.3333333333333</ele><time>2026-04-14T13:13:56Z</time></trkpt><trkpt lat="47.121054972565844" lon="5.480766724800207"><ele>288.0</ele><time>2026-04-14T13:13:59Z</time></trkpt><trkpt lat="47.1211288590423" lon="5.480832271283009"><ele>288.0</ele><time>2026-04-14T13:14:03Z</time></trkpt><trkpt lat="47.121206014460995" lon="5.48088264652107"><ele>288.0</ele><time>2026-04-14T13:14:05Z</time></trkpt><trkpt lat="47.12126917210139" lon="5.480919023980834"><ele>288.0</ele><time>2026-04-14T13:14:07Z</time></trkpt><trkpt lat="47.12134234611608" lon="5.480971243237593"><ele>288.0</ele><time>2026-04-14T13:14:10Z</time></trkpt><trkpt lat="47.121409988074674" lon="5.481017259886005"><ele>288.0</ele><time>2026-04-14T13:14:14Z</time></trkpt><trkpt lat="47.12147830058552" lon="5.4810385499200605"><ele>288.0</ele><time>2026-04-14T13:14:17Z</time></trkpt><trkpt lat="47.12154623591073" lon="5.481087248777487"><ele>287.5</ele><time>2026-04-14T13:14:20Z</time></trkpt><trkpt lat="47.12161228530772" lon="5.481161847715714"><ele>287.0</ele><time>2026-04-14T13:14:23Z</time></trkpt><trkpt lat="47.12167238355346" lon="5.481233261530735"><ele>286.5</ele><time>2026-04-14T13:14:26Z</time></trkpt><trkpt lat="47.121748407415225" lon="5.4812944494238875"><ele>286.0</ele><time>2026-04-14T13:14:29Z</time></trkpt><trkpt lat="47.121811858422234" lon="5.481340214615204"><ele>285.5</ele><time>2026-04-14T13:14:32Z</time></trkpt><trkpt lat="47.121887840374484" lon="5.4814125504395745"><ele>285.0</ele><time>2026-04-14T13:14:35Z</time></trkpt><trkpt lat="47.12197354533441" lon="5.481464182963111"><ele>285.0</ele><time>2026-04-14T13:14:38Z</time></trkpt><trkpt lat="47.122048605277314" lon="5.481490921234229"><ele>285.0</ele><time>2026-04-14T13:14:40Z</time></trkpt><trkpt lat="47.12213229858048" lon="5.4815238621136935"><ele>285.0</ele><time>2026-04-14T13:14:42Z</time></trkpt><trkpt lat="47.12223028302856" lon="5.48154716380451"><ele>285.0</ele><time>2026-04-14T13:14:44Z</time></trkpt><trkpt lat="47.1223324165187" lon="5.481551690032223"><ele>285.0</ele><time>2026-04-14T13:14:46Z</time></trkpt><trkpt lat="47.12239465214975" lon="5.481532663112024"><ele>285.0</ele><time>2026-04-14T13:14:47Z</time></trkpt><trkpt lat="47.122465353503" lon="5.481505170469621"><ele>285.0</ele><time>2026-04-14T13:14:48Z</time></trkpt><trkpt lat="47.12256099101819" lon="5.48143870197747"><ele>285.0</ele><time>2026-04-14T13:14:49Z</time></trkpt><trkpt lat="47.122675990729704" lon="5.481414981191494"><ele>285.0</ele><time>2026-04-14T13:14:51Z</time></trkpt><trkpt lat="47.122781099795475" lon="5.481377765541413"><ele>285.0</ele><time>2026-04-14T13:14:53Z</time></trkpt><trkpt lat="47.12290649306692" lon="5.48135563731704"><ele>285.0</ele><time>2026-04-14T13:14:55Z</time></trkpt><trkpt lat="47.12299789772101" lon="5.48135857098315"><ele>285.0</ele><time>2026-04-14T13:14:57Z</time></trkpt><trkpt lat="47.12309973784454" lon="5.481372317304351"><ele>285.0</ele><time>2026-04-14T13:14:59Z</time></trkpt><trkpt lat="47.12319533345021" lon="5.481413556267955"><ele>285.0</ele><time>2026-04-14T13:15:01Z</time></trkpt><trkpt lat="47.123282924338355" lon="5.481428811331727"><ele>285.0</ele><time>2026-04-14T13:15:03Z</time></trkpt><trkpt lat="47.123355679257884" lon="5.481437947606184"><ele>285.5</ele><time>2026-04-14T13:15:05Z</time></trkpt><trkpt lat="47.12342646443017" lon="5.4814490955374024"><ele>286.0</ele><time>2026-04-14T13:15:07Z</time></trkpt><trkpt lat="47.12351397149928" lon="5.4814405459961675"><ele>286.5</ele><time>2026-04-14T13:15:10Z</time></trkpt><trkpt lat="47.12360076610662" lon="5.481447419156768"><ele>287.0</ele><time>2026-04-14T13:15:13Z</time></trkpt><trkpt lat="47.12367414966889" lon="5.48145873472605"><ele>287.5</ele><time>2026-04-14T13:15:16Z</time></trkpt><trkpt lat="47.12375013162114" lon="5.481499806051591"><ele>288.0</ele><time>2026-04-14T13:15:20Z</time></trkpt><trkpt lat="47.12382716131128" lon="5.481538195168117"><ele>288.0</ele><time>2026-04-14T13:15:24Z</time></trkpt><trkpt lat="47.12389124096103" lon="5.481568286200503"><ele>288.0</ele><time>2026-04-14T13:15:28Z</time></trkpt><trkpt lat="47.123959972567036" lon="5.481601646175125"><ele>288.0</ele><time>2026-04-14T13:15:32Z</time></trkpt><trkpt lat="47.12404006165184" lon="5.481618409981468"><ele>288.0</ele><time>2026-04-14T13:15:36Z</time></trkpt><trkpt lat="47.124124593145325" lon="5.481632743035892"><ele>288.0</ele><time>2026-04-14T13:15:40Z</time></trkpt><trkpt lat="47.124189636713936" lon="5.481648668651918"><ele>288.0</ele><time>2026-04-14T13:15:43Z</time></trkpt><trkpt lat="47.12426507384248" lon="5.481682699178794"><ele>288.5714285714286</ele><time>2026-04-14T13:15:47Z</time></trkpt><trkpt lat="47.124324417716934" lon="5.481713628401497"><ele>289.14285714285717</ele><time>2026-04-14T13:15:50Z</time></trkpt><trkpt lat="47.12439671163179" lon="5.481749335309008"><ele>289.7142857142857</ele><time>2026-04-14T13:15:54Z</time></trkpt><trkpt lat="47.12447621398337" lon="5.481755454098323"><ele>290.28571428571433</ele><time>2026-04-14T13:16:12Z</time></trkpt><trkpt lat="47.12454188619472" lon="5.481768865143398"><ele>290.8571428571429</ele><time>2026-04-14T13:16:15Z</time></trkpt><trkpt lat="47.124618329151645" lon="5.481784036388138"><ele>291.42857142857144</ele><time>2026-04-14T13:16:19Z</time></trkpt><trkpt lat="47.1246966999463" lon="5.481804404412845"><ele>292.0</ele><time>2026-04-14T13:16:23Z</time></trkpt><trkpt lat="47.12477456782676" lon="5.481822006409505"><ele>292.0</ele><time>2026-04-14T13:16:26Z</time></trkpt><trkpt lat="47.12485189088352" lon="5.481850672518352"><ele>292.0</ele><time>2026-04-14T13:16:29Z</time></trkpt><trkpt lat="47.12491768882342" lon="5.481878332798818"><ele>292.0</ele><time>2026-04-14T13:16:32Z</time></trkpt><trkpt lat="47.1249924134902" lon="5.481909848754743"><ele>292.0</ele><time>2026-04-14T13:16:35Z</time></trkpt><trkpt lat="47.12507036518969" lon="5.481938011949399"><ele>292.0</ele><time>2026-04-14T13:16:38Z</time></trkpt><trkpt lat="47.12514898744144" lon="5.481957793240884"><ele>292.0</ele><time>2026-04-14T13:16:41Z</time></trkpt><trkpt lat="47.12522325110354" lon="5.481960140173772"><ele>292.57142857142856</ele><time>2026-04-14T13:16:44Z</time></trkpt><trkpt lat="47.12530359164544" lon="5.481963576754072"><ele>293.14285714285717</ele><time>2026-04-14T13:16:47Z</time></trkpt><trkpt lat="47.125366581647775" lon="5.4819888901016505"><ele>293.7142857142857</ele><time>2026-04-14T13:16:50Z</time></trkpt><trkpt lat="47.125430619388005" lon="5.482005821546057"><ele>294.2857142857143</ele><time>2026-04-14T13:16:53Z</time></trkpt><trkpt lat="47.12549453139969" lon="5.48199911602352"><ele>294.85714285714283</ele><time>2026-04-14T13:16:56Z</time></trkpt><trkpt lat="47.12556120943942" lon="5.482038678606489"><ele>295.42857142857144</ele><time>2026-04-14T13:17:01Z</time></trkpt><trkpt lat="47.12562034376629" lon="5.482104141270259"><ele>296.0</ele><time>2026-04-14T13:17:07Z</time></trkpt><trkpt lat="47.125679520002684" lon="5.482170693581441"><ele>296.8571428571429</ele><time>2026-04-14T13:17:12Z</time></trkpt><trkpt lat="47.125711496963284" lon="5.482270270591119"><ele>297.7142857142857</ele><time>2026-04-14T13:17:19Z</time></trkpt><trkpt lat="47.12569917556562" lon="5.482373032724002"><ele>298.57142857142856</ele><time>2026-04-14T13:17:27Z</time></trkpt><trkpt lat="47.125666360414705" lon="5.482466490944366"><ele>299.42857142857144</ele><time>2026-04-14T13:17:34Z</time></trkpt><trkpt lat="47.12562155914225" lon="5.482550309976081"><ele>300.2857142857143</ele><time>2026-04-14T13:17:40Z</time></trkpt><trkpt lat="47.12557474621304" lon="5.482621137057881"><ele>301.14285714285717</ele><time>2026-04-14T13:17:45Z</time></trkpt><trkpt lat="47.125546876384995" lon="5.482712080707292"><ele>302.0</ele><time>2026-04-14T13:17:51Z</time></trkpt><trkpt lat="47.125504380135915" lon="5.482785338541011"><ele>302.00000000000006</ele><time>2026-04-14T13:17:59Z</time></trkpt><trkpt lat="47.12552529298433" lon="5.482881730427484"><ele>302.0</ele><time>2026-04-14T13:20:52Z</time></trkpt><trkpt lat="47.12555048060336" lon="5.482976697390417"><ele>302.0</ele><time>2026-04-14T13:22:55Z</time></trkpt><trkpt lat="47.12561954748549" lon="5.482973931362371"><ele>302.0</ele><time>2026-04-14T13:23:00Z</time></trkpt><trkpt lat="47.125682747035405" lon="5.48298759386454"><ele>302.0</ele><time>2026-04-14T13:23:04Z</time></trkpt><trkpt lat="47.12575009562739" lon="5.483042746787409"><ele>302.00000000000006</ele><time>2026-04-14T13:23:09Z</time></trkpt><trkpt lat="47.125822263813696" lon="5.483079375704269"><ele>302.0</ele><time>2026-04-14T13:23:14Z</time></trkpt><trkpt lat="47.12588420607813" lon="5.48310779035602"><ele>303.8571428571429</ele><time>2026-04-14T13:23:19Z</time></trkpt><trkpt lat="47.125943969047746" lon="5.483149448414783"><ele>305.7142857142857</ele><time>2026-04-14T13:23:31Z</time></trkpt><trkpt lat="47.1260059532217" lon="5.4831777792475025"><ele>307.57142857142856</ele><time>2026-04-14T13:23:35Z</time></trkpt><trkpt lat="47.12607200261869" lon="5.483206864451508"><ele>309.42857142857144</ele><time>2026-04-14T13:23:40Z</time></trkpt><trkpt lat="47.12614169814356" lon="5.483237542217116"><ele>311.2857142857143</ele><time>2026-04-14T13:23:45Z</time></trkpt><trkpt lat="47.12621650662937" lon="5.4832569882324735"><ele>313.14285714285717</ele><time>2026-04-14T13:23:55Z</time></trkpt><trkpt lat="47.12627844889381" lon="5.483297305186729"><ele>315.0</ele><time>2026-04-14T13:23:59Z</time></trkpt><trkpt lat="47.126346258490464" lon="5.483340891083221"><ele>315.0</ele><time>2026-04-14T13:24:03Z</time></trkpt><trkpt lat="47.126407865478775" lon="5.4833947867206145"><ele>315.0</ele><time>2026-04-14T13:24:07Z</time></trkpt><trkpt lat="47.126482129140875" lon="5.483438456436138"><ele>315.0</ele><time>2026-04-14T13:24:11Z</time></trkpt><trkpt lat="47.1265474660761" lon="5.483485395093899"><ele>315.0</ele><time>2026-04-14T13:24:15Z</time></trkpt><trkpt lat="47.12661732923903" lon="5.4835087806037475"><ele>315.0</ele><time>2026-04-14T13:24:19Z</time></trkpt><trkpt lat="47.12668069642701" lon="5.483530238275867"><ele>315.0</ele><time>2026-04-14T13:24:22Z</time></trkpt><trkpt lat="47.12674682964303" lon="5.483555132528286"><ele>315.0</ele><time>2026-04-14T13:24:25Z</time></trkpt><trkpt lat="47.126810532107136" lon="5.483580445875864"><ele>316.0</ele><time>2026-04-14T13:24:28Z</time></trkpt><trkpt lat="47.12688961536356" lon="5.483603077014427"><ele>317.0</ele><time>2026-04-14T13:24:33Z</time></trkpt><trkpt lat="47.126960484354875" lon="5.483627300714593"><ele>318.0</ele><time>2026-04-14T13:24:37Z</time></trkpt><trkpt lat="47.12702879686572" lon="5.48363056965683"><ele>319.0</ele><time>2026-04-14T13:24:41Z</time></trkpt><trkpt lat="47.1270921640537" lon="5.483651189138632"><ele>320.0</ele><time>2026-04-14T13:24:46Z</time></trkpt><trkpt lat="47.12715934500762" lon="5.483677927409749"><ele>321.0</ele><time>2026-04-14T13:24:50Z</time></trkpt><trkpt lat="47.12721793451079" lon="5.483726793905239"><ele>322.0</ele><time>2026-04-14T13:24:54Z</time></trkpt><trkpt lat="47.127277865118465" lon="5.483792340388041"><ele>322.66666666666663</ele><time>2026-04-14T13:24:59Z</time></trkpt><trkpt lat="47.127341902858696" lon="5.483813043688874"><ele>323.3333333333333</ele><time>2026-04-14T13:25:02Z</time></trkpt><trkpt lat="47.12741184984066" lon="5.483829975133281"><ele>324.0</ele><time>2026-04-14T13:25:05Z</time></trkpt><trkpt lat="47.12749491450109" lon="5.483869956811409"><ele>324.6666666666667</ele><time>2026-04-14T13:25:08Z</time></trkpt><trkpt lat="47.1275610058076" lon="5.4839399457028914"><ele>325.33333333333337</ele><time>2026-04-14T13:25:11Z</time></trkpt><trkpt lat="47.1276498120717" lon="5.48399266787384"><ele>326.0</ele><time>2026-04-14T13:25:14Z</time></trkpt><trkpt lat="47.12772508156218" lon="5.484015382831435"><ele>326.75</ele><time>2026-04-14T13:25:16Z</time></trkpt><trkpt lat="47.127800225324116" lon="5.4840432945689965"><ele>327.5</ele><time>2026-04-14T13:25:18Z</time></trkpt><trkpt lat="47.127885930284044" lon="5.4840748105249215"><ele>328.25</ele><time>2026-04-14T13:25:20Z</time></trkpt><trkpt lat="47.12796228942194" lon="5.484085539360981"><ele>329.0</ele><time>2026-04-14T13:25:22Z</time></trkpt><trkpt lat="47.1281741420246" lon="5.484090233226757"><ele>328.5</ele><time>2026-04-14T13:25:30Z</time></trkpt><trkpt lat="47.12824170016416" lon="5.484111104165654"><ele>328.0</ele><time>2026-04-14T13:25:33Z</time></trkpt><trkpt lat="47.12831789166399" lon="5.484122000639777"><ele>327.5</ele><time>2026-04-14T13:25:37Z</time></trkpt><trkpt lat="47.128382683775506" lon="5.484144883235436"><ele>327.0</ele><time>2026-04-14T13:25:41Z</time></trkpt><trkpt lat="47.12854118556448" lon="5.484158881013732"><ele>326.5</ele><time>2026-04-14T13:25:51Z</time></trkpt><trkpt lat="47.12861117445596" lon="5.484168855478506"><ele>326.0</ele><time>2026-04-14T13:25:56Z</time></trkpt><trkpt lat="47.1286887070603" lon="5.484187882398706"><ele>326.0</ele><time>2026-04-14T13:26:01Z</time></trkpt><trkpt lat="47.12874666792073" lon="5.484228702267151"><ele>326.0</ele><time>2026-04-14T13:26:06Z</time></trkpt><trkpt lat="47.1288102865658" lon="5.484233396132927"><ele>326.0</ele><time>2026-04-14T13:26:59Z</time></trkpt><trkpt lat="47.12887021717348" lon="5.484133483847122"><ele>326.0</ele><time>2026-04-14T13:27:03Z</time></trkpt><trkpt lat="47.12893299762823" lon="5.484041785826426"><ele>326.0</ele><time>2026-04-14T13:27:06Z</time></trkpt><trkpt lat="47.12899188049801" lon="5.483938939874511"><ele>326.0</ele><time>2026-04-14T13:27:09Z</time></trkpt><trkpt lat="47.12901518218883" lon="5.483830561866503"><ele>325.2857142857143</ele><time>2026-04-14T13:27:12Z</time></trkpt><trkpt lat="47.12905189492472" lon="5.483741210778694"><ele>324.57142857142856</ele><time>2026-04-14T13:27:15Z</time></trkpt><trkpt lat="47.129097995392165" lon="5.483665522193055"><ele>323.85714285714283</ele><time>2026-04-14T13:27:18Z</time></trkpt><trkpt lat="47.129150717563114" lon="5.483597377320271"><ele>323.1428571428571</ele><time>2026-04-14T13:27:21Z</time></trkpt><trkpt lat="47.12920272727229" lon="5.4835323337516595"><ele>322.42857142857144</ele><time>2026-04-14T13:27:24Z</time></trkpt><trkpt lat="47.12926601064124" lon="5.483465949078541"><ele>321.71428571428567</ele><time>2026-04-14T13:27:28Z</time></trkpt><trkpt lat="47.12931772698381" lon="5.4833803698471595"><ele>321.0</ele><time>2026-04-14T13:27:32Z</time></trkpt><trkpt lat="47.12936709639349" lon="5.483296718453507"><ele>321.0</ele><time>2026-04-14T13:27:36Z</time></trkpt><trkpt lat="47.12941592097946" lon="5.483216336002092"><ele>321.0</ele><time>2026-04-14T13:27:39Z</time></trkpt><trkpt lat="47.12946692486026" lon="5.483124218886236"><ele>321.0</ele><time>2026-04-14T13:27:42Z</time></trkpt><trkpt lat="47.12950921156176" lon="5.483009470631818"><ele>321.0</ele><time>2026-04-14T13:27:45Z</time></trkpt><trkpt lat="47.12951780301251" lon="5.482914336030821"><ele>321.0</ele><time>2026-04-14T13:27:47Z</time></trkpt><trkpt lat="47.12947853379615" lon="5.482790451501946"><ele>321.0</ele><time>2026-04-14T13:27:50Z</time></trkpt><trkpt lat="47.12943314579048" lon="5.482685258617143"><ele>320.8333333333333</ele><time>2026-04-14T13:27:53Z</time></trkpt><trkpt lat="47.129407287619195" lon="5.482577383523325"><ele>320.6666666666667</ele><time>2026-04-14T13:27:56Z</time></trkpt><trkpt lat="47.129371077797494" lon="5.482480991636852"><ele>320.5</ele><time>2026-04-14T13:27:59Z</time></trkpt><trkpt lat="47.129332227676294" lon="5.482370434334019"><ele>320.33333333333337</ele><time>2026-04-14T13:28:03Z</time></trkpt><trkpt lat="47.12929077916511" lon="5.482289800425509"><ele>320.1666666666667</ele><time>2026-04-14T13:28:05Z</time></trkpt><trkpt lat="47.1292310161955" lon="5.482212100183109"><ele>320.0</ele><time>2026-04-14T13:28:07Z</time></trkpt><trkpt lat="47.129168612926385" lon="5.482136663054565"><ele>319.6</ele><time>2026-04-14T13:28:09Z</time></trkpt><trkpt lat="47.12916085966595" lon="5.48202501610432"><ele>319.2</ele><time>2026-04-14T13:28:11Z</time></trkpt><trkpt lat="47.129183993718705" lon="5.481918146838883"><ele>318.8</ele><time>2026-04-14T13:28:13Z</time></trkpt><trkpt lat="47.12922095791169" lon="5.481795603414515"><ele>318.4</ele><time>2026-04-14T13:28:15Z</time></trkpt><trkpt lat="47.129256329543075" lon="5.481647411366442"><ele>318.0</ele><time>2026-04-14T13:28:17Z</time></trkpt><trkpt lat="47.129296604587815" lon="5.481504248460272"><ele>318.0</ele><time>2026-04-14T13:28:19Z</time></trkpt><trkpt lat="47.12931575723656" lon="5.481409952049591"><ele>318.0</ele><time>2026-04-14T13:28:21Z</time></trkpt><trkpt lat="47.1293406933985" lon="5.481283636768796"><ele>318.0</ele><time>2026-04-14T13:28:24Z</time></trkpt><trkpt lat="47.129378160505674" lon="5.4812043439647935"><ele>318.0</ele><time>2026-04-14T13:29:01Z</time></trkpt><trkpt lat="47.129409802190146" lon="5.481096468870976"><ele>318.0</ele><time>2026-04-14T13:29:05Z</time></trkpt><trkpt lat="47.12942664981552" lon="5.4809731710753224"><ele>318.0</ele><time>2026-04-14T13:29:07Z</time></trkpt><trkpt lat="47.12943851020851" lon="5.480838725348451"><ele>317.3333333333333</ele><time>2026-04-14T13:29:09Z</time></trkpt><trkpt lat="47.129459800242564" lon="5.4807243123701594"><ele>316.6666666666667</ele><time>2026-04-14T13:29:11Z</time></trkpt><trkpt lat="47.12949232202687" lon="5.480617359285691"><ele>316.0</ele><time>2026-04-14T13:29:13Z</time></trkpt><trkpt lat="47.12950686462887" lon="5.48050940037284"><ele>315.33333333333337</ele><time>2026-04-14T13:29:15Z</time></trkpt><trkpt lat="47.129510594575784" lon="5.480411499743797"><ele>314.6666666666667</ele><time>2026-04-14T13:29:17Z</time></trkpt><trkpt lat="47.12952974722453" lon="5.480313347657658"><ele>314.0</ele><time>2026-04-14T13:29:19Z</time></trkpt><trkpt lat="47.12961511690833" lon="5.480199186136462"><ele>313.33333333333337</ele><time>2026-04-14T13:29:21Z</time></trkpt><trkpt lat="47.12967228148796" lon="5.480108410125114"><ele>312.6666666666667</ele><time>2026-04-14T13:29:23Z</time></trkpt><trkpt lat="47.12964902170666" lon="5.480001876135804"><ele>312.0</ele><time>2026-04-14T13:29:25Z</time></trkpt><trkpt lat="47.129664570137045" lon="5.479904813697077"><ele>311.3333333333333</ele><time>2026-04-14T13:29:27Z</time></trkpt><trkpt lat="47.12968728509464" lon="5.479795094584562"><ele>310.66666666666663</ele><time>2026-04-14T13:29:29Z</time></trkpt><trkpt lat="47.12968837474205" lon="5.4796611517718805"><ele>310.0</ele><time>2026-04-14T13:29:31Z</time></trkpt><trkpt lat="47.12969813965925" lon="5.4795542825064425"><ele>309.7142857142857</ele><time>2026-04-14T13:29:33Z</time></trkpt><trkpt lat="47.129718591502986" lon="5.479461578657365"><ele>309.42857142857144</ele><time>2026-04-14T13:29:39Z</time></trkpt><trkpt lat="47.1297799470342" lon="5.479417070751524"><ele>309.1428571428571</ele><time>2026-04-14T13:30:33Z</time></trkpt><trkpt lat="47.12980982851901" lon="5.4793204274079566"><ele>308.8571428571429</ele><time>2026-04-14T13:30:37Z</time></trkpt><trkpt lat="47.129819258160076" lon="5.4792159050754075"><ele>308.57142857142856</ele><time>2026-04-14T13:30:41Z</time></trkpt><trkpt lat="47.12982009635039" lon="5.479098474611974"><ele>308.2857142857143</ele><time>2026-04-14T13:30:45Z</time></trkpt><trkpt lat="47.12984432005056" lon="5.478989090775586"><ele>308.0</ele><time>2026-04-14T13:30:50Z</time></trkpt><trkpt lat="47.12985299532034" lon="5.478888005023337"><ele>308.0</ele><time>2026-04-14T13:30:54Z</time></trkpt><trkpt lat="47.12985634808161" lon="5.478781973948217"><ele>308.0</ele><time>2026-04-14T13:30:58Z</time></trkpt><trkpt lat="47.12986393370398" lon="5.4786713328263525"><ele>308.0</ele><time>2026-04-14T13:31:02Z</time></trkpt><trkpt lat="47.12986871138879" lon="5.4785712529024835"><ele>308.0</ele><time>2026-04-14T13:31:07Z</time></trkpt><trkpt lat="47.12988501419046" lon="5.478472681721186"><ele>308.0</ele><time>2026-04-14T13:31:37Z</time></trkpt><trkpt lat="47.1298880316756" lon="5.478375786920523"><ele>308.0</ele><time>2026-04-14T13:31:47Z</time></trkpt><trkpt lat="47.12989381518879" lon="5.478273611520862"><ele>308.0</ele><time>2026-04-14T13:32:00Z</time></trkpt><trkpt lat="47.1299223974786" lon="5.478190295403337"><ele>308.42857142857144</ele><time>2026-04-14T13:32:13Z</time></trkpt><trkpt lat="47.1299543744392" lon="5.47810052522037"><ele>308.8571428571429</ele><time>2026-04-14T13:32:24Z</time></trkpt><trkpt lat="47.12996560618945" lon="5.478001199667787"><ele>309.2857142857143</ele><time>2026-04-14T13:32:34Z</time></trkpt><trkpt lat="47.129979520148716" lon="5.477900281553602"><ele>309.7142857142857</ele><time>2026-04-14T13:32:41Z</time></trkpt><trkpt lat="47.129993182650885" lon="5.477805649866795"><ele>310.14285714285717</ele><time>2026-04-14T13:32:52Z</time></trkpt><trkpt lat="47.13001572997042" lon="5.477709593256449"><ele>310.57142857142856</ele><time>2026-04-14T13:33:03Z</time></trkpt><trkpt lat="47.130068661688945" lon="5.477632144471143"><ele>311.0</ele><time>2026-04-14T13:33:08Z</time></trkpt><trkpt lat="47.130119665569744" lon="5.477562071760629"><ele>311.85714285714283</ele><time>2026-04-14T13:33:12Z</time></trkpt><trkpt lat="47.13012264114537" lon="5.47745511867616"><ele>312.7142857142857</ele><time>2026-04-14T13:34:31Z</time></trkpt><trkpt lat="47.13017117236473" lon="5.477385967974995"><ele>313.57142857142856</ele><time>2026-04-14T13:34:34Z</time></trkpt><trkpt lat="47.13021915876039" lon="5.477321762596701"><ele>314.42857142857144</ele><time>2026-04-14T13:34:36Z</time></trkpt><trkpt lat="47.13026840244152" lon="5.477254791190361"><ele>315.2857142857143</ele><time>2026-04-14T13:34:38Z</time></trkpt><trkpt lat="47.13032045406022" lon="5.477198800077175"><ele>316.14285714285717</ele><time>2026-04-14T13:34:40Z</time></trkpt><trkpt lat="47.13038771883317" lon="5.4771335888705"><ele>317.0</ele><time>2026-04-14T13:34:42Z</time></trkpt><trkpt lat="47.130457162900946" lon="5.477066449826096"><ele>316.5</ele><time>2026-04-14T13:34:44Z</time></trkpt><trkpt lat="47.13048394308158" lon="5.476965280254816"><ele>316.0</ele><time>2026-04-14T13:34:46Z</time></trkpt><trkpt lat="47.130543580322644" lon="5.476921778177355"><ele>315.5</ele><time>2026-04-14T13:34:49Z</time></trkpt><trkpt lat="47.13060359474935" lon="5.476819602777694"><ele>315.0</ele><time>2026-04-14T13:34:51Z</time></trkpt><trkpt lat="47.13067253590294" lon="5.476760007446145"><ele>314.5</ele><time>2026-04-14T13:34:53Z</time></trkpt><trkpt lat="47.13074206378975" lon="5.476683313032124"><ele>314.0</ele><time>2026-04-14T13:34:56Z</time></trkpt><trkpt lat="47.130799647464535" lon="5.476625310262177"><ele>314.0</ele><time>2026-04-14T13:34:59Z</time></trkpt><trkpt lat="47.130846586122296" lon="5.476541826506589"><ele>314.0</ele><time>2026-04-14T13:35:02Z</time></trkpt><trkpt lat="47.13090282869258" lon="5.476458175112937"><ele>314.0</ele><time>2026-04-14T13:35:05Z</time></trkpt><trkpt lat="47.13096058000543" lon="5.476374020805094"><ele>314.0</ele><time>2026-04-14T13:35:08Z</time></trkpt><trkpt lat="47.131007015749" lon="5.47628877684984"><ele>314.0</ele><time>2026-04-14T13:35:10Z</time></trkpt><trkpt lat="47.13105584033497" lon="5.4761860985359885"><ele>314.0</ele><time>2026-04-14T13:35:13Z</time></trkpt><trkpt lat="47.13110139597871" lon="5.476106721912954"><ele>313.0</ele><time>2026-04-14T13:35:16Z</time></trkpt><trkpt lat="47.13115772236802" lon="5.4760467913052775"><ele>312.0</ele><time>2026-04-14T13:35:20Z</time></trkpt><trkpt lat="47.13123018392094" lon="5.476001612847183"><ele>311.0</ele><time>2026-04-14T13:35:23Z</time></trkpt><trkpt lat="47.131302184469185" lon="5.475964732473228"><ele>310.0</ele><time>2026-04-14T13:35:30Z</time></trkpt><trkpt lat="47.13136031296768" lon="5.475891558458541"><ele>309.0</ele><time>2026-04-14T13:35:32Z</time></trkpt><trkpt lat="47.13141663935699" lon="5.475817713891599"><ele>308.0</ele><time>2026-04-14T13:35:34Z</time></trkpt><trkpt lat="47.13147380393662" lon="5.475747054447863"><ele>308.0</ele><time>2026-04-14T13:35:38Z</time></trkpt><trkpt lat="47.131518605209074" lon="5.475662145768735"><ele>308.0</ele><time>2026-04-14T13:35:43Z</time></trkpt><trkpt lat="47.13156550195732" lon="5.475575225432846"><ele>308.0</ele><time>2026-04-14T13:35:47Z</time></trkpt><trkpt lat="47.13161051277735" lon="5.4755099304071395"><ele>308.0</ele><time>2026-04-14T13:35:50Z</time></trkpt><trkpt lat="47.131676226898215" lon="5.475452346732351"><ele>308.0</ele><time>2026-04-14T13:35:53Z</time></trkpt><trkpt lat="47.13173896544345" lon="5.4754003789326875"><ele>308.0</ele><time>2026-04-14T13:35:56Z</time></trkpt><trkpt lat="47.13179043032893" lon="5.475339526315662"><ele>308.0</ele><time>2026-04-14T13:36:00Z</time></trkpt><trkpt lat="47.131843571595034" lon="5.4752270411751"><ele>303.2</ele><time>2026-04-14T13:36:20Z</time></trkpt><trkpt lat="47.131892731457135" lon="5.475166691472265"><ele>298.4</ele><time>2026-04-14T13:37:07Z</time></trkpt><trkpt lat="47.131998972079835" lon="5.475064180796477"><ele>293.59999999999997</ele><time>2026-04-14T13:38:20Z</time></trkpt><trkpt lat="47.13211061903008" lon="5.475037693982455"><ele>288.8</ele><time>2026-04-14T13:39:07Z</time></trkpt><trkpt lat="47.13223949079134" lon="5.4750293120792835"><ele>284.0</ele><time>2026-04-14T13:39:13Z</time></trkpt><trkpt lat="47.13231811304309" lon="5.475016487767431"><ele>281.0</ele><time>2026-04-14T13:39:17Z</time></trkpt><trkpt lat="47.132398202127895" lon="5.4750036634555785"><ele>278.0</ele><time>2026-04-14T13:39:27Z</time></trkpt><trkpt lat="47.13246936448582" lon="5.474986564373109"><ele>275.0</ele><time>2026-04-14T13:39:30Z</time></trkpt><trkpt lat="47.13253507860669" lon="5.474990000953409"><ele>272.0</ele><time>2026-04-14T13:39:32Z</time></trkpt><trkpt lat="47.13260624096462" lon="5.475048422818515"><ele>269.0</ele><time>2026-04-14T13:39:33Z</time></trkpt><trkpt lat="47.13270154320368" lon="5.475067952652904"><ele>266.0</ele><time>2026-04-14T13:39:35Z</time></trkpt><trkpt lat="47.13277396284708" lon="5.475164847453567"><ele>266.0</ele><time>2026-04-14T13:39:37Z</time></trkpt><trkpt lat="47.132807741916864" lon="5.475253025074932"><ele>266.0</ele><time>2026-04-14T13:39:40Z</time></trkpt><trkpt lat="47.132862978658764" lon="5.475342459981772"><ele>266.0</ele><time>2026-04-14T13:39:43Z</time></trkpt><trkpt lat="47.13293799669215" lon="5.475399959837529"><ele>266.0</ele><time>2026-04-14T13:39:47Z</time></trkpt><trkpt lat="47.13299029976794" lon="5.475456789141032"><ele>266.0</ele><time>2026-04-14T13:39:49Z</time></trkpt><trkpt lat="47.13304071691552" lon="5.475569861014816"><ele>266.0</ele><time>2026-04-14T13:39:52Z</time></trkpt><trkpt lat="47.1330684191055" lon="5.475660637026164"><ele>267.33333333333337</ele><time>2026-04-14T13:39:54Z</time></trkpt><trkpt lat="47.13306464724907" lon="5.4757646564445235"><ele>268.6666666666667</ele><time>2026-04-14T13:39:58Z</time></trkpt><trkpt lat="47.13309997697094" lon="5.475874459376071"><ele>270.0</ele><time>2026-04-14T13:40:39Z</time></trkpt><trkpt lat="47.13319909297594" lon="5.47591402195904"><ele>271.3333333333333</ele><time>2026-04-14T13:41:05Z</time></trkpt><trkpt lat="47.13320470885107" lon="5.47581092455003"><ele>272.66666666666663</ele><time>2026-04-14T13:41:13Z</time></trkpt><trkpt lat="47.133226376070766" lon="5.475931791593764"><ele>274.0</ele><time>2026-04-14T13:41:33Z</time></trkpt><trkpt lat="47.13325353343704" lon="5.476026842375729"><ele>274.0</ele><time>2026-04-14T13:41:35Z</time></trkpt><trkpt lat="47.13321187537828" lon="5.476098675285909"><ele>274.0</ele><time>2026-04-14T13:41:56Z</time></trkpt><trkpt lat="47.133243181786625" lon="5.476193390791748"><ele>274.0</ele><time>2026-04-14T13:41:58Z</time></trkpt><trkpt lat="47.13329816707143" lon="5.476288525392745"><ele>274.0</ele><time>2026-04-14T13:42:00Z</time></trkpt><trkpt lat="47.133352356075434" lon="5.476389862602089"><ele>274.0</ele><time>2026-04-14T13:42:02Z</time></trkpt><trkpt lat="47.13340210267076" lon="5.476500503723953"><ele>274.0</ele><time>2026-04-14T13:42:05Z</time></trkpt><trkpt lat="47.133457255593626" lon="5.476586082955334"><ele>272.00000000000006</ele><time>2026-04-14T13:42:07Z</time></trkpt><trkpt lat="47.133535668297796" lon="5.4767120629600035"><ele>270.0</ele><time>2026-04-14T13:42:08Z</time></trkpt><trkpt lat="47.13357657198527" lon="5.476788003002738"><ele>268.0</ele><time>2026-04-14T13:42:09Z</time></trkpt><trkpt lat="47.13363013234654" lon="5.476846508686875"><ele>266.0</ele><time>2026-04-14T13:42:10Z</time></trkpt><trkpt lat="47.13364936881432" lon="5.476940637459491"><ele>264.0</ele><time>2026-04-14T13:42:12Z</time></trkpt><trkpt lat="47.13368256115088" lon="5.4770206846347795"><ele>262.00000000000006</ele><time>2026-04-14T13:42:16Z</time></trkpt><trkpt lat="47.133726901418655" lon="5.477096037944292"><ele>260.0</ele><time>2026-04-14T13:42:21Z</time></trkpt><trkpt lat="47.13378054559895" lon="5.477153705438112"><ele>260.0</ele><time>2026-04-14T13:42:53Z</time></trkpt><trkpt lat="47.1338438289679" lon="5.477176671852802"><ele>260.0</ele><time>2026-04-14T13:45:00Z</time></trkpt><trkpt lat="47.133901412642686" lon="5.477273566653465"><ele>260.0</ele><time>2026-04-14T13:50:05Z</time></trkpt><trkpt lat="47.13389215063968" lon="5.4773738142153965"><ele>260.0</ele><time>2026-04-14T13:50:22Z</time></trkpt><trkpt lat="47.13395568546572" lon="5.477456208323573"><ele>260.0</ele><time>2026-04-14T13:50:57Z</time></trkpt><trkpt lat="47.134013311050026" lon="5.477537764241432"><ele>260.0</ele><time>2026-04-14T13:50:59Z</time></trkpt><trkpt lat="47.13411427107373" lon="5.477678664033746"><ele>254.16666666666669</ele><time>2026-04-14T13:51:01Z</time></trkpt><trkpt lat="47.134162969931154" lon="5.477804308762288"><ele>248.33333333333334</ele><time>2026-04-14T13:51:03Z</time></trkpt><trkpt lat="47.134202532514124" lon="5.4779324680617805"><ele>242.5</ele><time>2026-04-14T13:51:05Z</time></trkpt><trkpt lat="47.13424284946838" lon="5.478047886868453"><ele>236.66666666666669</ele><time>2026-04-14T13:51:07Z</time></trkpt><trkpt lat="47.13427126412013" lon="5.478159617637729"><ele>230.83333333333334</ele><time>2026-04-14T13:51:09Z</time></trkpt><trkpt lat="47.134295194453685" lon="5.47827889211986"><ele>225.0</ele><time>2026-04-14T13:51:11Z</time></trkpt><trkpt lat="47.134322016543834" lon="5.478385342290139"><ele>225.0</ele><time>2026-04-14T13:51:13Z</time></trkpt><trkpt lat="47.134351856119125" lon="5.478507969533538"><ele>225.0</ele><time>2026-04-14T13:51:15Z</time></trkpt><trkpt lat="47.13438936513582" lon="5.478628082205987"><ele>225.0</ele><time>2026-04-14T13:51:17Z</time></trkpt><trkpt lat="47.134417528330474" lon="5.478768479084111"><ele>225.0</ele><time>2026-04-14T13:51:19Z</time></trkpt><trkpt lat="47.13444124911645" lon="5.478890268137193"><ele>225.0</ele><time>2026-04-14T13:51:21Z</time></trkpt><trkpt lat="47.134476411200254" lon="5.4790123924664025"><ele>226.6</ele><time>2026-04-14T13:51:23Z</time></trkpt><trkpt lat="47.13450838816085" lon="5.479122363036013"><ele>228.2</ele><time>2026-04-14T13:51:25Z</time></trkpt><trkpt lat="47.13455067486235" lon="5.479258149867392"><ele>229.8</ele><time>2026-04-14T13:51:27Z</time></trkpt><trkpt lat="47.13460058909574" lon="5.479392344137168"><ele>231.4</ele><time>2026-04-14T13:51:29Z</time></trkpt><trkpt lat="47.134639187759845" lon="5.479515139018631"><ele>233.0</ele><time>2026-04-14T13:51:31Z</time></trkpt><trkpt lat="47.13467690632412" lon="5.4796249419501795"><ele>234.16666666666669</ele><time>2026-04-14T13:51:33Z</time></trkpt><trkpt lat="47.13471248750308" lon="5.47971831635151"><ele>235.33333333333334</ele><time>2026-04-14T13:51:35Z</time></trkpt><trkpt lat="47.13476428766468" lon="5.479847146203257"><ele>236.5</ele><time>2026-04-14T13:51:38Z</time></trkpt><trkpt lat="47.13478775699356" lon="5.479938089852668"><ele>237.66666666666669</ele><time>2026-04-14T13:51:40Z</time></trkpt><trkpt lat="47.134821703701405" lon="5.4800417739949"><ele>238.83333333333334</ele><time>2026-04-14T13:51:42Z</time></trkpt><trkpt lat="47.13486114055583" lon="5.48014436848972"><ele>240.0</ele><time>2026-04-14T13:51:44Z</time></trkpt><trkpt lat="47.1349107614226" lon="5.480231540282704"><ele>237.42857142857144</ele><time>2026-04-14T13:51:46Z</time></trkpt><trkpt lat="47.13496075947502" lon="5.480314521124102"><ele>234.85714285714283</ele><time>2026-04-14T13:51:48Z</time></trkpt><trkpt lat="47.1350016631625" lon="5.48038819805298"><ele>232.28571428571428</ele><time>2026-04-14T13:51:50Z</time></trkpt><trkpt lat="47.135047428353815" lon="5.480488780891038"><ele>229.71428571428572</ele><time>2026-04-14T13:51:53Z</time></trkpt><trkpt lat="47.13504445277819" lon="5.480594057594874"><ele>227.14285714285717</ele><time>2026-04-14T13:52:54Z</time></trkpt><trkpt lat="47.13508036923328" lon="5.480684163053968"><ele>224.57142857142856</ele><time>2026-04-14T13:53:36Z</time></trkpt><trkpt lat="47.135031125552146" lon="5.480616437276342"><ele>222.0</ele><time>2026-04-14T13:54:24Z</time></trkpt><trkpt lat="47.13496826127836" lon="5.480564804752805"><ele>222.0</ele><time>2026-04-14T13:54:28Z</time></trkpt><trkpt lat="47.13500283662894" lon="5.480657173325755"><ele>222.0</ele><time>2026-04-14T13:54:53Z</time></trkpt><trkpt lat="47.13501591239789" lon="5.480749206622579"><ele>222.0</ele><time>2026-04-14T13:54:57Z</time></trkpt><trkpt lat="47.13502664123395" lon="5.4808768630078815"><ele>222.0</ele><time>2026-04-14T13:55:00Z</time></trkpt><trkpt lat="47.135028904347806" lon="5.480971997608878"><ele>222.0</ele><time>2026-04-14T13:55:02Z</time></trkpt><trkpt lat="47.13503116746166" lon="5.481071323161461"><ele>222.0</ele><time>2026-04-14T13:55:04Z</time></trkpt><trkpt lat="47.13503280193278" lon="5.481166793038585"><ele>222.0</ele><time>2026-04-14T13:55:06Z</time></trkpt><trkpt lat="47.1350275632433" lon="5.481274249037244"><ele>222.71428571428572</ele><time>2026-04-14T13:55:09Z</time></trkpt><trkpt lat="47.13503414303729" lon="5.481378184636571"><ele>223.42857142857144</ele><time>2026-04-14T13:55:12Z</time></trkpt><trkpt lat="47.13504675780156" lon="5.481470972304681"><ele>224.14285714285717</ele><time>2026-04-14T13:55:15Z</time></trkpt><trkpt lat="47.13505384050974" lon="5.481584127997497"><ele>224.85714285714286</ele><time>2026-04-14T13:55:19Z</time></trkpt><trkpt lat="47.13506788019755" lon="5.48169569112871"><ele>225.5714285714286</ele><time>2026-04-14T13:55:23Z</time></trkpt><trkpt lat="47.135101365900724" lon="5.481781773274282"><ele>226.2857142857143</ele><time>2026-04-14T13:55:26Z</time></trkpt><trkpt lat="47.13514574807802" lon="5.481866765772441"><ele>227.0</ele><time>2026-04-14T13:55:30Z</time></trkpt><trkpt lat="47.135164691179185" lon="5.481977909808496"><ele>227.0</ele><time>2026-04-14T13:55:35Z</time></trkpt><trkpt lat="47.13518799287" lon="5.4820784088275225"><ele>227.00000000000003</ele><time>2026-04-14T13:55:39Z</time></trkpt><trkpt lat="47.13519411165932" lon="5.48217505217109"><ele>227.0</ele><time>2026-04-14T13:55:43Z</time></trkpt><trkpt lat="47.13515693791875" lon="5.482264403258899"><ele>227.0</ele><time>2026-04-14T13:55:48Z</time></trkpt><trkpt lat="47.13513183411875" lon="5.482359873136023"><ele>227.00000000000003</ele><time>2026-04-14T13:55:52Z</time></trkpt><trkpt lat="47.135106017856984" lon="5.482459785421828"><ele>227.0</ele><time>2026-04-14T13:55:57Z</time></trkpt><trkpt lat="47.135101449719755" lon="5.482560703536014"><ele>227.0</ele><time>2026-04-14T13:56:02Z</time></trkpt><trkpt lat="47.13509239726433" lon="5.48267243430529"><ele>228.2857142857143</ele><time>2026-04-14T13:56:07Z</time></trkpt><trkpt lat="47.13511071172276" lon="5.482765054335336"><ele>229.5714285714286</ele><time>2026-04-14T13:56:11Z</time></trkpt><trkpt lat="47.135100737257986" lon="5.482865134259204"><ele>230.85714285714286</ele><time>2026-04-14T13:56:23Z</time></trkpt><trkpt lat="47.13508912832209" lon="5.482956245546679"><ele>232.14285714285717</ele><time>2026-04-14T13:56:28Z</time></trkpt><trkpt lat="47.13508984078386" lon="5.483050877233485"><ele>233.42857142857144</ele><time>2026-04-14T13:56:32Z</time></trkpt><trkpt lat="47.13510614358553" lon="5.483153974642495"><ele>234.71428571428572</ele><time>2026-04-14T13:56:37Z</time></trkpt><trkpt lat="47.1350957500256" lon="5.48324751668189"><ele>236.0</ele><time>2026-04-14T13:56:42Z</time></trkpt><trkpt lat="47.13508401536116" lon="5.483353044842819"><ele>236.57142857142856</ele><time>2026-04-14T13:56:47Z</time></trkpt><trkpt lat="47.13508326098987" lon="5.483464524155002"><ele>237.14285714285717</ele><time>2026-04-14T13:56:52Z</time></trkpt><trkpt lat="47.13507814802894" lon="5.4835691303065826"><ele>237.71428571428572</ele><time>2026-04-14T13:56:57Z</time></trkpt><trkpt lat="47.13506679055014" lon="5.483676251029115"><ele>238.28571428571428</ele><time>2026-04-14T13:57:02Z</time></trkpt><trkpt lat="47.13505828291842" lon="5.483781443913918"><ele>238.85714285714283</ele><time>2026-04-14T13:57:07Z</time></trkpt><trkpt lat="47.1350360289655" lon="5.483884876599054"><ele>239.42857142857144</ele><time>2026-04-14T13:57:12Z</time></trkpt><trkpt lat="47.135028820528774" lon="5.483981855218749"><ele>240.0</ele><time>2026-04-14T13:57:17Z</time></trkpt><trkpt lat="47.13503565177986" lon="5.484084701170664"><ele>241.57142857142858</ele><time>2026-04-14T13:57:22Z</time></trkpt><trkpt lat="47.13503049690941" lon="5.484191821893196"><ele>243.1428571428571</ele><time>2026-04-14T13:57:27Z</time></trkpt><trkpt lat="47.135027395605235" lon="5.4842862859419395"><ele>244.7142857142857</ele><time>2026-04-14T13:57:32Z</time></trkpt><trkpt lat="47.135023456110744" lon="5.484380666171652"><ele>246.28571428571428</ele><time>2026-04-14T13:57:37Z</time></trkpt><trkpt lat="47.13500480637619" lon="5.484469346707207"><ele>247.85714285714283</ele><time>2026-04-14T13:57:42Z</time></trkpt><trkpt lat="47.134992191611914" lon="5.484574707230073"><ele>249.4285714285714</ele><time>2026-04-14T13:57:48Z</time></trkpt><trkpt lat="47.135008159137456" lon="5.484678726648432"><ele>250.99999999999997</ele><time>2026-04-14T13:57:53Z</time></trkpt><trkpt lat="47.135018091692714" lon="5.484776124363285"><ele>251.99999999999997</ele><time>2026-04-14T13:57:58Z</time></trkpt><trkpt lat="47.135018804154484" lon="5.484872851525885"><ele>253.0</ele><time>2026-04-14T13:58:03Z</time></trkpt><trkpt lat="47.13502806615749" lon="5.484973518182975"><ele>253.99999999999997</ele><time>2026-04-14T13:58:08Z</time></trkpt><trkpt lat="47.135028610981195" lon="5.485081309457761"><ele>254.99999999999997</ele><time>2026-04-14T13:58:14Z</time></trkpt><trkpt lat="47.13503581941792" lon="5.485187089075786"><ele>256.0</ele><time>2026-04-14T13:58:19Z</time></trkpt><trkpt lat="47.135033765851645" lon="5.485295467083795"><ele>256.99999999999994</ele><time>2026-04-14T13:58:25Z</time></trkpt><trkpt lat="47.13502454575816" lon="5.485402001073105"><ele>258.0</ele><time>2026-04-14T13:58:31Z</time></trkpt><trkpt lat="47.135006357028274" lon="5.485495040198309"><ele>258.71428571428567</ele><time>2026-04-14T13:58:36Z</time></trkpt><trkpt lat="47.135019600435285" lon="5.485601071273429"><ele>259.42857142857144</ele><time>2026-04-14T13:58:42Z</time></trkpt><trkpt lat="47.13502442002961" lon="5.485694697131855"><ele>260.1428571428571</ele><time>2026-04-14T13:58:47Z</time></trkpt><trkpt lat="47.13502433621058" lon="5.485788825904471"><ele>260.85714285714283</ele><time>2026-04-14T13:58:52Z</time></trkpt><trkpt lat="47.13501440365532" lon="5.48588647507642"><ele>261.57142857142856</ele><time>2026-04-14T13:58:58Z</time></trkpt><trkpt lat="47.13500329763362" lon="5.485988985752208"><ele>262.2857142857143</ele><time>2026-04-14T13:59:04Z</time></trkpt><trkpt lat="47.13498929985532" lon="5.4860947653702326"><ele>263.0</ele><time>2026-04-14T13:59:11Z</time></trkpt><trkpt lat="47.13497706227669" lon="5.486196437855703"><ele>263.42857142857144</ele><time>2026-04-14T13:59:18Z</time></trkpt><trkpt lat="47.134993490806906" lon="5.48629886471246"><ele>263.85714285714283</ele><time>2026-04-14T13:59:24Z</time></trkpt><trkpt lat="47.13498305533746" lon="5.4863913171044425"><ele>264.2857142857143</ele><time>2026-04-14T13:59:29Z</time></trkpt><trkpt lat="47.13497806810507" lon="5.4864961747131185"><ele>264.7142857142857</ele><time>2026-04-14T13:59:35Z</time></trkpt><trkpt lat="47.13496683635482" lon="5.486591309314115"><ele>265.1428571428571</ele><time>2026-04-14T13:59:41Z</time></trkpt><trkpt lat="47.134952629028945" lon="5.486684599896415"><ele>265.57142857142856</ele><time>2026-04-14T13:59:46Z</time></trkpt><trkpt lat="47.13494843807736" lon="5.486793983732803"><ele>266.0</ele><time>2026-04-14T13:59:52Z</time></trkpt><trkpt lat="47.1349369129605" lon="5.486902194102748"><ele>266.0</ele><time>2026-04-14T13:59:58Z</time></trkpt><trkpt lat="47.13491805367836" lon="5.487005710606916"><ele>266.0</ele><time>2026-04-14T14:00:03Z</time></trkpt><trkpt lat="47.13489605118254" lon="5.487101348122104"><ele>266.0</ele><time>2026-04-14T14:00:09Z</time></trkpt><trkpt lat="47.134871576025276" lon="5.4871902801147545"><ele>266.0</ele><time>2026-04-14T14:00:14Z</time></trkpt><trkpt lat="47.1348581649802" lon="5.487281307583197"><ele>266.0</ele><time>2026-04-14T14:00:19Z</time></trkpt><trkpt lat="47.134853890209584" lon="5.4873920325240935"><ele>266.0</ele><time>2026-04-14T14:00:25Z</time></trkpt><trkpt lat="47.13484655604431" lon="5.48749839887534"><ele>266.0</ele><time>2026-04-14T14:00:31Z</time></trkpt><trkpt lat="47.134856907694726" lon="5.4876002389988745"><ele>266.42857142857144</ele><time>2026-04-14T14:00:36Z</time></trkpt><trkpt lat="47.13486818135449" lon="5.4877103772065485"><ele>266.8571428571429</ele><time>2026-04-14T14:00:41Z</time></trkpt><trkpt lat="47.13487291712978" lon="5.48781012185429"><ele>267.2857142857143</ele><time>2026-04-14T14:00:46Z</time></trkpt><trkpt lat="47.13487233039656" lon="5.48791129142557"><ele>267.7142857142857</ele><time>2026-04-14T14:00:51Z</time></trkpt><trkpt lat="47.134891022040634" lon="5.488002067436918"><ele>268.14285714285717</ele><time>2026-04-14T14:01:26Z</time></trkpt><trkpt lat="47.134879580742805" lon="5.487909615044936"><ele>268.57142857142856</ele><time>2026-04-14T14:02:07Z</time></trkpt><trkpt lat="47.13492563930073" lon="5.487972814594849"><ele>269.0</ele><time>2026-04-14T14:11:10Z</time></trkpt><trkpt lat="47.13486658879289" lon="5.487937778239592"><ele>269.0</ele><time>2026-04-14T14:11:23Z</time></trkpt><trkpt lat="47.1348150819979" lon="5.487871728842601"><ele>269.0</ele><time>2026-04-14T14:11:56.001Z</time></trkpt><trkpt lat="47.13483318690875" lon="5.487977676098689"><ele>269.0</ele><time>2026-04-14T14:12:08Z</time></trkpt><trkpt lat="47.13486210447469" lon="5.488062417139753"><ele>269.0</ele><time>2026-04-14T14:14:44Z</time></trkpt><trkpt lat="47.13490288243362" lon="5.488164927815542"><ele>269.0</ele><time>2026-04-14T14:14:49Z</time></trkpt><trkpt lat="47.13494198401192" lon="5.488259056588158"><ele>269.0</ele><time>2026-04-14T14:14:51Z</time></trkpt><trkpt lat="47.135003423362164" lon="5.4884342383644436"><ele>269.0</ele><time>2026-04-14T14:14:53Z</time></trkpt><trkpt lat="47.13504239921191" lon="5.488593243067608"><ele>269.0</ele><time>2026-04-14T14:14:55Z</time></trkpt><trkpt lat="47.13506268341759" lon="5.488682929431543"><ele>269.0</ele><time>2026-04-14T14:14:56Z</time></trkpt><trkpt lat="47.1350923134453" lon="5.488775800918684"><ele>269.0</ele><time>2026-04-14T14:14:57Z</time></trkpt><trkpt lat="47.135123619853644" lon="5.488886777316675"><ele>269.0</ele><time>2026-04-14T14:14:58Z</time></trkpt><trkpt lat="47.13515894957551" lon="5.489002112304315"><ele>269.0</ele><time>2026-04-14T14:14:59Z</time></trkpt><trkpt lat="47.13519193236449" lon="5.489120883872257"><ele>270.0</ele><time>2026-04-14T14:15:00Z</time></trkpt><trkpt lat="47.13522323877284" lon="5.489241667096959"><ele>271.0</ele><time>2026-04-14T14:15:01Z</time></trkpt><trkpt lat="47.13523765564629" lon="5.489356582989441"><ele>272.0</ele><time>2026-04-14T14:15:02Z</time></trkpt><trkpt lat="47.135258778042285" lon="5.489484239374743"><ele>273.0</ele><time>2026-04-14T14:15:03Z</time></trkpt><trkpt lat="47.13528421711841" lon="5.489587755878912"><ele>274.0</ele><time>2026-04-14T14:15:04Z</time></trkpt><trkpt lat="47.13531569116482" lon="5.48971373588358"><ele>275.0</ele><time>2026-04-14T14:15:05Z</time></trkpt><trkpt lat="47.135342597074" lon="5.489834100013123"><ele>275.33333333333337</ele><time>2026-04-14T14:15:06Z</time></trkpt><trkpt lat="47.13537428066799" lon="5.489964019512282"><ele>275.6666666666667</ele><time>2026-04-14T14:15:07Z</time></trkpt><trkpt lat="47.135428763038604" lon="5.490056136628138"><ele>276.0</ele><time>2026-04-14T14:15:08Z</time></trkpt><trkpt lat="47.13546757125029" lon="5.490169627597081"><ele>276.3333333333333</ele><time>2026-04-14T14:15:09Z</time></trkpt><trkpt lat="47.1355056670002" lon="5.490287728612768"><ele>276.66666666666663</ele><time>2026-04-14T14:15:10Z</time></trkpt><trkpt lat="47.13554036807933" lon="5.490402812143313"><ele>277.0</ele><time>2026-04-14T14:15:11Z</time></trkpt><trkpt lat="47.13556769308367" lon="5.490523930644142"><ele>277.0</ele><time>2026-04-14T14:15:12Z</time></trkpt><trkpt lat="47.13559774220654" lon="5.490629123528945"><ele>277.0</ele><time>2026-04-14T14:15:13Z</time></trkpt><trkpt lat="47.13561882269302" lon="5.490728951995718"><ele>277.0</ele><time>2026-04-14T14:15:14Z</time></trkpt><trkpt lat="47.13564195674577" lon="5.490824840968"><ele>277.0</ele><time>2026-04-14T14:15:15Z</time></trkpt><trkpt lat="47.13566031311372" lon="5.490919388835775"><ele>277.0</ele><time>2026-04-14T14:15:16Z</time></trkpt><trkpt lat="47.13567887902924" lon="5.491010164847124"><ele>277.0</ele><time>2026-04-14T14:15:17Z</time></trkpt><trkpt lat="47.1357054496623" lon="5.491153830667484"><ele>274.8333333333333</ele><time>2026-04-14T14:15:19Z</time></trkpt><trkpt lat="47.135720956183164" lon="5.491301268344271"><ele>272.66666666666663</ele><time>2026-04-14T14:15:21Z</time></trkpt><trkpt lat="47.135758088014214" lon="5.49141165800904"><ele>270.5</ele><time>2026-04-14T14:15:23Z</time></trkpt><trkpt lat="47.13577191815445" lon="5.4915144201419235"><ele>268.3333333333333</ele><time>2026-04-14T14:15:25Z</time></trkpt><trkpt lat="47.135779713324396" lon="5.491614667703855"><ele>266.1666666666667</ele><time>2026-04-14T14:15:28Z</time></trkpt><trkpt lat="47.13581571359852" lon="5.491698654373634"><ele>264.0</ele><time>2026-04-14T14:15:34Z</time></trkpt><trkpt lat="47.13578423955211" lon="5.491788676013696"><ele>264.0</ele><time>2026-04-14T14:15:39Z</time></trkpt><trkpt lat="47.13578298226663" lon="5.491897305478799"><ele>264.0</ele><time>2026-04-14T14:15:47Z</time></trkpt><trkpt lat="47.13580079381087" lon="5.491997553040732"><ele>264.0</ele><time>2026-04-14T14:15:53Z</time></trkpt><trkpt lat="47.13581173219451" lon="5.492110205819357"><ele>264.0</ele><time>2026-04-14T14:15:58Z</time></trkpt><trkpt lat="47.13579911743024" lon="5.492209196095813"><ele>264.0</ele><time>2026-04-14T14:16:02Z</time></trkpt><trkpt lat="47.135773971720724" lon="5.492306509991635"><ele>264.0</ele><time>2026-04-14T14:16:08Z</time></trkpt><trkpt lat="47.13573306803325" lon="5.492379181092132"><ele>264.0</ele><time>2026-04-14T14:16:12Z</time></trkpt><trkpt lat="47.13570913769969" lon="5.492471549665082"><ele>266.2857142857143</ele><time>2026-04-14T14:16:17Z</time></trkpt><trkpt lat="47.13567183823058" lon="5.492546651517499"><ele>268.57142857142856</ele><time>2026-04-14T14:16:23Z</time></trkpt><trkpt lat="47.135626156858294" lon="5.492627955978263"><ele>270.8571428571429</ele><time>2026-04-14T14:16:32Z</time></trkpt><trkpt lat="47.13565968447098" lon="5.492711104457725"><ele>273.1428571428571</ele><time>2026-04-14T14:17:15.999Z</time></trkpt><trkpt lat="47.135616517669646" lon="5.492781512444366"><ele>275.42857142857144</ele><time>2026-04-14T14:17:38.999Z</time></trkpt><trkpt lat="47.135574147149114" lon="5.4928794130734095"><ele>277.7142857142857</ele><time>2026-04-14T14:17:47.999Z</time></trkpt><trkpt lat="47.13553056125262" lon="5.492954598744859"><ele>280.0</ele><time>2026-04-14T14:17:50.999Z</time></trkpt><trkpt lat="47.135491669221906" lon="5.493039842700114"><ele>280.14285714285717</ele><time>2026-04-14T14:17:55.999Z</time></trkpt><trkpt lat="47.135429056405215" lon="5.493139168252696"><ele>280.2857142857143</ele><time>2026-04-14T14:17:59.999Z</time></trkpt><trkpt lat="47.1353856800563" lon="5.4932104144296545"><ele>280.42857142857144</ele><time>2026-04-14T14:18:02.999Z</time></trkpt><trkpt lat="47.1353243664346" lon="5.493256766354193"><ele>280.57142857142856</ele><time>2026-04-14T14:18:05.999Z</time></trkpt><trkpt lat="47.135263849093704" lon="5.493317954247345"><ele>280.7142857142857</ele><time>2026-04-14T14:18:08.999Z</time></trkpt><trkpt lat="47.1351856040276" lon="5.49333723262464"><ele>280.8571428571429</ele><time>2026-04-14T14:18:12.999Z</time></trkpt><trkpt lat="47.135118548802225" lon="5.493353661154856"><ele>281.0</ele><time>2026-04-14T14:18:16.999Z</time></trkpt><trkpt lat="47.13505099066266" lon="5.493426332255353"><ele>281.00000000000006</ele><time>2026-04-14T14:18:19.999Z</time></trkpt><trkpt lat="47.135000992610244" lon="5.493483496834983"><ele>281.0</ele><time>2026-04-14T14:18:21.999Z</time></trkpt><trkpt lat="47.13493599095115" lon="5.493553988640656"><ele>281.0</ele><time>2026-04-14T14:18:24.999Z</time></trkpt><trkpt lat="47.13486922909239" lon="5.493613248696079"><ele>281.0</ele><time>2026-04-14T14:18:27.999Z</time></trkpt><trkpt lat="47.134806029542474" lon="5.4936507158032555"><ele>281.0</ele><time>2026-04-14T14:18:30.999Z</time></trkpt><trkpt lat="47.134741572707085" lon="5.493687679996242"><ele>281.00000000000006</ele><time>2026-04-14T14:18:33.999Z</time></trkpt><trkpt lat="47.13468130682328" lon="5.493739480157842"><ele>281.0</ele><time>2026-04-14T14:18:37.999Z</time></trkpt><trkpt lat="47.13461718526402" lon="5.4937131609818834"><ele>281.8571428571429</ele><time>2026-04-14T14:18:42.999Z</time></trkpt><trkpt lat="47.1345774969525" lon="5.493639400233974"><ele>282.7142857142857</ele><time>2026-04-14T14:18:47.999Z</time></trkpt><trkpt lat="47.13451718915918" lon="5.493597155441989"><ele>283.57142857142856</ele><time>2026-04-14T14:19:04Z</time></trkpt><trkpt lat="47.134462748698084" lon="5.4935435112616915"><ele>284.42857142857144</ele><time>2026-04-14T14:19:10Z</time></trkpt><trkpt lat="47.134433495856015" lon="5.4934580996683735"><ele>285.2857142857143</ele><time>2026-04-14T14:19:14Z</time></trkpt><trkpt lat="47.134404871656685" lon="5.49334846437489"><ele>286.14285714285717</ele><time>2026-04-14T14:19:19Z</time></trkpt><trkpt lat="47.134376750371544" lon="5.493252743040671"><ele>287.0</ele><time>2026-04-14T14:19:24Z</time></trkpt><trkpt lat="47.13434108537355" lon="5.493160458286752"><ele>287.0</ele><time>2026-04-14T14:19:29Z</time></trkpt><trkpt lat="47.13427067738691" lon="5.493127768864383"><ele>287.0</ele><time>2026-04-14T14:19:33Z</time></trkpt><trkpt lat="47.13418878619292" lon="5.493101365869393"><ele>287.0</ele><time>2026-04-14T14:19:37Z</time></trkpt><trkpt lat="47.13411913257757" lon="5.493085356434335"><ele>287.0</ele><time>2026-04-14T14:19:41Z</time></trkpt><trkpt lat="47.134054801470725" lon="5.493028778587927"><ele>287.0</ele><time>2026-04-14T14:19:46Z</time></trkpt><trkpt lat="47.13400132492849" lon="5.492960885172238"><ele>287.0</ele><time>2026-04-14T14:19:51Z</time></trkpt><trkpt lat="47.13394265160629" lon="5.492911683400621"><ele>287.0</ele><time>2026-04-14T14:19:55Z</time></trkpt><trkpt lat="47.13387454864302" lon="5.492861308162559"><ele>288.14285714285717</ele><time>2026-04-14T14:20:00Z</time></trkpt><trkpt lat="47.13381453421631" lon="5.492804897954215"><ele>289.2857142857143</ele><time>2026-04-14T14:20:04Z</time></trkpt><trkpt lat="47.133740061006634" lon="5.492767347028006"><ele>290.42857142857144</ele><time>2026-04-14T14:20:09Z</time></trkpt><trkpt lat="47.13367137131014" lon="5.492785200481761"><ele>291.57142857142856</ele><time>2026-04-14T14:20:14Z</time></trkpt><trkpt lat="47.13360955477425" lon="5.4927657544664035"><ele>292.7142857142857</ele><time>2026-04-14T14:20:19Z</time></trkpt><trkpt lat="47.13354472075322" lon="5.492767682304133"><ele>293.8571428571429</ele><time>2026-04-14T14:20:23Z</time></trkpt><trkpt lat="47.13347431276658" lon="5.492777405311812"><ele>295.0</ele><time>2026-04-14T14:20:27Z</time></trkpt><trkpt lat="47.13340159975657" lon="5.492754103620995"><ele>295.00000000000006</ele><time>2026-04-14T14:20:32Z</time></trkpt><trkpt lat="47.133333329155235" lon="5.492715463047374"><ele>295.0</ele><time>2026-04-14T14:20:37Z</time></trkpt><trkpt lat="47.133265854834704" lon="5.4926918260804305"><ele>295.0</ele><time>2026-04-14T14:20:41Z</time></trkpt><trkpt lat="47.13320035026142" lon="5.492718983446706"><ele>295.0</ele><time>2026-04-14T14:20:45Z</time></trkpt><trkpt lat="47.13315320205608" lon="5.492793750022996"><ele>295.0</ele><time>2026-04-14T14:20:49Z</time></trkpt><trkpt lat="47.13308518291184" lon="5.492823589598287"><ele>295.00000000000006</ele><time>2026-04-14T14:20:54Z</time></trkpt><trkpt lat="47.13302277964273" lon="5.492839599033345"><ele>295.0</ele><time>2026-04-14T14:20:58Z</time></trkpt><trkpt lat="47.13298187595525" lon="5.492911431943526"><ele>295.0</ele><time>2026-04-14T14:21:02Z</time></trkpt><trkpt lat="47.13299817875692" lon="5.493065323685755"><ele>295.0</ele><time>2026-04-14T14:21:05Z</time></trkpt><trkpt lat="47.13299214378664" lon="5.493177054455032"><ele>295.0</ele><time>2026-04-14T14:21:07Z</time></trkpt><trkpt lat="47.13298405525008" lon="5.493290964519133"><ele>295.0</ele><time>2026-04-14T14:21:10Z</time></trkpt><trkpt lat="47.132959580092816" lon="5.493381321435322"><ele>295.0</ele><time>2026-04-14T14:21:13Z</time></trkpt><trkpt lat="47.13290685792187" lon="5.493486849596252"><ele>295.0</ele><time>2026-04-14T14:21:16Z</time></trkpt><trkpt lat="47.13286243383506" lon="5.493569662799587"><ele>295.0</ele><time>2026-04-14T14:21:19Z</time></trkpt><trkpt lat="47.13282282934257" lon="5.493656583135476"><ele>295.0</ele><time>2026-04-14T14:21:22Z</time></trkpt><trkpt lat="47.13279060092488" lon="5.493743922566523"><ele>295.0</ele><time>2026-04-14T14:21:28Z</time></trkpt><trkpt lat="47.13281495035359" lon="5.493867639457336"><ele>295.0</ele><time>2026-04-14T14:21:32Z</time></trkpt><trkpt lat="47.1328482684187" lon="5.494004599755159"><ele>295.0</ele><time>2026-04-14T14:21:35Z</time></trkpt><trkpt lat="47.13287341412821" lon="5.494108619173518"><ele>295.0</ele><time>2026-04-14T14:21:37Z</time></trkpt><trkpt lat="47.13290928867379" lon="5.494207525630942"><ele>294.0</ele><time>2026-04-14T14:21:39Z</time></trkpt><trkpt lat="47.132936613678126" lon="5.4943224415234235"><ele>293.0</ele><time>2026-04-14T14:21:41Z</time></trkpt><trkpt lat="47.13295869999298" lon="5.494443392386189"><ele>292.0</ele><time>2026-04-14T14:21:43Z</time></trkpt><trkpt lat="47.13296888400534" lon="5.49454799853777"><ele>291.0</ele><time>2026-04-14T14:21:45Z</time></trkpt><trkpt lat="47.13294700723806" lon="5.494660986592522"><ele>290.0</ele><time>2026-04-14T14:21:48Z</time></trkpt><trkpt lat="47.13291616183439" lon="5.494759557773819"><ele>289.0</ele><time>2026-04-14T14:21:51Z</time></trkpt><trkpt lat="47.13286524177262" lon="5.49484262243425"><ele>288.2857142857143</ele><time>2026-04-14T14:21:55Z</time></trkpt><trkpt lat="47.13279500142404" lon="5.494882604112378"><ele>287.57142857142856</ele><time>2026-04-14T14:21:59Z</time></trkpt><trkpt lat="47.132728910117535" lon="5.49490028992807"><ele>286.85714285714283</ele><time>2026-04-14T14:22:02Z</time></trkpt><trkpt lat="47.132671661718874" lon="5.494950413709036"><ele>286.1428571428571</ele><time>2026-04-14T14:22:06Z</time></trkpt><trkpt lat="47.1326106833733" lon="5.494997855280987"><ele>285.4285714285714</ele><time>2026-04-14T14:22:11Z</time></trkpt><trkpt lat="47.132563702806024" lon="5.495064407592169"><ele>284.7142857142857</ele><time>2026-04-14T14:22:15Z</time></trkpt><trkpt lat="47.13249438446679" lon="5.495106568565122"><ele>284.0</ele><time>2026-04-14T14:22:19Z</time></trkpt><trkpt lat="47.1324264910511" lon="5.495137581606857"><ele>284.2857142857143</ele><time>2026-04-14T14:22:22Z</time></trkpt><trkpt lat="47.132365009791336" lon="5.4951836820743"><ele>284.57142857142856</ele><time>2026-04-14T14:22:25Z</time></trkpt><trkpt lat="47.13229891848483" lon="5.495199272414199"><ele>284.85714285714283</ele><time>2026-04-14T14:22:28Z</time></trkpt><trkpt lat="47.13223395873525" lon="5.495213437830559"><ele>285.1428571428571</ele><time>2026-04-14T14:22:31Z</time></trkpt><trkpt lat="47.13215940170654" lon="5.495222071190826"><ele>285.42857142857144</ele><time>2026-04-14T14:22:35Z</time></trkpt><trkpt lat="47.1320897900007" lon="5.495221400638572"><ele>285.71428571428567</ele><time>2026-04-14T14:22:39Z</time></trkpt><trkpt lat="47.13201732844778" lon="5.495248893280975"><ele>286.0</ele><time>2026-04-14T14:22:43Z</time></trkpt><trkpt lat="47.13193627544411" lon="5.495298178871623"><ele>285.99999999999994</ele><time>2026-04-14T14:22:47Z</time></trkpt><trkpt lat="47.131874836093864" lon="5.495344195520035"><ele>286.0</ele><time>2026-04-14T14:22:49Z</time></trkpt><trkpt lat="47.13179860268452" lon="5.495364144449583"><ele>286.0</ele><time>2026-04-14T14:22:51Z</time></trkpt><trkpt lat="47.131727021231434" lon="5.495367832486979"><ele>286.0</ele><time>2026-04-14T14:22:53Z</time></trkpt><trkpt lat="47.131660552739284" lon="5.495387781416527"><ele>286.0</ele><time>2026-04-14T14:22:55Z</time></trkpt><trkpt lat="47.131578493907234" lon="5.495431032036892"><ele>285.99999999999994</ele><time>2026-04-14T14:23:12Z</time></trkpt><trkpt lat="47.131509091748974" lon="5.4954091552696145"><ele>286.0</ele><time>2026-04-14T14:23:32Z</time></trkpt><trkpt lat="47.13143222969689" lon="5.495394067843906"><ele>286.4285714285714</ele><time>2026-04-14T14:23:37Z</time></trkpt><trkpt lat="47.131369574970684" lon="5.495372023438565"><ele>286.85714285714283</ele><time>2026-04-14T14:23:41Z</time></trkpt><trkpt lat="47.13130746506818" lon="5.49534738064324"><ele>287.2857142857143</ele><time>2026-04-14T14:23:47Z</time></trkpt><trkpt lat="47.131238440095565" lon="5.495325336237899"><ele>287.71428571428567</ele><time>2026-04-14T14:23:52Z</time></trkpt><trkpt lat="47.13117172014632" lon="5.495322654028884"><ele>288.1428571428571</ele><time>2026-04-14T14:23:55Z</time></trkpt><trkpt lat="47.13109150533297" lon="5.495309662078968"><ele>288.57142857142856</ele><time>2026-04-14T14:23:58Z</time></trkpt><trkpt lat="47.131020217246494" lon="5.495320893829218"><ele>289.0</ele><time>2026-04-14T14:24:00Z</time></trkpt><trkpt lat="47.1309404215283" lon="5.495341094215862"><ele>289.0</ele><time>2026-04-14T14:24:03Z</time></trkpt><trkpt lat="47.1308767190642" lon="5.495351152499667"><ele>289.0</ele><time>2026-04-14T14:24:05Z</time></trkpt><trkpt lat="47.13079977319308" lon="5.495370514695994"><ele>289.0</ele><time>2026-04-14T14:24:08Z</time></trkpt><trkpt lat="47.13071876209893" lon="5.495392391463271"><ele>289.0</ele><time>2026-04-14T14:24:11Z</time></trkpt><trkpt lat="47.13063871492364" lon="5.495391972368113"><ele>289.0</ele><time>2026-04-14T14:24:14Z</time></trkpt><trkpt lat="47.130557326643846" lon="5.495397252967111"><ele>289.0</ele><time>2026-04-14T14:24:17Z</time></trkpt><trkpt lat="47.13047836911597" lon="5.495408987631551"><ele>289.3333333333333</ele><time>2026-04-14T14:24:20Z</time></trkpt><trkpt lat="47.13039337661781" lon="5.49542700872337"><ele>289.66666666666663</ele><time>2026-04-14T14:24:23Z</time></trkpt><trkpt lat="47.13032933887758" lon="5.495417872448913"><ele>290.0</ele><time>2026-04-14T14:24:25Z</time></trkpt><trkpt lat="47.13023977824219" lon="5.495396833871952"><ele>290.3333333333333</ele><time>2026-04-14T14:24:28Z</time></trkpt><trkpt lat="47.130153151272914" lon="5.495356516917697"><ele>290.6666666666667</ele><time>2026-04-14T14:24:31Z</time></trkpt><trkpt lat="47.130089113532684" lon="5.495350565766445"><ele>291.0</ele><time>2026-04-14T14:24:33Z</time></trkpt><trkpt lat="47.13000537832" lon="5.4953390825591"><ele>291.0</ele><time>2026-04-14T14:24:36Z</time></trkpt><trkpt lat="47.12993953847059" lon="5.49529314972972"><ele>291.0</ele><time>2026-04-14T14:24:39Z</time></trkpt><trkpt lat="47.12987596173503" lon="5.49522131681954"><ele>291.0</ele><time>2026-04-14T14:24:42Z</time></trkpt><trkpt lat="47.12981448047527" lon="5.495154177775136"><ele>291.0</ele><time>2026-04-14T14:24:45Z</time></trkpt><trkpt lat="47.1297540469534" lon="5.4950949177197135"><ele>291.0</ele><time>2026-04-14T14:24:48Z</time></trkpt><trkpt lat="47.12969042830833" lon="5.49504638650035"><ele>291.0</ele><time>2026-04-14T14:24:51Z</time></trkpt><trkpt lat="47.129625426649234" lon="5.4950095061263955"><ele>291.0</ele><time>2026-04-14T14:24:54Z</time></trkpt><trkpt lat="47.12953884158947" lon="5.494983103131405"><ele>291.1428571428571</ele><time>2026-04-14T14:24:59Z</time></trkpt><trkpt lat="47.12947430093505" lon="5.4949841927788174"><ele>291.2857142857143</ele><time>2026-04-14T14:25:01Z</time></trkpt><trkpt lat="47.12941105947562" lon="5.4950027167848265"><ele>291.42857142857144</ele><time>2026-04-14T14:25:03Z</time></trkpt><trkpt lat="47.129342621236226" lon="5.495005901908032"><ele>291.57142857142856</ele><time>2026-04-14T14:25:06Z</time></trkpt><trkpt lat="47.12927896068164" lon="5.494966842239252"><ele>291.7142857142857</ele><time>2026-04-14T14:25:09Z</time></trkpt><trkpt lat="47.1292180661551" lon="5.494937505578152"><ele>291.85714285714283</ele><time>2026-04-14T14:25:12Z</time></trkpt><trkpt lat="47.129157800271294" lon="5.494896769528738"><ele>292.0</ele><time>2026-04-14T14:25:15Z</time></trkpt><trkpt lat="47.12908952966996" lon="5.494843879719726"><ele>292.1428571428571</ele><time>2026-04-14T14:25:19Z</time></trkpt><trkpt lat="47.129021007611534" lon="5.494816973810544"><ele>292.2857142857143</ele><time>2026-04-14T14:25:24Z</time></trkpt><trkpt lat="47.12896501649835" lon="5.494751427327743"><ele>292.42857142857144</ele><time>2026-04-14T14:25:29Z</time></trkpt><trkpt lat="47.12888555605628" lon="5.4947014711848405"><ele>292.57142857142856</ele><time>2026-04-14T14:25:33Z</time></trkpt><trkpt lat="47.12882960685261" lon="5.494653526698699"><ele>292.7142857142857</ele><time>2026-04-14T14:25:35Z</time></trkpt><trkpt lat="47.12876946669736" lon="5.494572892790189"><ele>292.85714285714283</ele><time>2026-04-14T14:25:38Z</time></trkpt><trkpt lat="47.128719091459295" lon="5.494506256659975"><ele>293.0</ele><time>2026-04-14T14:25:42Z</time></trkpt><trkpt lat="47.128651323772154" lon="5.4944411292723325"><ele>293.99999999999994</ele><time>2026-04-14T14:25:45Z</time></trkpt><trkpt lat="47.12859822441556" lon="5.494382288312068"><ele>295.0</ele><time>2026-04-14T14:25:48Z</time></trkpt><trkpt lat="47.128529702357135" lon="5.49433643930172"><ele>296.0</ele><time>2026-04-14T14:25:51Z</time></trkpt><trkpt lat="47.12847086139687" lon="5.4942844715020565"><ele>297.0</ele><time>2026-04-14T14:25:54Z</time></trkpt><trkpt lat="47.1284201927922" lon="5.494210207839957"><ele>298.0</ele><time>2026-04-14T14:25:58Z</time></trkpt><trkpt lat="47.12833863687434" lon="5.494155725469342"><ele>298.99999999999994</ele><time>2026-04-14T14:26:02Z</time></trkpt><trkpt lat="47.128269779539785" lon="5.494130663578859"><ele>300.0</ele><time>2026-04-14T14:26:06Z</time></trkpt><trkpt lat="47.12821366269805" lon="5.494087915872684"><ele>299.99999999999994</ele><time>2026-04-14T14:26:09Z</time></trkpt><trkpt lat="47.12814752948203" lon="5.494026895617595"><ele>300.0</ele><time>2026-04-14T14:26:13Z</time></trkpt><trkpt lat="47.12807892360457" lon="5.493992278357497"><ele>300.0</ele><time>2026-04-14T14:26:17Z</time></trkpt><trkpt lat="47.12801090446033" lon="5.493963528429618"><ele>300.0</ele><time>2026-04-14T14:26:19Z</time></trkpt><trkpt lat="47.127949674657664" lon="5.493928575893393"><ele>300.0</ele><time>2026-04-14T14:26:21Z</time></trkpt><trkpt lat="47.127887858121774" lon="5.4938762728176025"><ele>299.99999999999994</ele><time>2026-04-14T14:26:23Z</time></trkpt><trkpt lat="47.12781263054081" lon="5.493822544818272"><ele>300.0</ele><time>2026-04-14T14:26:26Z</time></trkpt><trkpt lat="47.12774201300659" lon="5.493764039134135"><ele>301.1428571428571</ele><time>2026-04-14T14:26:29Z</time></trkpt><trkpt lat="47.12768694390275" lon="5.49370662309741"><ele>302.2857142857143</ele><time>2026-04-14T14:26:32Z</time></trkpt><trkpt lat="47.12762827058055" lon="5.493661360820283"><ele>303.42857142857144</ele><time>2026-04-14T14:26:35Z</time></trkpt><trkpt lat="47.12756012570777" lon="5.4936021007648606"><ele>304.57142857142856</ele><time>2026-04-14T14:26:39Z</time></trkpt><trkpt lat="47.12749047209241" lon="5.49354879186069"><ele>305.7142857142857</ele><time>2026-04-14T14:26:42Z</time></trkpt><trkpt lat="47.12742479988106" lon="5.493508391087403"><ele>306.85714285714283</ele><time>2026-04-14T14:26:45Z</time></trkpt><trkpt lat="47.12735543963232" lon="5.493474109103431"><ele>308.0</ele><time>2026-04-14T14:26:48Z</time></trkpt><trkpt lat="47.12728913877823" lon="5.493417112161865"><ele>308.0</ele><time>2026-04-14T14:26:52Z</time></trkpt><trkpt lat="47.12722204164334" lon="5.493362462153186"><ele>308.0</ele><time>2026-04-14T14:26:55Z</time></trkpt><trkpt lat="47.12715054400929" lon="5.493316948418965"><ele>308.0</ele><time>2026-04-14T14:26:58Z</time></trkpt><trkpt lat="47.12708327923634" lon="5.493276882921805"><ele>308.0</ele><time>2026-04-14T14:27:01Z</time></trkpt><trkpt lat="47.12701588873484" lon="5.493230195721139"><ele>308.0</ele><time>2026-04-14T14:27:04Z</time></trkpt><trkpt lat="47.126958472698114" lon="5.493183089425315"><ele>308.0</ele><time>2026-04-14T14:27:07Z</time></trkpt><trkpt lat="47.126904828517816" lon="5.49310513772582"><ele>308.0</ele><time>2026-04-14T14:27:12Z</time></trkpt><trkpt lat="47.12684204806306" lon="5.493054091935505"><ele>308.0</ele><time>2026-04-14T14:27:23Z</time></trkpt><trkpt lat="47.1267927205629" lon="5.492985276510467"><ele>308.0</ele><time>2026-04-14T14:28:15Z</time></trkpt><trkpt lat="47.1267684130437" lon="5.4928982723555455"><ele>308.0</ele><time>2026-04-14T14:28:19Z</time></trkpt><trkpt lat="47.12676120460697" lon="5.492804814135183"><ele>308.0</ele><time>2026-04-14T14:28:23Z</time></trkpt><trkpt lat="47.12672935337492" lon="5.492715127771247"><ele>308.0</ele><time>2026-04-14T14:28:28Z</time></trkpt><trkpt lat="47.12669037752517" lon="5.49264195375656"><ele>308.0</ele><time>2026-04-14T14:28:33Z</time></trkpt><trkpt lat="47.126644402786276" lon="5.492573305969585"><ele>308.0</ele><time>2026-04-14T14:28:38Z</time></trkpt><trkpt lat="47.12659272835322" lon="5.492491582413662"><ele>309.14285714285717</ele><time>2026-04-14T14:28:43Z</time></trkpt><trkpt lat="47.1265585720978" lon="5.492400806402315"><ele>310.2857142857143</ele><time>2026-04-14T14:28:48Z</time></trkpt><trkpt lat="47.12653988045373" lon="5.492305504163254"><ele>311.42857142857144</ele><time>2026-04-14T14:28:52Z</time></trkpt><trkpt lat="47.12651879996725" lon="5.492211710666765"><ele>312.57142857142856</ele><time>2026-04-14T14:28:56Z</time></trkpt><trkpt lat="47.12648439225473" lon="5.492113893856753"><ele>313.7142857142857</ele><time>2026-04-14T14:29:00Z</time></trkpt><trkpt lat="47.126422240442714" lon="5.492034265776623"><ele>314.8571428571429</ele><time>2026-04-14T14:29:04Z</time></trkpt><trkpt lat="47.126379953741214" lon="5.491954050963271"><ele>316.0</ele><time>2026-04-14T14:29:08Z</time></trkpt><trkpt lat="47.12632982996025" lon="5.491884229709852"><ele>317.14285714285717</ele><time>2026-04-14T14:29:13Z</time></trkpt><trkpt lat="47.12626017634489" lon="5.4918224550834775"><ele>318.2857142857143</ele><time>2026-04-14T14:29:17Z</time></trkpt><trkpt lat="47.12618616413989" lon="5.491791944955933"><ele>319.42857142857144</ele><time>2026-04-14T14:29:21Z</time></trkpt><trkpt lat="47.126121246299824" lon="5.491778366272795"><ele>320.57142857142856</ele><time>2026-04-14T14:29:24Z</time></trkpt><trkpt lat="47.12605129931786" lon="5.491781216119874"><ele>321.7142857142857</ele><time>2026-04-14T14:29:27Z</time></trkpt><trkpt lat="47.12597632319399" lon="5.491791190584648"><ele>322.8571428571429</ele><time>2026-04-14T14:29:31Z</time></trkpt><trkpt lat="47.12590495128848" lon="5.491789681842077"><ele>324.0</ele><time>2026-04-14T14:29:34Z</time></trkpt><trkpt lat="47.12582410783239" lon="5.491786077623713"><ele>324.0</ele><time>2026-04-14T14:29:37Z</time></trkpt><trkpt lat="47.12573341564008" lon="5.491766547789323"><ele>324.0</ele><time>2026-04-14T14:29:40Z</time></trkpt><trkpt lat="47.12567256302305" lon="5.491740144794333"><ele>324.0</ele><time>2026-04-14T14:29:43Z</time></trkpt><trkpt lat="47.12560710035928" lon="5.491731427615035"><ele>324.0</ele><time>2026-04-14T14:29:46Z</time></trkpt><trkpt lat="47.12553409398266" lon="5.49174098298465"><ele>324.0</ele><time>2026-04-14T14:29:49Z</time></trkpt><trkpt lat="47.12545467545011" lon="5.491758752619374"><ele>324.0</ele><time>2026-04-14T14:29:52Z</time></trkpt><trkpt lat="47.1254126402057" lon="5.491677196701515"><ele>324.0</ele><time>2026-04-14T14:29:58Z</time></trkpt><trkpt lat="47.12541620251455" lon="5.4915815591863275"><ele>323.8571428571429</ele><time>2026-04-14T14:30:02Z</time></trkpt><trkpt lat="47.12543020029285" lon="5.491468152036417"><ele>323.7142857142857</ele><time>2026-04-14T14:30:07Z</time></trkpt><trkpt lat="47.12544390470453" lon="5.491355499257791"><ele>323.57142857142856</ele><time>2026-04-14T14:30:11Z</time></trkpt><trkpt lat="47.12545387916931" lon="5.4912638012370945"><ele>323.42857142857144</ele><time>2026-04-14T14:30:14Z</time></trkpt><trkpt lat="47.12546615865745" lon="5.491166235884178"><ele>323.2857142857143</ele><time>2026-04-14T14:30:17Z</time></trkpt><trkpt lat="47.125487783967635" lon="5.491064479579675"><ele>323.14285714285717</ele><time>2026-04-14T14:30:21Z</time></trkpt><trkpt lat="47.12548824497231" lon="5.490968758245455"><ele>323.0</ele><time>2026-04-14T14:30:24Z</time></trkpt><trkpt lat="47.12547173262306" lon="5.490850992505895"><ele>323.42857142857144</ele><time>2026-04-14T14:30:28Z</time></trkpt><trkpt lat="47.12547286417999" lon="5.490729371090876"><ele>323.8571428571429</ele><time>2026-04-14T14:30:32Z</time></trkpt><trkpt lat="47.12546293162473" lon="5.490613114093887"><ele>324.28571428571433</ele><time>2026-04-14T14:30:36Z</time></trkpt><trkpt lat="47.12545291525044" lon="5.4905125312558285"><ele>324.7142857142857</ele><time>2026-04-14T14:30:40Z</time></trkpt><trkpt lat="47.12543728300103" lon="5.4904173128358"><ele>325.1428571428571</ele><time>2026-04-14T14:30:46Z</time></trkpt><trkpt lat="47.12544679646113" lon="5.490306755532967"><ele>325.5714285714286</ele><time>2026-04-14T14:30:55Z</time></trkpt><trkpt lat="47.12539776232757" lon="5.490224445243823"><ele>326.0</ele><time>2026-04-14T14:31:05Z</time></trkpt><trkpt lat="47.125334814234755" lon="5.4901753272912375"><ele>326.33333333333337</ele><time>2026-04-14T14:31:08Z</time></trkpt><trkpt lat="47.125268136195025" lon="5.490129143004762"><ele>326.6666666666667</ele><time>2026-04-14T14:31:11Z</time></trkpt><trkpt lat="47.12520204488852" lon="5.49007675610994"><ele>327.0</ele><time>2026-04-14T14:31:14Z</time></trkpt><trkpt lat="47.12512736213126" lon="5.4899853933653695"><ele>327.3333333333333</ele><time>2026-04-14T14:31:17Z</time></trkpt><trkpt lat="47.1250561159543" lon="5.489923115824805"><ele>327.66666666666663</ele><time>2026-04-14T14:31:19Z</time></trkpt><trkpt lat="47.12499186866649" lon="5.489853881304608"><ele>328.0</ele><time>2026-04-14T14:31:21Z</time></trkpt><trkpt lat="47.1249440499089" lon="5.489792525773392"><ele>328.0</ele><time>2026-04-14T14:31:23Z</time></trkpt><trkpt lat="47.12486404464312" lon="5.489719016482578"><ele>328.0</ele><time>2026-04-14T14:31:25Z</time></trkpt><trkpt lat="47.12476274934329" lon="5.489672077824817"><ele>328.0</ele><time>2026-04-14T14:31:27Z</time></trkpt><trkpt lat="47.12464049928553" lon="5.489692781125651"><ele>328.0</ele><time>2026-04-14T14:31:29Z</time></trkpt><trkpt lat="47.12453501303412" lon="5.4897486046007735"><ele>328.0</ele><time>2026-04-14T14:31:30Z</time></trkpt><trkpt lat="47.124399687207415" lon="5.489845583220468"><ele>327.99999999999994</ele><time>2026-04-14T14:31:45Z</time></trkpt><trkpt lat="47.12433841549523" lon="5.489883385603772"><ele>328.0</ele><time>2026-04-14T14:32:12Z</time></trkpt><trkpt lat="47.12427525785483" lon="5.489881541585074"><ele>328.0</ele><time>2026-04-14T14:32:23Z</time></trkpt><trkpt lat="47.1242146566949" lon="5.489839967345343"><ele>328.0</ele><time>2026-04-14T14:32:37Z</time></trkpt><trkpt lat="47.12417635139741" lon="5.489737875764714"><ele>328.0</ele><time>2026-04-14T14:32:47Z</time></trkpt><trkpt lat="47.12411813907988" lon="5.489697977905617"><ele>327.99999999999994</ele><time>2026-04-14T14:32:53Z</time></trkpt><trkpt lat="47.12403825954266" lon="5.489660594617472"><ele>328.0</ele><time>2026-04-14T14:32:58Z</time></trkpt><trkpt lat="47.12395779327221" lon="5.489615667616473"><ele>327.0</ele><time>2026-04-14T14:33:01Z</time></trkpt><trkpt lat="47.12386513133265" lon="5.489578703423486"><ele>326.0</ele><time>2026-04-14T14:33:04Z</time></trkpt><trkpt lat="47.123786970085575" lon="5.489565627654539"><ele>325.0</ele><time>2026-04-14T14:33:06Z</time></trkpt><trkpt lat="47.12371966340311" lon="5.489563113083587"><ele>324.0</ele><time>2026-04-14T14:33:08Z</time></trkpt><trkpt lat="47.123632784976735" lon="5.489573339005457"><ele>323.0</ele><time>2026-04-14T14:33:10Z</time></trkpt><trkpt lat="47.123532411686256" lon="5.489595131953703"><ele>322.0</ele><time>2026-04-14T14:33:12Z</time></trkpt><trkpt lat="47.12346720047958" lon="5.489594712858544"><ele>322.0</ele><time>2026-04-14T14:33:16Z</time></trkpt><trkpt lat="47.12343233176239" lon="5.489500081171737"><ele>322.0</ele><time>2026-04-14T14:33:28Z</time></trkpt><trkpt lat="47.12342160292633" lon="5.489383740355716"><ele>322.0</ele><time>2026-04-14T14:33:32Z</time></trkpt><trkpt lat="47.12344838310696" lon="5.489265974616156"><ele>322.0</ele><time>2026-04-14T14:33:36Z</time></trkpt><trkpt lat="47.123461081690266" lon="5.4891551658562285"><ele>322.0</ele><time>2026-04-14T14:33:40Z</time></trkpt><trkpt lat="47.12351610888459" lon="5.489278798928009"><ele>322.0</ele><time>2026-04-14T14:34:15Z</time></trkpt><trkpt lat="47.12351095401414" lon="5.4893890209547145"><ele>322.0</ele><time>2026-04-14T14:34:26Z</time></trkpt><trkpt lat="47.123513803861215" lon="5.489497901876913"><ele>322.0</ele><time>2026-04-14T14:34:30Z</time></trkpt><trkpt lat="47.12346552409895" lon="5.489563196902619"><ele>322.0</ele><time>2026-04-14T14:34:37Z</time></trkpt><trkpt lat="47.12340664122917" lon="5.489515922968732"><ele>322.0</ele><time>2026-04-14T14:34:41Z</time></trkpt><trkpt lat="47.12336393543251" lon="5.489415926863895"><ele>322.0</ele><time>2026-04-14T14:34:45Z</time></trkpt><trkpt lat="47.12333606560446" lon="5.489329928537355"><ele>322.0</ele><time>2026-04-14T14:34:47Z</time></trkpt><trkpt lat="47.12331029125221" lon="5.489225657661901"><ele>322.0</ele><time>2026-04-14T14:34:49Z</time></trkpt><trkpt lat="47.12328703147091" lon="5.489112418150054"><ele>322.0</ele><time>2026-04-14T14:34:51Z</time></trkpt><trkpt lat="47.12325907782383" lon="5.488987946887955"><ele>322.0</ele><time>2026-04-14T14:34:53Z</time></trkpt><trkpt lat="47.12323292628594" lon="5.488865906377778"><ele>322.0</ele><time>2026-04-14T14:34:55Z</time></trkpt><trkpt lat="47.123204008719995" lon="5.488729113718018"><ele>322.0</ele><time>2026-04-14T14:34:57Z</time></trkpt><trkpt lat="47.123181964314654" lon="5.488577652727709"><ele>322.0</ele><time>2026-04-14T14:34:59Z</time></trkpt><trkpt lat="47.12315019690163" lon="5.488437339668617"><ele>322.0</ele><time>2026-04-14T14:35:01Z</time></trkpt><trkpt lat="47.12313615721382" lon="5.488334074621544"><ele>322.0</ele><time>2026-04-14T14:35:03Z</time></trkpt><trkpt lat="47.12309977975406" lon="5.488238185649261"><ele>322.0</ele><time>2026-04-14T14:35:05Z</time></trkpt><trkpt lat="47.12306968872167" lon="5.488127628346428"><ele>322.0</ele><time>2026-04-14T14:35:07Z</time></trkpt><trkpt lat="47.1229920722983" lon="5.488046910618886"><ele>322.0</ele><time>2026-04-14T14:35:09Z</time></trkpt><trkpt lat="47.12292338260181" lon="5.487976083537086"><ele>322.0</ele><time>2026-04-14T14:35:11Z</time></trkpt><trkpt lat="47.12286412254639" lon="5.487922104080662"><ele>322.0</ele><time>2026-04-14T14:35:13Z</time></trkpt><trkpt lat="47.12279664822586" lon="5.4878520313701475"><ele>322.0</ele><time>2026-04-14T14:35:15Z</time></trkpt><trkpt lat="47.1227695327691" lon="5.487742982809886"><ele>322.0</ele><time>2026-04-14T14:35:17Z</time></trkpt><trkpt lat="47.122823805592134" lon="5.48764935695146"><ele>322.0</ele><time>2026-04-14T14:35:20Z</time></trkpt><trkpt lat="47.12290972009964" lon="5.487672491004213"><ele>322.0</ele><time>2026-04-14T14:35:23Z</time></trkpt><trkpt lat="47.12298959963687" lon="5.487691601743444"><ele>322.0</ele><time>2026-04-14T14:35:26Z</time></trkpt><trkpt lat="47.12305703204788" lon="5.487710796301707"><ele>322.0</ele><time>2026-04-14T14:35:29Z</time></trkpt><trkpt lat="47.12314793378778" lon="5.487774247308716"><ele>322.0</ele><time>2026-04-14T14:35:33Z</time></trkpt><trkpt lat="47.12320933122851" lon="5.487811798234924"><ele>322.0</ele><time>2026-04-14T14:35:35Z</time></trkpt><trkpt lat="47.1232547611437" lon="5.487907100473985"><ele>322.0</ele><time>2026-04-14T14:35:41Z</time></trkpt><trkpt lat="47.12330333427258" lon="5.488021848728403"><ele>322.0</ele><time>2026-04-14T14:35:51Z</time></trkpt><trkpt lat="47.12334583052166" lon="5.488092591991171"><ele>322.0</ele><time>2026-04-14T14:35:57Z</time></trkpt><trkpt lat="47.12336879693635" lon="5.488180015241251"><ele>322.0</ele><time>2026-04-14T14:36:01Z</time></trkpt><trkpt lat="47.123369216031506" lon="5.488277915870294"><ele>322.0</ele><time>2026-04-14T14:36:08Z</time></trkpt><trkpt lat="47.12341259238042" lon="5.488345474009857"><ele>322.0</ele><time>2026-04-14T14:36:17Z</time></trkpt><trkpt lat="47.12342114192165" lon="5.4884548578462455"><ele>322.0</ele><time>2026-04-14T14:36:21Z</time></trkpt><trkpt lat="47.123417998707964" lon="5.488567426805839"><ele>322.0</ele><time>2026-04-14T14:36:26Z</time></trkpt><trkpt lat="47.123423446945026" lon="5.4886680934629295"><ele>322.0</ele><time>2026-04-14T14:36:29Z</time></trkpt><trkpt lat="47.123404420024826" lon="5.48877462745224"><ele>322.0</ele><time>2026-04-14T14:36:32Z</time></trkpt><trkpt lat="47.123422147750034" lon="5.488894991581783"><ele>322.0</ele><time>2026-04-14T14:36:35Z</time></trkpt><trkpt lat="47.12345890239544" lon="5.488985097040877"><ele>322.0</ele><time>2026-04-14T14:36:37Z</time></trkpt><trkpt lat="47.12346954741247" lon="5.489104371523009"><ele>322.0</ele><time>2026-04-14T14:36:41Z</time></trkpt><trkpt lat="47.12349775251664" lon="5.489205373456226"><ele>322.0</ele><time>2026-04-14T14:36:44Z</time></trkpt><trkpt lat="47.12355747357674" lon="5.489273183052884"><ele>322.0</ele><time>2026-04-14T14:36:50Z</time></trkpt><trkpt lat="47.123531196310296" lon="5.489157093693958"><ele>322.0</ele><time>2026-04-14T14:37:42Z</time></trkpt><trkpt lat="47.12352490988292" lon="5.489037567754731"><ele>322.0</ele><time>2026-04-14T14:37:44Z</time></trkpt><trkpt lat="47.12350680497207" lon="5.488916616891966"><ele>322.0</ele><time>2026-04-14T14:37:48Z</time></trkpt><trkpt lat="47.123497375331" lon="5.4887956660292"><ele>322.0</ele><time>2026-04-14T14:37:51Z</time></trkpt><trkpt lat="47.12352558043517" lon="5.488686868926034"><ele>322.0</ele><time>2026-04-14T14:37:55Z</time></trkpt><trkpt lat="47.123542344241514" lon="5.488560553645239"><ele>322.0</ele><time>2026-04-14T14:37:59Z</time></trkpt><trkpt lat="47.12355877277173" lon="5.488456785683975"><ele>322.0</ele><time>2026-04-14T14:38:02Z</time></trkpt><trkpt lat="47.123596658974066" lon="5.488341366877303"><ele>322.42857142857144</ele><time>2026-04-14T14:38:06Z</time></trkpt><trkpt lat="47.12362729483016" lon="5.488233659421549"><ele>322.8571428571429</ele><time>2026-04-14T14:38:09Z</time></trkpt><trkpt lat="47.123636012009456" lon="5.48814045265828"><ele>323.2857142857143</ele><time>2026-04-14T14:38:15Z</time></trkpt><trkpt lat="47.12362566035904" lon="5.488232653593168"><ele>323.7142857142857</ele><time>2026-04-14T14:38:30Z</time></trkpt><trkpt lat="47.12359280329861" lon="5.488315299158439"><ele>324.14285714285717</ele><time>2026-04-14T14:38:36Z</time></trkpt><trkpt lat="47.1235930547557" lon="5.488424515356765"><ele>324.57142857142856</ele><time>2026-04-14T14:38:40Z</time></trkpt><trkpt lat="47.12361338087089" lon="5.488521661614523"><ele>325.0</ele><time>2026-04-14T14:38:43Z</time></trkpt><trkpt lat="47.12365529038675" lon="5.488594248895988"><ele>325.0</ele><time>2026-04-14T14:38:46Z</time></trkpt><trkpt lat="47.1237286320395" lon="5.488670943310008"><ele>325.0</ele><time>2026-04-14T14:38:49Z</time></trkpt><trkpt lat="47.123788688375726" lon="5.48873263411735"><ele>325.0</ele><time>2026-04-14T14:38:51Z</time></trkpt><trkpt lat="47.1238520555637" lon="5.4888218175670955"><ele>325.0</ele><time>2026-04-14T14:38:54Z</time></trkpt><trkpt lat="47.1239186497844" lon="5.488883256917343"><ele>325.0</ele><time>2026-04-14T14:38:57Z</time></trkpt><trkpt lat="47.12398570500977" lon="5.4889685008725975"><ele>325.0</ele><time>2026-04-14T14:39:00Z</time></trkpt><trkpt lat="47.124033439948334" lon="5.489039244135365"><ele>324.5</ele><time>2026-04-14T14:39:02Z</time></trkpt><trkpt lat="47.12406441108055" lon="5.489125661557065"><ele>324.0</ele><time>2026-04-14T14:39:04Z</time></trkpt><trkpt lat="47.12405854374833" lon="5.489251725380765"><ele>323.5</ele><time>2026-04-14T14:39:06Z</time></trkpt><trkpt lat="47.12404144466586" lon="5.489385249098287"><ele>323.0</ele><time>2026-04-14T14:39:08Z</time></trkpt><trkpt lat="47.12402501613565" lon="5.489493543287264"><ele>322.5</ele><time>2026-04-14T14:39:11Z</time></trkpt><trkpt lat="47.12401688568957" lon="5.489598233257876"><ele>322.0</ele><time>2026-04-14T14:39:15Z</time></trkpt><trkpt lat="47.12405665782012" lon="5.489693703135"><ele>322.85714285714283</ele><time>2026-04-14T14:39:18Z</time></trkpt><trkpt lat="47.12412916128255" lon="5.489741815259205"><ele>323.7142857142857</ele><time>2026-04-14T14:39:46Z</time></trkpt><trkpt lat="47.12411470249958" lon="5.489643244077907"><ele>324.57142857142856</ele><time>2026-04-14T14:39:51Z</time></trkpt><trkpt lat="47.12414445825584" lon="5.489534027879582"><ele>325.42857142857144</ele><time>2026-04-14T14:39:55Z</time></trkpt><trkpt lat="47.12413444188155" lon="5.489440653478251"><ele>326.2857142857143</ele><time>2026-04-14T14:39:57Z</time></trkpt><trkpt lat="47.12412962228723" lon="5.4893404059163196"><ele>327.1428571428571</ele><time>2026-04-14T14:40:00Z</time></trkpt><trkpt lat="47.12412983183481" lon="5.489231692632185"><ele>328.0</ele><time>2026-04-14T14:40:03Z</time></trkpt><trkpt lat="47.12410988290526" lon="5.489115603273259"><ele>328.2857142857143</ele><time>2026-04-14T14:40:07Z</time></trkpt><trkpt lat="47.12406566836603" lon="5.48903656192635"><ele>328.57142857142856</ele><time>2026-04-14T14:40:11Z</time></trkpt><trkpt lat="47.12401344910927" lon="5.488957688217506"><ele>328.8571428571429</ele><time>2026-04-14T14:40:14Z</time></trkpt><trkpt lat="47.12397158150293" lon="5.488885520031199"><ele>329.1428571428571</ele><time>2026-04-14T14:40:17Z</time></trkpt><trkpt lat="47.12392217018373" lon="5.488815866415844"><ele>329.42857142857144</ele><time>2026-04-14T14:40:20Z</time></trkpt><trkpt lat="47.12387192067422" lon="5.488733137031541"><ele>329.7142857142857</ele><time>2026-04-14T14:40:23Z</time></trkpt><trkpt lat="47.123821880712285" lon="5.4886722005954836"><ele>330.0</ele><time>2026-04-14T14:40:25Z</time></trkpt><trkpt lat="47.12376924236037" lon="5.488602044065938"><ele>329.28571428571433</ele><time>2026-04-14T14:40:28Z</time></trkpt><trkpt lat="47.12374455765553" lon="5.48850489780818"><ele>328.57142857142856</ele><time>2026-04-14T14:40:32Z</time></trkpt><trkpt lat="47.12372674611129" lon="5.488403560598836"><ele>327.8571428571429</ele><time>2026-04-14T14:40:36Z</time></trkpt><trkpt lat="47.12376467422314" lon="5.488320244481311"><ele>327.14285714285717</ele><time>2026-04-14T14:40:41Z</time></trkpt><trkpt lat="47.123776869892254" lon="5.488215805967793"><ele>326.42857142857144</ele><time>2026-04-14T14:40:45Z</time></trkpt><trkpt lat="47.1237838687814" lon="5.48810818233107"><ele>325.7142857142857</ele><time>2026-04-14T14:40:49Z</time></trkpt><trkpt lat="47.12381534282781" lon="5.488020842900022"><ele>325.0</ele><time>2026-04-14T14:40:52Z</time></trkpt><trkpt lat="47.123873387507274" lon="5.487942388286337"><ele>325.0</ele><time>2026-04-14T14:40:57Z</time></trkpt><trkpt lat="47.123901718339994" lon="5.487844906752452"><ele>325.0</ele><time>2026-04-14T14:40:59Z</time></trkpt><trkpt lat="47.12392137390293" lon="5.487740049143776"><ele>325.0</ele><time>2026-04-14T14:41:01Z</time></trkpt><trkpt lat="47.12394735780276" lon="5.487653380264982"><ele>325.0</ele><time>2026-04-14T14:41:03Z</time></trkpt><trkpt lat="47.124004606201424" lon="5.487541649495705"><ele>325.0</ele><time>2026-04-14T14:41:06Z</time></trkpt><trkpt lat="47.12407182906486" lon="5.4874780308506335"><ele>325.0</ele><time>2026-04-14T14:41:09Z</time></trkpt><trkpt lat="47.124140183485224" lon="5.4875377938202465"><ele>326.0</ele><time>2026-04-14T14:41:15Z</time></trkpt><trkpt lat="47.124259960881545" lon="5.48758045770739"><ele>327.0</ele><time>2026-04-14T14:41:22Z</time></trkpt><trkpt lat="47.12433435027219" lon="5.4875492770275915"><ele>328.0</ele><time>2026-04-14T14:41:27Z</time></trkpt><trkpt lat="47.124406350820436" lon="5.487524047499045"><ele>329.0</ele><time>2026-04-14T14:41:31Z</time></trkpt><trkpt lat="47.12444406938471" lon="5.487447017808899"><ele>330.0</ele><time>2026-04-14T14:41:34Z</time></trkpt><trkpt lat="47.12447705217369" lon="5.487353643407568"><ele>331.0</ele><time>2026-04-14T14:41:36Z</time></trkpt><trkpt lat="47.124520596160664" lon="5.487281139945134"><ele>331.0</ele><time>2026-04-14T14:41:38Z</time></trkpt><trkpt lat="47.12458396334864" lon="5.48724627122794"><ele>331.0</ele><time>2026-04-14T14:41:40Z</time></trkpt><trkpt lat="47.12465592198737" lon="5.487222466622933"><ele>331.0</ele><time>2026-04-14T14:41:43Z</time></trkpt><trkpt lat="47.12470445320673" lon="5.487143592914088"><ele>331.0</ele><time>2026-04-14T14:41:46Z</time></trkpt><trkpt lat="47.12473844182409" lon="5.487039908771856"><ele>331.0</ele><time>2026-04-14T14:41:49Z</time></trkpt><trkpt lat="47.12473169439204" lon="5.486946199094398"><ele>331.0</ele><time>2026-04-14T14:41:51Z</time></trkpt><trkpt lat="47.12467180569388" lon="5.486888196324451"><ele>331.0</ele><time>2026-04-14T14:41:53Z</time></trkpt><trkpt lat="47.12458689701475" lon="5.486848633741482"><ele>330.14285714285717</ele><time>2026-04-14T14:41:55Z</time></trkpt><trkpt lat="47.12451045405783" lon="5.486808065330131"><ele>329.2857142857143</ele><time>2026-04-14T14:41:57Z</time></trkpt><trkpt lat="47.124450691088214" lon="5.486756265168531"><ele>328.42857142857144</ele><time>2026-04-14T14:41:59Z</time></trkpt><trkpt lat="47.12451548319973" lon="5.486728437250002"><ele>327.57142857142856</ele><time>2026-04-14T14:42:07Z</time></trkpt><trkpt lat="47.124578557021096" lon="5.486730197449668"><ele>326.7142857142857</ele><time>2026-04-14T14:42:10Z</time></trkpt><trkpt lat="47.12462038271792" lon="5.486804125835641"><ele>325.85714285714283</ele><time>2026-04-14T14:42:16Z</time></trkpt><trkpt lat="47.12468685121007" lon="5.486870929603918"><ele>325.0</ele><time>2026-04-14T14:42:53Z</time></trkpt><trkpt lat="47.1247104462675" lon="5.486959274863346"><ele>325.0</ele><time>2026-04-14T14:42:57Z</time></trkpt><trkpt lat="47.12467180569388" lon="5.486858021473034"><ele>325.0</ele><time>2026-04-14T14:43:14Z</time></trkpt><trkpt lat="47.12459477600373" lon="5.486828098078711"><ele>325.0</ele><time>2026-04-14T14:43:16Z</time></trkpt><trkpt lat="47.12455533914931" lon="5.486753163864358"><ele>325.0</ele><time>2026-04-14T14:43:17Z</time></trkpt><trkpt lat="47.12450617928721" lon="5.486679906030639"><ele>325.0</ele><time>2026-04-14T14:43:20Z</time></trkpt><trkpt lat="47.12457306687452" lon="5.486700525512441"><ele>325.0</ele><time>2026-04-14T14:43:46Z</time></trkpt><trkpt lat="47.124635009138956" lon="5.486754002054675"><ele>325.0</ele><time>2026-04-14T14:43:52Z</time></trkpt><trkpt lat="47.12467758920707" lon="5.4868322052112655"><ele>325.0</ele><time>2026-04-14T14:44:20Z</time></trkpt><trkpt lat="47.12472888645448" lon="5.486907223244651"><ele>325.0</ele><time>2026-04-14T14:44:27Z</time></trkpt><trkpt lat="47.12474007629521" lon="5.487007051711424"><ele>325.0</ele><time>2026-04-14T14:44:32Z</time></trkpt><trkpt lat="47.12467432026483" lon="5.487031526868685"><ele>325.0</ele><time>2026-04-14T14:44:49Z</time></trkpt><trkpt lat="47.12460458283044" lon="5.487067736690386"><ele>325.0</ele><time>2026-04-14T14:44:52Z</time></trkpt><trkpt lat="47.12454653815098" lon="5.48712364398454"><ele>325.0</ele><time>2026-04-14T14:44:55Z</time></trkpt><trkpt lat="47.1245151479236" lon="5.487239649524435"><ele>325.0</ele><time>2026-04-14T14:44:59Z</time></trkpt><trkpt lat="47.1244369028575" lon="5.48729220405732"><ele>325.0</ele><time>2026-04-14T14:45:02Z</time></trkpt><trkpt lat="47.12436804552294" lon="5.487284576525434"><ele>325.0</ele><time>2026-04-14T14:45:04Z</time></trkpt><trkpt lat="47.12428037081577" lon="5.4872877616486395"><ele>325.0</ele><time>2026-04-14T14:45:06Z</time></trkpt><trkpt lat="47.124222829050495" lon="5.487330676992878"><ele>325.0</ele><time>2026-04-14T14:45:08Z</time></trkpt><trkpt lat="47.12416482628055" lon="5.487369988118752"><ele>325.0</ele><time>2026-04-14T14:45:10Z</time></trkpt><trkpt lat="47.124086539304926" lon="5.487309722234949"><ele>325.0</ele><time>2026-04-14T14:45:13Z</time></trkpt><trkpt lat="47.12402002890326" lon="5.487310225149139"><ele>325.0</ele><time>2026-04-14T14:45:20Z</time></trkpt><trkpt lat="47.12397501808323" lon="5.4873840697160805"><ele>325.0</ele><time>2026-04-14T14:45:23Z</time></trkpt><trkpt lat="47.12393310856737" lon="5.487453388055309"><ele>325.0</ele><time>2026-04-14T14:45:27Z</time></trkpt><trkpt lat="47.12389497090794" lon="5.487561011692032"><ele>325.0</ele><time>2026-04-14T14:45:31Z</time></trkpt><trkpt lat="47.12382607166387" lon="5.487611973663315"><ele>325.0</ele><time>2026-04-14T14:45:34Z</time></trkpt><trkpt lat="47.12377762426354" lon="5.487696379428252"><ele>325.0</ele><time>2026-04-14T14:45:38Z</time></trkpt><trkpt lat="47.123731523796096" lon="5.487779779364809"><ele>325.0</ele><time>2026-04-14T14:45:41Z</time></trkpt><trkpt lat="47.12366488766588" lon="5.487859155987843"><ele>325.0</ele><time>2026-04-14T14:45:44Z</time></trkpt><trkpt lat="47.12364883632131" lon="5.4879636783203924"><ele>325.0</ele><time>2026-04-14T14:45:47Z</time></trkpt><trkpt lat="47.12362788156338" lon="5.488060489302024"><ele>325.0</ele><time>2026-04-14T14:45:51Z</time></trkpt><trkpt lat="47.12360747162916" lon="5.487952530389174"><ele>325.0</ele><time>2026-04-14T14:45:57Z</time></trkpt><trkpt lat="47.12355495900579" lon="5.487866951157793"><ele>325.0</ele><time>2026-04-14T14:46:02Z</time></trkpt><trkpt lat="47.12354360152699" lon="5.4877492692372645"><ele>325.0</ele><time>2026-04-14T14:46:06Z</time></trkpt><trkpt lat="47.12347382218309" lon="5.487717837100371"><ele>325.0</ele><time>2026-04-14T14:46:09Z</time></trkpt><trkpt lat="47.12342168674536" lon="5.4876626841775025"><ele>325.0</ele><time>2026-04-14T14:46:14Z</time></trkpt><trkpt lat="47.123357397548034" lon="5.487626306717738"><ele>325.0</ele><time>2026-04-14T14:46:24Z</time></trkpt><trkpt lat="47.123298388949706" lon="5.487541817133769"><ele>325.0</ele><time>2026-04-14T14:47:17Z</time></trkpt><trkpt lat="47.12331284773268" lon="5.48765229061757"><ele>325.0</ele><time>2026-04-14T14:48:00Z</time></trkpt><trkpt lat="47.12334951855905" lon="5.487568387766823"><ele>325.0</ele><time>2026-04-14T14:48:39Z</time></trkpt><trkpt lat="47.12331431456573" lon="5.487471576785191"><ele>325.0</ele><time>2026-04-14T14:49:26Z</time></trkpt><trkpt lat="47.1233195113457" lon="5.487579284240946"><ele>325.0</ele><time>2026-04-14T14:49:32Z</time></trkpt><trkpt lat="47.12334876418777" lon="5.487479371955141"><ele>325.0</ele><time>2026-04-14T14:49:51Z</time></trkpt><trkpt lat="47.12327919439144" lon="5.4874397255531395"><ele>325.0</ele><time>2026-04-14T14:50:11Z</time></trkpt><trkpt lat="47.12319788993068" lon="5.4875572398356045"><ele>325.0</ele><time>2026-04-14T14:50:14Z</time></trkpt><trkpt lat="47.12312693712033" lon="5.487622702499374"><ele>325.0</ele><time>2026-04-14T14:50:16Z</time></trkpt><trkpt lat="47.12305921134271" lon="5.487662516539439"><ele>325.0</ele><time>2026-04-14T14:50:21Z</time></trkpt><trkpt lat="47.123099989301636" lon="5.4877407196960295"><ele>325.0</ele><time>2026-04-14T14:50:39Z</time></trkpt><trkpt lat="47.12315023881115" lon="5.487818252300366"><ele>325.0</ele><time>2026-04-14T14:50:44Z</time></trkpt><trkpt lat="47.12320698429562" lon="5.487879607831582"><ele>325.0</ele><time>2026-04-14T14:50:51Z</time></trkpt><trkpt lat="47.123269764750376" lon="5.487911375244602"><ele>325.0</ele><time>2026-04-14T14:50:59Z</time></trkpt><trkpt lat="47.1233411785654" lon="5.487900394951447"><ele>325.0</ele><time>2026-04-14T14:51:06Z</time></trkpt><trkpt lat="47.12339784023084" lon="5.487946076323732"><ele>325.0</ele><time>2026-04-14T14:51:13Z</time></trkpt><trkpt lat="47.12342864372499" lon="5.488027213146433"><ele>325.0</ele><time>2026-04-14T14:52:00Z</time></trkpt><trkpt lat="47.12348538920946" lon="5.488084377726063"><ele>325.0</ele><time>2026-04-14T14:52:06Z</time></trkpt><trkpt lat="47.12355068423517" lon="5.488056968902692"><ele>325.0</ele><time>2026-04-14T14:53:16Z</time></trkpt><trkpt lat="47.12361421906121" lon="5.488089909782156"><ele>325.0</ele><time>2026-04-14T14:55:11Z</time></trkpt><trkpt lat="47.123603448315635" lon="5.488189151515708"><ele>325.0</ele><time>2026-04-14T14:55:21Z</time></trkpt><trkpt lat="47.12360751353867" lon="5.488285627221212"><ele>325.0</ele><time>2026-04-14T14:55:51Z</time></trkpt><trkpt lat="47.12363047995336" lon="5.48837397248064"><ele>325.0</ele><time>2026-04-14T14:56:12Z</time></trkpt><trkpt lat="47.123592929027154" lon="5.488451253627882"><ele>325.0</ele><time>2026-04-14T14:56:35Z</time></trkpt><trkpt lat="47.12360562761046" lon="5.488557536160097"><ele>325.0</ele><time>2026-04-14T14:56:51Z</time></trkpt><trkpt lat="47.123641879341676" lon="5.4886336438408945"><ele>325.0</ele><time>2026-04-14T14:56:55Z</time></trkpt><trkpt lat="47.12370893456705" lon="5.488727688794479"><ele>325.0</ele><time>2026-04-14T14:56:58Z</time></trkpt><trkpt lat="47.12375344247289" lon="5.4887965042195175"><ele>325.0</ele><time>2026-04-14T14:57:01Z</time></trkpt><trkpt lat="47.12380587127723" lon="5.488878898327694"><ele>325.0</ele><time>2026-04-14T14:57:03Z</time></trkpt><trkpt lat="47.123861024200096" lon="5.48894125968729"><ele>325.0</ele><time>2026-04-14T14:57:05Z</time></trkpt><trkpt lat="47.12392145772196" lon="5.488987276335702"><ele>325.0</ele><time>2026-04-14T14:57:08Z</time></trkpt><trkpt lat="47.123967683917954" lon="5.489089284097299"><ele>324.5</ele><time>2026-04-14T14:57:12Z</time></trkpt><trkpt lat="47.12398277134366" lon="5.489212498073922"><ele>324.0</ele><time>2026-04-14T14:57:15Z</time></trkpt><trkpt lat="47.123978706120624" lon="5.489304866646872"><ele>323.5</ele><time>2026-04-14T14:57:17Z</time></trkpt><trkpt lat="47.12396801919408" lon="5.489407461141692"><ele>323.0</ele><time>2026-04-14T14:57:19Z</time></trkpt><trkpt lat="47.12398381908156" lon="5.4895295016518695"><ele>322.5</ele><time>2026-04-14T14:57:22Z</time></trkpt><trkpt lat="47.12401202418573" lon="5.489634443079577"><ele>322.0</ele><time>2026-04-14T14:57:25Z</time></trkpt><trkpt lat="47.123992242894246" lon="5.489754388113962"><ele>321.66666666666663</ele><time>2026-04-14T14:57:28Z</time></trkpt><trkpt lat="47.12397807747789" lon="5.489874165510283"><ele>321.3333333333333</ele><time>2026-04-14T14:57:31Z</time></trkpt><trkpt lat="47.124000834345" lon="5.4900089465132815"><ele>321.0</ele><time>2026-04-14T14:57:34Z</time></trkpt><trkpt lat="47.12400636640109" lon="5.490109110256182"><ele>320.6666666666667</ele><time>2026-04-14T14:57:37Z</time></trkpt><trkpt lat="47.12402367503114" lon="5.490209860732304"><ele>320.33333333333337</ele><time>2026-04-14T14:57:42Z</time></trkpt><trkpt lat="47.12404743772663" lon="5.490298038353669"><ele>320.0</ele><time>2026-04-14T14:57:47Z</time></trkpt><trkpt lat="47.12409559176035" lon="5.490373056387054"><ele>320.7142857142857</ele><time>2026-04-14T14:57:54Z</time></trkpt><trkpt lat="47.1241588751293" lon="5.490398788829791"><ele>321.42857142857144</ele><time>2026-04-14T14:57:57Z</time></trkpt><trkpt lat="47.12421733890392" lon="5.4904707055590025"><ele>322.1428571428571</ele><time>2026-04-14T14:58:00Z</time></trkpt><trkpt lat="47.124290932013764" lon="5.490527702500569"><ele>322.8571428571429</ele><time>2026-04-14T14:58:03Z</time></trkpt><trkpt lat="47.124361633367016" lon="5.490524685015427"><ele>323.5714285714286</ele><time>2026-04-14T14:58:06Z</time></trkpt><trkpt lat="47.1244247490979" lon="5.490472130482542"><ele>324.2857142857143</ele><time>2026-04-14T14:58:10Z</time></trkpt><trkpt lat="47.12446996946551" lon="5.490399962296235"><ele>325.0</ele><time>2026-04-14T14:58:13Z</time></trkpt><trkpt lat="47.124523026912584" lon="5.490346401934969"><ele>325.0</ele><time>2026-04-14T14:58:21Z</time></trkpt><trkpt lat="47.12449461226083" lon="5.490431142976033"><ele>325.0</ele><time>2026-04-14T15:01:04Z</time></trkpt><trkpt lat="47.124423575631454" lon="5.49047741108154"><ele>325.0</ele><time>2026-04-14T15:01:09.001Z</time></trkpt><trkpt lat="47.124348096593394" lon="5.490462658931958"><ele>325.0</ele><time>2026-04-14T15:01:13.001Z</time></trkpt><trkpt lat="47.12427077353664" lon="5.490384623413431"><ele>325.0</ele><time>2026-04-14T15:01:42.001Z</time></trkpt><trkpt lat="47.12421440523781" lon="5.490328045567023"><ele>325.0</ele><time>2026-04-14T15:01:47.001Z</time></trkpt><trkpt lat="47.124170525974705" lon="5.490259565418111"><ele>325.0</ele><time>2026-04-14T15:01:53.001Z</time></trkpt><trkpt lat="47.12415992286719" lon="5.490146828820454"><ele>325.5</ele><time>2026-04-14T15:02:05.001Z</time></trkpt><trkpt lat="47.124168388589396" lon="5.490027302881227"><ele>326.0</ele><time>2026-04-14T15:02:09.001Z</time></trkpt><trkpt lat="47.12418330837704" lon="5.489930156623469"><ele>326.5</ele><time>2026-04-14T15:02:28.001Z</time></trkpt><trkpt lat="47.1241913969136" lon="5.4898334294608695"><ele>327.0</ele><time>2026-04-14T15:02:33.001Z</time></trkpt><trkpt lat="47.12416771803714" lon="5.489740977068887"><ele>327.5</ele><time>2026-04-14T15:02:40.001Z</time></trkpt><trkpt lat="47.12421633307554" lon="5.489629246299611"><ele>328.0</ele><time>2026-04-14T15:02:44.001Z</time></trkpt><trkpt lat="47.12423087567754" lon="5.489506199961053"><ele>328.3333333333333</ele><time>2026-04-14T15:02:47.001Z</time></trkpt><trkpt lat="47.124233138791396" lon="5.489394050096617"><ele>328.66666666666663</ele><time>2026-04-14T15:02:50.001Z</time></trkpt><trkpt lat="47.12420476604916" lon="5.489295395096288"><ele>329.0</ele><time>2026-04-14T15:02:53.001Z</time></trkpt><trkpt lat="47.12415765975334" lon="5.489190034573422"><ele>329.3333333333333</ele><time>2026-04-14T15:02:56.001Z</time></trkpt><trkpt lat="47.124107787429466" lon="5.489082327117667"><ele>329.6666666666667</ele><time>2026-04-14T15:02:59.001Z</time></trkpt><trkpt lat="47.12406897921778" lon="5.48900722526525"><ele>330.0</ele><time>2026-04-14T15:03:01.001Z</time></trkpt><trkpt lat="47.12401080880977" lon="5.488896751781449"><ele>329.28571428571433</ele><time>2026-04-14T15:03:04.001Z</time></trkpt><trkpt lat="47.12396856401779" lon="5.4888194706342075"><ele>328.57142857142856</ele><time>2026-04-14T15:03:06.001Z</time></trkpt><trkpt lat="47.12390896868624" lon="5.488746464257583"><ele>327.8571428571429</ele><time>2026-04-14T15:03:08.001Z</time></trkpt><trkpt lat="47.12384367366053" lon="5.488654766236887"><ele>327.14285714285717</ele><time>2026-04-14T15:03:11.001Z</time></trkpt><trkpt lat="47.12379271168925" lon="5.488586789002166"><ele>326.42857142857144</ele><time>2026-04-14T15:03:13.001Z</time></trkpt><trkpt lat="47.123734667009785" lon="5.488535743211851"><ele>325.7142857142857</ele><time>2026-04-14T15:03:15.001Z</time></trkpt><trkpt lat="47.12366367228992" lon="5.48852006905292"><ele>325.0</ele><time>2026-04-14T15:03:17.001Z</time></trkpt><trkpt lat="47.12357142944552" lon="5.488541694363103"><ele>325.0</ele><time>2026-04-14T15:03:19.001Z</time></trkpt><trkpt lat="47.12350366175838" lon="5.4885344021073434"><ele>325.0</ele><time>2026-04-14T15:03:22.001Z</time></trkpt><trkpt lat="47.12351510305621" lon="5.488424431537733"><ele>325.0</ele><time>2026-04-14T15:03:26.001Z</time></trkpt><trkpt lat="47.12356799286522" lon="5.488304989417538"><ele>325.0</ele><time>2026-04-14T15:03:29.001Z</time></trkpt><trkpt lat="47.12361317132331" lon="5.488208178435907"><ele>325.0</ele><time>2026-04-14T15:03:32.001Z</time></trkpt><trkpt lat="47.12362482216872" lon="5.488104242836579"><ele>325.0</ele><time>2026-04-14T15:03:36.001Z</time></trkpt><trkpt lat="47.123598377264216" lon="5.4879993014088715"><ele>325.0</ele><time>2026-04-14T15:03:46.001Z</time></trkpt><trkpt lat="47.123582200191095" lon="5.487900227313384"><ele>325.0</ele><time>2026-04-14T15:03:49.001Z</time></trkpt><trkpt lat="47.123553869358375" lon="5.487808277835592"><ele>325.0</ele><time>2026-04-14T15:03:51.001Z</time></trkpt><trkpt lat="47.12348199453868" lon="5.487738121306046"><ele>325.0</ele><time>2026-04-14T15:03:54.001Z</time></trkpt><trkpt lat="47.12341397539444" lon="5.487677184869989"><ele>325.0</ele><time>2026-04-14T15:03:57.001Z</time></trkpt><trkpt lat="47.123392601541354" lon="5.487553803255304"><ele>325.0</ele><time>2026-04-14T15:04:00.001Z</time></trkpt><trkpt lat="47.12338677611865" lon="5.487460596492037"><ele>325.0</ele><time>2026-04-14T15:04:03.001Z</time></trkpt><trkpt lat="47.1233366942472" lon="5.487390523781523"><ele>325.0</ele><time>2026-04-14T15:04:07.001Z</time></trkpt><trkpt lat="47.12326695681281" lon="5.487403012817248"><ele>325.0</ele><time>2026-04-14T15:04:10.001Z</time></trkpt><trkpt lat="47.123191980688944" lon="5.487455483531102"><ele>325.0</ele><time>2026-04-14T15:04:13.001Z</time></trkpt><trkpt lat="47.12311692074604" lon="5.487466212367162"><ele>325.0</ele><time>2026-04-14T15:04:16.001Z</time></trkpt><trkpt lat="47.1230412321604" lon="5.487421117728099"><ele>325.0</ele><time>2026-04-14T15:04:19.001Z</time></trkpt><trkpt lat="47.12298079863854" lon="5.4873484466276015"><ele>325.0</ele><time>2026-04-14T15:04:22.001Z</time></trkpt><trkpt lat="47.12292250250198" lon="5.48730343580757"><ele>325.0</ele><time>2026-04-14T15:04:25.001Z</time></trkpt><trkpt lat="47.12285398044355" lon="5.487286085268005"><ele>325.0</ele><time>2026-04-14T15:04:28.001Z</time></trkpt><trkpt lat="47.1227901522509" lon="5.487260017549142"><ele>325.0</ele><time>2026-04-14T15:04:35.001Z</time></trkpt><trkpt lat="47.12272670124389" lon="5.487289018934115"><ele>325.0</ele><time>2026-04-14T15:04:40.001Z</time></trkpt><trkpt lat="47.122671129225864" lon="5.4872447624853695"><ele>325.0</ele><time>2026-04-14T15:04:44.001Z</time></trkpt><trkpt lat="47.12263676342286" lon="5.487150466074689"><ele>325.0</ele><time>2026-04-14T15:04:49.001Z</time></trkpt><trkpt lat="47.12260482837178" lon="5.4870548285595016"><ele>325.0</ele><time>2026-04-14T15:04:54.001Z</time></trkpt><trkpt lat="47.12255554278113" lon="5.486991293733461"><ele>325.0</ele><time>2026-04-14T15:04:59.001Z</time></trkpt><trkpt lat="47.12251111869432" lon="5.486913090576871"><ele>325.0</ele><time>2026-04-14T15:05:08.001Z</time></trkpt><trkpt lat="47.12244071070768" lon="5.48690035008405"><ele>325.0</ele><time>2026-04-14T15:05:20.001Z</time></trkpt><trkpt lat="47.12238425858982" lon="5.486972937365516"><ele>325.0</ele><time>2026-04-14T15:05:23.001Z</time></trkpt><trkpt lat="47.122303163676634" lon="5.48700101674114"><ele>325.0</ele><time>2026-04-14T15:05:26.001Z</time></trkpt><trkpt lat="47.12223099549033" lon="5.486978301783545"><ele>325.0</ele><time>2026-04-14T15:05:29.001Z</time></trkpt><trkpt lat="47.12216699965961" lon="5.486974278470023"><ele>325.16666666666663</ele><time>2026-04-14T15:05:31.001Z</time></trkpt><trkpt lat="47.122090179517045" lon="5.486965393652661"><ele>325.3333333333333</ele><time>2026-04-14T15:05:34.001Z</time></trkpt><trkpt lat="47.122014197564795" lon="5.486989533533795"><ele>325.5</ele><time>2026-04-14T15:05:38.001Z</time></trkpt><trkpt lat="47.12194156837381" lon="5.486976457764848"><ele>325.6666666666667</ele><time>2026-04-14T15:05:41.001Z</time></trkpt><trkpt lat="47.12187945847131" lon="5.4870156850716905"><ele>325.83333333333337</ele><time>2026-04-14T15:05:43.001Z</time></trkpt><trkpt lat="47.121811145960464" lon="5.487085673963173"><ele>326.0</ele><time>2026-04-14T15:05:45.001Z</time></trkpt><trkpt lat="47.121726656376495" lon="5.4872017633220995"><ele>326.0</ele><time>2026-04-14T15:05:47.001Z</time></trkpt><trkpt lat="47.12164296307333" lon="5.487312655901059"><ele>326.0</ele><time>2026-04-14T15:05:49.001Z</time></trkpt><trkpt lat="47.12155130696215" lon="5.487408880149468"><ele>326.0</ele><time>2026-04-14T15:05:51.001Z</time></trkpt><trkpt lat="47.12143949237384" lon="5.487496806313738"><ele>326.0</ele><time>2026-04-14T15:05:53.001Z</time></trkpt><trkpt lat="47.12137302388169" lon="5.48752723262225"><ele>326.0</ele><time>2026-04-14T15:05:55.001Z</time></trkpt><trkpt lat="47.1212662803448" lon="5.487563274805888"><ele>325.6666666666667</ele><time>2026-04-14T15:05:58.001Z</time></trkpt><trkpt lat="47.12119021457352" lon="5.487613398586854"><ele>325.33333333333337</ele><time>2026-04-14T15:06:00.001Z</time></trkpt><trkpt lat="47.12110761091776" lon="5.487657822673663"><ele>325.0</ele><time>2026-04-14T15:06:02.001Z</time></trkpt><trkpt lat="47.121026138818934" lon="5.487703504045948"><ele>324.6666666666667</ele><time>2026-04-14T15:06:04.001Z</time></trkpt><trkpt lat="47.12096415464498" lon="5.48772219569002"><ele>324.3333333333333</ele><time>2026-04-14T15:06:07.001Z</time></trkpt><trkpt lat="47.12089144163497" lon="5.487738875677332"><ele>324.0</ele><time>2026-04-14T15:06:10.001Z</time></trkpt><trkpt lat="47.120811226821615" lon="5.487749436875328"><ele>324.0</ele><time>2026-04-14T15:06:13.001Z</time></trkpt><trkpt lat="47.120735035321786" lon="5.487751783808216"><ele>324.0</ele><time>2026-04-14T15:06:15.001Z</time></trkpt><trkpt lat="47.120651677294745" lon="5.487753208731755"><ele>324.0</ele><time>2026-04-14T15:06:17.001Z</time></trkpt><trkpt lat="47.12055453103699" lon="5.487740049143776"><ele>324.0</ele><time>2026-04-14T15:06:19.001Z</time></trkpt><trkpt lat="47.120435256554856" lon="5.487742060800537"><ele>324.0</ele><time>2026-04-14T15:06:21.001Z</time></trkpt><trkpt lat="47.120362417816295" lon="5.4877298232219065"><ele>323.14285714285717</ele><time>2026-04-14T15:06:22.001Z</time></trkpt><trkpt lat="47.120295027314796" lon="5.487719681119069"><ele>322.2857142857143</ele><time>2026-04-14T15:06:23.001Z</time></trkpt><trkpt lat="47.12022528988041" lon="5.487717669462308"><ele>321.42857142857144</ele><time>2026-04-14T15:06:24.001Z</time></trkpt><trkpt lat="47.12015995294519" lon="5.487721357499703"><ele>320.57142857142856</ele><time>2026-04-14T15:06:25.001Z</time></trkpt><trkpt lat="47.120088036215975" lon="5.487711131577834"><ele>319.7142857142857</ele><time>2026-04-14T15:06:26.001Z</time></trkpt><trkpt lat="47.12001972370513" lon="5.487697385256633"><ele>318.85714285714283</ele><time>2026-04-14T15:06:27.001Z</time></trkpt><trkpt lat="47.1199501539088" lon="5.487684393306717"><ele>318.0</ele><time>2026-04-14T15:06:28.001Z</time></trkpt><trkpt lat="47.11987580642767" lon="5.487682297830924"><ele>316.8333333333333</ele><time>2026-04-14T15:06:29.001Z</time></trkpt><trkpt lat="47.11980036929913" lon="5.487685566773161"><ele>315.6666666666667</ele><time>2026-04-14T15:06:30.001Z</time></trkpt><trkpt lat="47.119723297699466" lon="5.487672239547118"><ele>314.5</ele><time>2026-04-14T15:06:31.001Z</time></trkpt><trkpt lat="47.11964656137593" lon="5.487651284789189"><ele>313.33333333333337</ele><time>2026-04-14T15:06:32.001Z</time></trkpt><trkpt lat="47.11957137570448" lon="5.487627312546119"><ele>312.1666666666667</ele><time>2026-04-14T15:06:33.001Z</time></trkpt><trkpt lat="47.11949246008612" lon="5.487614152958139"><ele>311.0</ele><time>2026-04-14T15:06:34.001Z</time></trkpt><trkpt lat="47.11941044316359" lon="5.487592108552798"><ele>311.0</ele><time>2026-04-14T15:06:35.001Z</time></trkpt><trkpt lat="47.119330940812006" lon="5.487585151573166"><ele>311.0</ele><time>2026-04-14T15:06:36.001Z</time></trkpt><trkpt lat="47.11925525222637" lon="5.4875704832426155"><ele>311.0</ele><time>2026-04-14T15:06:37.001Z</time></trkpt><trkpt lat="47.119169882542565" lon="5.487558580940112"><ele>311.0</ele><time>2026-04-14T15:06:38.001Z</time></trkpt><trkpt lat="47.11909293667145" lon="5.48755162396048"><ele>311.0</ele><time>2026-04-14T15:06:39.001Z</time></trkpt><trkpt lat="47.11901485924341" lon="5.487540978943452"><ele>311.0</ele><time>2026-04-14T15:06:40.001Z</time></trkpt><trkpt lat="47.1189313335783" lon="5.487529998650297"><ele>310.33333333333337</ele><time>2026-04-14T15:06:41.001Z</time></trkpt><trkpt lat="47.1188409347526" lon="5.487529076640948"><ele>309.6666666666667</ele><time>2026-04-14T15:06:42.001Z</time></trkpt><trkpt lat="47.11875447542138" lon="5.487523544584855"><ele>309.0</ele><time>2026-04-14T15:06:43.001Z</time></trkpt><trkpt lat="47.118669063828065" lon="5.487514408310398"><ele>308.3333333333333</ele><time>2026-04-14T15:06:44.001Z</time></trkpt><trkpt lat="47.11858323313959" lon="5.487512312834605"><ele>307.66666666666663</ele><time>2026-04-14T15:06:45.001Z</time></trkpt><trkpt lat="47.118500210388675" lon="5.487502589826926"><ele>307.0</ele><time>2026-04-14T15:06:46.001Z</time></trkpt><trkpt lat="47.11841945075162" lon="5.4875009972653235"><ele>307.0</ele><time>2026-04-14T15:06:47.001Z</time></trkpt><trkpt lat="47.11833261423476" lon="5.487498063599213"><ele>307.0</ele><time>2026-04-14T15:06:48.001Z</time></trkpt><trkpt lat="47.11825047158368" lon="5.487484317278012"><ele>307.0</ele><time>2026-04-14T15:06:49.001Z</time></trkpt><trkpt lat="47.1181648923523" lon="5.487458165740117"><ele>307.0</ele><time>2026-04-14T15:06:50.001Z</time></trkpt><trkpt lat="47.11808664728619" lon="5.487420530994877"><ele>307.0</ele><time>2026-04-14T15:06:51.001Z</time></trkpt><trkpt lat="47.118013347542956" lon="5.487387254839286"><ele>307.0</ele><time>2026-04-14T15:06:52.001Z</time></trkpt><trkpt lat="47.11794319101341" lon="5.48734836280857"><ele>307.16666666666663</ele><time>2026-04-14T15:06:53.001Z</time></trkpt><trkpt lat="47.11788300894864" lon="5.487293712799891"><ele>307.3333333333333</ele><time>2026-04-14T15:06:54.001Z</time></trkpt><trkpt lat="47.117787036157324" lon="5.487215677281364"><ele>307.5</ele><time>2026-04-14T15:06:56.001Z</time></trkpt><trkpt lat="47.11772324987419" lon="5.487186592077358"><ele>307.6666666666667</ele><time>2026-04-14T15:06:57.001Z</time></trkpt><trkpt lat="47.11762610361643" lon="5.487117357557161"><ele>307.83333333333337</ele><time>2026-04-14T15:06:59.001Z</time></trkpt><trkpt lat="47.11754345805116" lon="5.487059187149151"><ele>308.0</ele><time>2026-04-14T15:07:01.001Z</time></trkpt><trkpt lat="47.11746521298505" lon="5.487013673414929"><ele>310.5</ele><time>2026-04-14T15:07:03.001Z</time></trkpt><trkpt lat="47.11739853494532" lon="5.486970003699406"><ele>313.0</ele><time>2026-04-14T15:07:05.001Z</time></trkpt><trkpt lat="47.117339526346996" lon="5.486923232679708"><ele>315.5</ele><time>2026-04-14T15:07:07.001Z</time></trkpt><trkpt lat="47.11725755133398" lon="5.4868740309080914"><ele>318.0</ele><time>2026-04-14T15:07:10.001Z</time></trkpt><trkpt lat="47.11718764626152" lon="5.486830528830631"><ele>320.5</ele><time>2026-04-14T15:07:13.001Z</time></trkpt><trkpt lat="47.117120004302926" lon="5.4868127591959075"><ele>323.0</ele><time>2026-04-14T15:07:17.001Z</time></trkpt><trkpt lat="47.11704113059408" lon="5.486775375907762"><ele>323.0</ele><time>2026-04-14T15:07:20.001Z</time></trkpt><trkpt lat="47.11697235707856" lon="5.48671712168072"><ele>323.0</ele><time>2026-04-14T15:07:23.001Z</time></trkpt><trkpt lat="47.11691804234601" lon="5.486662723129137"><ele>323.0</ele><time>2026-04-14T15:07:26.001Z</time></trkpt><trkpt lat="47.116859075657196" lon="5.486604468902095"><ele>323.0</ele><time>2026-04-14T15:07:29.001Z</time></trkpt><trkpt lat="47.11679084696538" lon="5.486540012066706"><ele>323.0</ele><time>2026-04-14T15:07:32.001Z</time></trkpt><trkpt lat="47.11671285335637" lon="5.486476561059697"><ele>323.0</ele><time>2026-04-14T15:07:35.001Z</time></trkpt><trkpt lat="47.11664776787824" lon="5.486409673472388"><ele>323.0</ele><time>2026-04-14T15:07:38.001Z</time></trkpt><trkpt lat="47.11657220502115" lon="5.486359465872391"><ele>323.0</ele><time>2026-04-14T15:07:41.001Z</time></trkpt><trkpt lat="47.1164978156305" lon="5.486314119776233"><ele>323.0</ele><time>2026-04-14T15:07:44.001Z</time></trkpt><trkpt lat="47.11642824583418" lon="5.4862549435398416"><ele>323.0</ele><time>2026-04-14T15:07:47.001Z</time></trkpt><trkpt lat="47.11636450146056" lon="5.48619920388375"><ele>323.0</ele><time>2026-04-14T15:07:50.001Z</time></trkpt><trkpt lat="47.11630054753936" lon="5.486149331559879"><ele>323.0</ele><time>2026-04-14T15:07:53.001Z</time></trkpt><trkpt lat="47.11624321532167" lon="5.4860838688961095"><ele>323.0</ele><time>2026-04-14T15:07:55.001Z</time></trkpt><trkpt lat="47.116185464008815" lon="5.48601061106239"><ele>323.0</ele><time>2026-04-14T15:07:57.001Z</time></trkpt><trkpt lat="47.116111703260906" lon="5.485961325471742"><ele>323.0</ele><time>2026-04-14T15:07:59.001Z</time></trkpt><trkpt lat="47.116020550063915" lon="5.485930312430007"><ele>323.0</ele><time>2026-04-14T15:08:01.001Z</time></trkpt><trkpt lat="47.11594079625524" lon="5.485913045709474"><ele>323.0</ele><time>2026-04-14T15:08:03.001Z</time></trkpt><trkpt lat="47.11585366637177" lon="5.485906256367905"><ele>323.0</ele><time>2026-04-14T15:08:05.001Z</time></trkpt><trkpt lat="47.11576439910299" lon="5.485922181983931"><ele>322.14285714285717</ele><time>2026-04-14T15:08:07.001Z</time></trkpt><trkpt lat="47.11570220538146" lon="5.4859386943331785"><ele>321.2857142857143</ele><time>2026-04-14T15:08:09.001Z</time></trkpt><trkpt lat="47.115629618099995" lon="5.485946908598287"><ele>320.42857142857144</ele><time>2026-04-14T15:08:37.001Z</time></trkpt><trkpt lat="47.11557622537679" lon="5.485998541121823"><ele>319.57142857142856</ele><time>2026-04-14T15:08:41.001Z</time></trkpt><trkpt lat="47.11553230420417" lon="5.486115301033003"><ele>318.7142857142857</ele><time>2026-04-14T15:08:44.001Z</time></trkpt><trkpt lat="47.11550397337145" lon="5.486198617150528"><ele>317.8571428571429</ele><time>2026-04-14T15:08:46.001Z</time></trkpt><trkpt lat="47.11547270887262" lon="5.486328536649688"><ele>317.0</ele><time>2026-04-14T15:08:49.001Z</time></trkpt><trkpt lat="47.1154184779591" lon="5.486411266033991"><ele>316.2</ele><time>2026-04-14T15:08:52.001Z</time></trkpt><trkpt lat="47.11535100363857" lon="5.48641562462364"><ele>315.4</ele><time>2026-04-14T15:08:55.001Z</time></trkpt><trkpt lat="47.11529383905894" lon="5.486374637117131"><ele>314.6</ele><time>2026-04-14T15:08:58.001Z</time></trkpt><trkpt lat="47.11522225760586" lon="5.486368685965879"><ele>313.8</ele><time>2026-04-14T15:09:02.001Z</time></trkpt><trkpt lat="47.11511329286463" lon="5.486487708990915"><ele>313.0</ele><time>2026-04-14T15:09:04.001Z</time></trkpt><trkpt lat="47.11499883797682" lon="5.48655878752981"><ele>313.0</ele><time>2026-04-14T15:09:06.001Z</time></trkpt><trkpt lat="47.11491757542557" lon="5.486616203566535"><ele>313.0</ele><time>2026-04-14T15:09:08.001Z</time></trkpt><trkpt lat="47.11485609416581" lon="5.4866802413067655"><ele>313.0</ele><time>2026-04-14T15:09:10.001Z</time></trkpt><trkpt lat="47.114802617623575" lon="5.486758360644324"><ele>313.0</ele><time>2026-04-14T15:09:12.001Z</time></trkpt><trkpt lat="47.11474339947767" lon="5.486845867713435"><ele>313.0</ele><time>2026-04-14T15:09:14.001Z</time></trkpt><trkpt lat="47.11470840503193" lon="5.4869676567665175"><ele>313.0</ele><time>2026-04-14T15:09:16.001Z</time></trkpt><trkpt lat="47.114699101119406" lon="5.487116016452654"><ele>312.0</ele><time>2026-04-14T15:09:18Z</time></trkpt><trkpt lat="47.114650150804884" lon="5.487222215165838"><ele>311.0</ele><time>2026-04-14T15:09:21Z</time></trkpt><trkpt lat="47.11459453687734" lon="5.487270075832948"><ele>310.0</ele><time>2026-04-14T15:09:23Z</time></trkpt><trkpt lat="47.114530247680015" lon="5.487297233199223"><ele>309.0</ele><time>2026-04-14T15:09:26Z</time></trkpt><trkpt lat="47.1144612227074" lon="5.487285163258656"><ele>308.0</ele><time>2026-04-14T15:09:29Z</time></trkpt><trkpt lat="47.114392742558486" lon="5.487221293156489"><ele>307.0</ele><time>2026-04-14T15:09:31Z</time></trkpt><trkpt lat="47.114336206621594" lon="5.487149795522435"><ele>306.0</ele><time>2026-04-14T15:09:33Z</time></trkpt><trkpt lat="47.1142799221418" lon="5.487066395585878"><ele>306.0</ele><time>2026-04-14T15:09:35Z</time></trkpt><trkpt lat="47.1142133279211" lon="5.486978637059672"><ele>306.0</ele><time>2026-04-14T15:09:37Z</time></trkpt><trkpt lat="47.11414199792511" lon="5.4869252443364696"><ele>306.0</ele><time>2026-04-14T15:09:39Z</time></trkpt><trkpt lat="47.114064130044646" lon="5.486861122777207"><ele>306.0</ele><time>2026-04-14T15:09:41Z</time></trkpt><trkpt lat="47.11400025994248" lon="5.486767748375876"><ele>306.0</ele><time>2026-04-14T15:09:43Z</time></trkpt><trkpt lat="47.113945065110094" lon="5.486683929344161"><ele>306.0</ele><time>2026-04-14T15:09:45Z</time></trkpt><trkpt lat="47.113879309079714" lon="5.48663062043999"><ele>304.85714285714283</ele><time>2026-04-14T15:09:47Z</time></trkpt><trkpt lat="47.11382432379491" lon="5.486579993744834"><ele>303.7142857142857</ele><time>2026-04-14T15:09:49Z</time></trkpt><trkpt lat="47.11378191136486" lon="5.486509082844003"><ele>302.57142857142856</ele><time>2026-04-14T15:09:51Z</time></trkpt><trkpt lat="47.11372323804266" lon="5.486416211356862"><ele>301.42857142857144</ele><time>2026-04-14T15:09:54Z</time></trkpt><trkpt lat="47.11365262050844" lon="5.486402884130819"><ele>300.2857142857143</ele><time>2026-04-14T15:09:57Z</time></trkpt><trkpt lat="47.113628187260694" lon="5.486516375099762"><ele>299.1428571428571</ele><time>2026-04-14T15:10:00Z</time></trkpt><trkpt lat="47.11361972153849" lon="5.4866148624620275"><ele>298.0</ele><time>2026-04-14T15:10:02Z</time></trkpt><trkpt lat="47.113579530312784" lon="5.486736819153173"><ele>298.0</ele><time>2026-04-14T15:10:05Z</time></trkpt><trkpt lat="47.113533387935824" lon="5.486815441404922"><ele>298.0</ele><time>2026-04-14T15:10:07Z</time></trkpt><trkpt lat="47.11347634908474" lon="5.486901858826621"><ele>298.0</ele><time>2026-04-14T15:10:10Z</time></trkpt><trkpt lat="47.113474295518465" lon="5.487037226562841"><ele>298.0</ele><time>2026-04-14T15:10:13Z</time></trkpt><trkpt lat="47.11350409318424" lon="5.487131690611585"><ele>298.0</ele><time>2026-04-14T15:10:15Z</time></trkpt><trkpt lat="47.113531753464706" lon="5.487249707808241"><ele>298.0</ele><time>2026-04-14T15:10:17Z</time></trkpt><trkpt lat="47.113515869758196" lon="5.487356912349805"><ele>296.8</ele><time>2026-04-14T15:10:19Z</time></trkpt><trkpt lat="47.113420860885746" lon="5.487458920111402"><ele>295.6</ele><time>2026-04-14T15:10:21Z</time></trkpt><trkpt lat="47.11335342847473" lon="5.487554389988526"><ele>294.4</ele><time>2026-04-14T15:10:23Z</time></trkpt><trkpt lat="47.11338548925436" lon="5.487668970604881"><ele>293.2</ele><time>2026-04-14T15:10:26Z</time></trkpt><trkpt lat="47.11334521420962" lon="5.4877825453928555"><ele>292.0</ele><time>2026-04-14T15:10:29Z</time></trkpt><trkpt lat="47.113342573910124" lon="5.487912800168141"><ele>290.6</ele><time>2026-04-14T15:10:32Z</time></trkpt><trkpt lat="47.11333465301163" lon="5.488059232016548"><ele>289.2</ele><time>2026-04-14T15:10:34Z</time></trkpt><trkpt lat="47.113332054621644" lon="5.488155875360117"><ele>287.8</ele><time>2026-04-14T15:10:36Z</time></trkpt><trkpt lat="47.11330456197924" lon="5.488308761273966"><ele>286.4</ele><time>2026-04-14T15:10:38Z</time></trkpt><trkpt lat="47.113297143994934" lon="5.488476818432555"><ele>285.0</ele><time>2026-04-14T15:10:40Z</time></trkpt><trkpt lat="47.11331147704936" lon="5.488665830349073"><ele>284.5</ele><time>2026-04-14T15:10:42Z</time></trkpt><trkpt lat="47.11330984257824" lon="5.488762222235546"><ele>284.0</ele><time>2026-04-14T15:10:43Z</time></trkpt><trkpt lat="47.113340226977236" lon="5.488896248867259"><ele>283.5</ele><time>2026-04-14T15:10:45Z</time></trkpt><trkpt lat="47.1133327251739" lon="5.489044943829522"><ele>283.0</ele><time>2026-04-14T15:10:47Z</time></trkpt><trkpt lat="47.11333293472148" lon="5.489150974904643"><ele>282.5</ele><time>2026-04-14T15:10:50Z</time></trkpt><trkpt lat="47.113347938328154" lon="5.489254826684938"><ele>282.0</ele><time>2026-04-14T15:10:52Z</time></trkpt><trkpt lat="47.11336818062431" lon="5.489368820568071"><ele>282.0</ele><time>2026-04-14T15:10:54Z</time></trkpt><trkpt lat="47.11332128387607" lon="5.48950511031364"><ele>282.0</ele><time>2026-04-14T15:10:56Z</time></trkpt><trkpt lat="47.11326801688141" lon="5.48961306922649"><ele>282.0</ele><time>2026-04-14T15:10:58Z</time></trkpt><trkpt lat="47.11321210958726" lon="5.489721614872561"><ele>282.0</ele><time>2026-04-14T15:11:00Z</time></trkpt><trkpt lat="47.11317615122265" lon="5.489861508836494"><ele>282.0</ele><time>2026-04-14T15:11:02Z</time></trkpt><trkpt lat="47.11314513818092" lon="5.489952536304937"><ele>280.2857142857143</ele><time>2026-04-14T15:11:04Z</time></trkpt><trkpt lat="47.11313235577858" lon="5.49005865119909"><ele>278.57142857142856</ele><time>2026-04-14T15:11:27Z</time></trkpt><trkpt lat="47.11318369493551" lon="5.490121934568035"><ele>276.85714285714283</ele><time>2026-04-14T15:11:31Z</time></trkpt><trkpt lat="47.113238470672734" lon="5.490073738624798"><ele>275.1428571428571</ele><time>2026-04-14T15:11:34Z</time></trkpt><trkpt lat="47.11320620034552" lon="5.4899941943637"><ele>273.4285714285714</ele><time>2026-04-14T15:12:02Z</time></trkpt><trkpt lat="47.113158130130834" lon="5.48991163261746"><ele>271.7142857142857</ele><time>2026-04-14T15:12:07Z</time></trkpt><trkpt lat="47.113115717700786" lon="5.489827143033491"><ele>270.0</ele><time>2026-04-14T15:12:10Z</time></trkpt><trkpt lat="47.113063624172575" lon="5.489754891028152"><ele>270.0</ele><time>2026-04-14T15:12:13Z</time></trkpt><trkpt lat="47.11300034080363" lon="5.48967953771864"><ele>270.0</ele><time>2026-04-14T15:12:17Z</time></trkpt><trkpt lat="47.11291941352851" lon="5.489672413100944"><ele>270.0</ele><time>2026-04-14T15:12:20Z</time></trkpt><trkpt lat="47.11284607187576" lon="5.489684483041511"><ele>270.0</ele><time>2026-04-14T15:12:22Z</time></trkpt><trkpt lat="47.11277998056925" lon="5.48971666954969"><ele>270.0</ele><time>2026-04-14T15:12:24Z</time></trkpt><trkpt lat="47.112719547047384" lon="5.489773247396098"><ele>270.0</ele><time>2026-04-14T15:12:26Z</time></trkpt><trkpt lat="47.1126548387549" lon="5.489844242115961"><ele>270.0</ele><time>2026-04-14T15:12:28Z</time></trkpt><trkpt lat="47.1125900885529" lon="5.489938454707609"><ele>270.0</ele><time>2026-04-14T15:12:30Z</time></trkpt><trkpt lat="47.1125211054898" lon="5.490051275124299"><ele>270.0</ele><time>2026-04-14T15:12:32Z</time></trkpt><trkpt lat="47.11245585237361" lon="5.490162335341322"><ele>270.0</ele><time>2026-04-14T15:12:34Z</time></trkpt><trkpt lat="47.11240028035558" lon="5.490245902915942"><ele>270.0</ele><time>2026-04-14T15:12:36Z</time></trkpt><trkpt lat="47.11230698977328" lon="5.490232072775709"><ele>267.6</ele><time>2026-04-14T15:12:39Z</time></trkpt><trkpt lat="47.112230462997324" lon="5.490167029207098"><ele>265.2</ele><time>2026-04-14T15:12:41Z</time></trkpt><trkpt lat="47.11214337502337" lon="5.490106595685231"><ele>262.8</ele><time>2026-04-14T15:12:43Z</time></trkpt><trkpt lat="47.11206353739566" lon="5.490063596521961"><ele>260.4</ele><time>2026-04-14T15:12:45Z</time></trkpt><trkpt lat="47.11197234228916" lon="5.489946249877558"><ele>258.0</ele><time>2026-04-14T15:12:47Z</time></trkpt><trkpt lat="47.11189388767547" lon="5.489832088356362"><ele>258.0</ele><time>2026-04-14T15:12:49Z</time></trkpt><trkpt lat="47.111777588768966" lon="5.489740222697602"><ele>258.0</ele><time>2026-04-14T15:12:51Z</time></trkpt><trkpt lat="47.11172725544042" lon="5.489655733113633"><ele>258.0</ele><time>2026-04-14T15:12:52Z</time></trkpt><trkpt lat="47.11168727376229" lon="5.489569818606125"><ele>258.0</ele><time>2026-04-14T15:12:53Z</time></trkpt><trkpt lat="47.1116238646648" lon="5.489476108928667"><ele>258.0</ele><time>2026-04-14T15:12:54Z</time></trkpt><trkpt lat="47.111574956259794" lon="5.4894084669700725"><ele>258.0</ele><time>2026-04-14T15:12:55Z</time></trkpt><trkpt lat="47.11153078363008" lon="5.48933017999445"><ele>255.66666666666666</ele><time>2026-04-14T15:12:56Z</time></trkpt><trkpt lat="47.11147441533125" lon="5.489235129212485"><ele>253.33333333333331</ele><time>2026-04-14T15:12:57Z</time></trkpt><trkpt lat="47.11142144170321" lon="5.489148125057564"><ele>251.0</ele><time>2026-04-14T15:12:58Z</time></trkpt><trkpt lat="47.11137659852124" lon="5.489044692372427"><ele>248.66666666666666</ele><time>2026-04-14T15:12:59Z</time></trkpt><trkpt lat="47.111336072019405" lon="5.488970680167422"><ele>246.33333333333331</ele><time>2026-04-14T15:13:00Z</time></trkpt><trkpt lat="47.11128590632892" lon="5.4888854362121675"><ele>244.0</ele><time>2026-04-14T15:13:01Z</time></trkpt><trkpt lat="47.111226897730596" lon="5.488803712656245"><ele>244.33333333333331</ele><time>2026-04-14T15:13:02Z</time></trkpt><trkpt lat="47.11116826631791" lon="5.488718803977117"><ele>244.66666666666666</ele><time>2026-04-14T15:13:03Z</time></trkpt><trkpt lat="47.11110938344813" lon="5.488632973288641"><ele>245.0</ele><time>2026-04-14T15:13:04Z</time></trkpt><trkpt lat="47.11105649363912" lon="5.488548567523703"><ele>245.33333333333331</ele><time>2026-04-14T15:13:05Z</time></trkpt><trkpt lat="47.11099585056967" lon="5.488464916130051"><ele>245.66666666666666</ele><time>2026-04-14T15:13:06Z</time></trkpt><trkpt lat="47.11094459523178" lon="5.48839056864892"><ele>246.0</ele><time>2026-04-14T15:13:07Z</time></trkpt><trkpt lat="47.110842838927276" lon="5.488266348843918"><ele>246.0</ele><time>2026-04-14T15:13:09Z</time></trkpt><trkpt lat="47.11079078730858" lon="5.488191246991501"><ele>246.0</ele><time>2026-04-14T15:13:10Z</time></trkpt><trkpt lat="47.11075273346818" lon="5.488114636396512"><ele>246.0</ele><time>2026-04-14T15:13:11Z</time></trkpt><trkpt lat="47.11070571099139" lon="5.488045904790505"><ele>246.0</ele><time>2026-04-14T15:13:12Z</time></trkpt><trkpt lat="47.11066141263313" lon="5.48797382042323"><ele>246.0</ele><time>2026-04-14T15:13:13Z</time></trkpt><trkpt lat="47.110600727654166" lon="5.487839542334422"><ele>246.0</ele><time>2026-04-14T15:13:15Z</time></trkpt><trkpt lat="47.11054079704649" lon="5.487773157661303"><ele>246.16666666666666</ele><time>2026-04-14T15:13:17Z</time></trkpt><trkpt lat="47.110481662719614" lon="5.487719178204879"><ele>246.33333333333331</ele><time>2026-04-14T15:13:19Z</time></trkpt><trkpt lat="47.11040765051461" lon="5.487619433557137"><ele>246.5</ele><time>2026-04-14T15:13:22Z</time></trkpt><trkpt lat="47.11038388781912" lon="5.4875251371464575"><ele>246.66666666666666</ele><time>2026-04-14T15:13:25Z</time></trkpt><trkpt lat="47.11031972435034" lon="5.487439557915076"><ele>246.83333333333331</ele><time>2026-04-14T15:13:28Z</time></trkpt><trkpt lat="47.11027006157405" lon="5.487362695862993"><ele>247.0</ele><time>2026-04-14T15:13:31Z</time></trkpt><trkpt lat="47.11020669438607" lon="5.487276948993548"><ele>247.0</ele><time>2026-04-14T15:13:34Z</time></trkpt><trkpt lat="47.11016302467055" lon="5.4872051999024"><ele>247.0</ele><time>2026-04-14T15:13:36Z</time></trkpt><trkpt lat="47.11012224671162" lon="5.487130098049982"><ele>247.0</ele><time>2026-04-14T15:13:38Z</time></trkpt><trkpt lat="47.11007677488691" lon="5.487057343130453"><ele>247.0</ele><time>2026-04-14T15:13:40Z</time></trkpt><trkpt lat="47.11002845321513" lon="5.4869744461080865"><ele>247.0</ele><time>2026-04-14T15:13:43Z</time></trkpt><trkpt lat="47.10996387065119" lon="5.486896745865686"><ele>247.0</ele><time>2026-04-14T15:13:46Z</time></trkpt><trkpt lat="47.1098909480936" lon="5.486823739489062"><ele>247.0</ele><time>2026-04-14T15:13:49Z</time></trkpt><trkpt lat="47.10984157868392" lon="5.486748302360518"><ele>246.71428571428572</ele><time>2026-04-14T15:13:52Z</time></trkpt><trkpt lat="47.10977699611998" lon="5.486658113082393"><ele>246.42857142857142</ele><time>2026-04-14T15:13:55Z</time></trkpt><trkpt lat="47.109714550941355" lon="5.4866006970456676"><ele>246.14285714285714</ele><time>2026-04-14T15:13:58Z</time></trkpt><trkpt lat="47.10965084847725" lon="5.486573204403265"><ele>245.85714285714286</ele><time>2026-04-14T15:14:01Z</time></trkpt><trkpt lat="47.109580524309635" lon="5.486605390911444"><ele>245.57142857142856</ele><time>2026-04-14T15:14:04Z</time></trkpt><trkpt lat="47.10951736666924" lon="5.4866401758096055"><ele>245.28571428571428</ele><time>2026-04-14T15:14:06Z</time></trkpt><trkpt lat="47.109449515163064" lon="5.4866699315658645"><ele>245.0</ele><time>2026-04-14T15:14:08Z</time></trkpt><trkpt lat="47.10934826177275" lon="5.486686946829303"><ele>245.0</ele><time>2026-04-14T15:14:11Z</time></trkpt><trkpt lat="47.10926544856942" lon="5.486606480558856"><ele>245.0</ele><time>2026-04-14T15:14:12Z</time></trkpt><trkpt lat="47.10917626511967" lon="5.486518302937491"><ele>245.0</ele><time>2026-04-14T15:14:14Z</time></trkpt><trkpt lat="47.10908343554205" lon="5.486440099780901"><ele>245.0</ele><time>2026-04-14T15:14:16Z</time></trkpt><trkpt lat="47.10898846857911" lon="5.486377906059368"><ele>245.0</ele><time>2026-04-14T15:14:18Z</time></trkpt><trkpt lat="47.1089107264272" lon="5.486259302129491"><ele>245.0</ele><time>2026-04-14T15:14:20Z</time></trkpt><trkpt lat="47.10883424156076" lon="5.486152600502116"><ele>245.0</ele><time>2026-04-14T15:14:22Z</time></trkpt><trkpt lat="47.10880394098079" lon="5.485998624940855"><ele>245.0</ele><time>2026-04-14T15:14:24Z</time></trkpt><trkpt lat="47.108765677592814" lon="5.485887564723832"><ele>245.0</ele><time>2026-04-14T15:14:26Z</time></trkpt><trkpt lat="47.1087302221424" lon="5.485762506728513"><ele>245.0</ele><time>2026-04-14T15:14:28Z</time></trkpt><trkpt lat="47.10870147221452" lon="5.485639963304145"><ele>245.0</ele><time>2026-04-14T15:14:30Z</time></trkpt><trkpt lat="47.108671171634555" lon="5.485504763205988"><ele>245.0</ele><time>2026-04-14T15:14:32Z</time></trkpt><trkpt lat="47.108616647354424" lon="5.485384901990635"><ele>245.0</ele><time>2026-04-14T15:14:34Z</time></trkpt><trkpt lat="47.108593261844575" lon="5.48524936661635"><ele>245.0</ele><time>2026-04-14T15:14:36Z</time></trkpt><trkpt lat="47.10854506590134" lon="5.485137216751915"><ele>245.0</ele><time>2026-04-14T15:14:38Z</time></trkpt><trkpt lat="47.108509987636566" lon="5.485007883985978"><ele>245.2</ele><time>2026-04-14T15:14:40Z</time></trkpt><trkpt lat="47.1084521944142" lon="5.484875198458773"><ele>245.4</ele><time>2026-04-14T15:14:42Z</time></trkpt><trkpt lat="47.108407099775135" lon="5.484729856257778"><ele>245.60000000000002</ele><time>2026-04-14T15:14:44Z</time></trkpt><trkpt lat="47.108356808356106" lon="5.484573869039756"><ele>245.8</ele><time>2026-04-14T15:14:46Z</time></trkpt><trkpt lat="47.10832097572005" lon="5.484486361970645"><ele>246.0</ele><time>2026-04-14T15:14:47Z</time></trkpt><trkpt lat="47.10828501735544" lon="5.48439181410287"><ele>246.0</ele><time>2026-04-14T15:14:48Z</time></trkpt><trkpt lat="47.10825094491905" lon="5.484296847139936"><ele>246.0</ele><time>2026-04-14T15:14:49Z</time></trkpt><trkpt lat="47.108229738704026" lon="5.484193833549957"><ele>246.0</ele><time>2026-04-14T15:14:50Z</time></trkpt><trkpt lat="47.10820882585561" lon="5.484099285682182"><ele>246.0</ele><time>2026-04-14T15:14:51Z</time></trkpt><trkpt lat="47.10818468597448" lon="5.484000714500885"><ele>246.0</ele><time>2026-04-14T15:14:52Z</time></trkpt><trkpt lat="47.10815635514176" lon="5.483889486645799"><ele>246.0</ele><time>2026-04-14T15:14:53Z</time></trkpt><trkpt lat="47.108103171966135" lon="5.483783455570679"><ele>244.5</ele><time>2026-04-14T15:14:54Z</time></trkpt><trkpt lat="47.10807044063425" lon="5.483667952944975"><ele>243.0</ele><time>2026-04-14T15:14:55Z</time></trkpt><trkpt lat="47.10802995604193" lon="5.483534513046484"><ele>241.5</ele><time>2026-04-14T15:14:56Z</time></trkpt><trkpt lat="47.107989052354455" lon="5.483409035956006"><ele>240.0</ele><time>2026-04-14T15:14:57Z</time></trkpt><trkpt lat="47.107958206950784" lon="5.4833050165376465"><ele>238.5</ele><time>2026-04-14T15:14:58Z</time></trkpt><trkpt lat="47.1079201950199" lon="5.4831892624548475"><ele>237.0</ele><time>2026-04-14T15:14:59Z</time></trkpt><trkpt lat="47.107882727912724" lon="5.483075855304937"><ele>237.0</ele><time>2026-04-14T15:15:00Z</time></trkpt><trkpt lat="47.107850960499704" lon="5.482961861421804"><ele>237.0</ele><time>2026-04-14T15:15:01Z</time></trkpt><trkpt lat="47.10783046674645" lon="5.482857422908286"><ele>237.0</ele><time>2026-04-14T15:15:02Z</time></trkpt><trkpt lat="47.107782857536435" lon="5.482740998273234"><ele>237.0</ele><time>2026-04-14T15:15:03Z</time></trkpt><trkpt lat="47.1077468153528" lon="5.48263186589394"><ele>237.0</ele><time>2026-04-14T15:15:04Z</time></trkpt><trkpt lat="47.10770255890405" lon="5.482525499542693"><ele>237.0</ele><time>2026-04-14T15:15:05Z</time></trkpt><trkpt lat="47.107667815915406" lon="5.482423407962064"><ele>237.16666666666666</ele><time>2026-04-14T15:15:06Z</time></trkpt><trkpt lat="47.107630181170165" lon="5.482328692456225"><ele>237.33333333333331</ele><time>2026-04-14T15:15:07Z</time></trkpt><trkpt lat="47.107600634961486" lon="5.482243699958065"><ele>237.5</ele><time>2026-04-14T15:15:08Z</time></trkpt><trkpt lat="47.10757146593845" lon="5.482158875097969"><ele>237.66666666666666</ele><time>2026-04-14T15:15:09Z</time></trkpt><trkpt lat="47.107544685757816" lon="5.482002301146725"><ele>237.83333333333331</ele><time>2026-04-14T15:15:11Z</time></trkpt><trkpt lat="47.10749640599555" lon="5.481900209566096"><ele>238.0</ele><time>2026-04-14T15:15:13Z</time></trkpt><trkpt lat="47.10743362554079" lon="5.481837093835214"><ele>237.8</ele><time>2026-04-14T15:15:18Z</time></trkpt><trkpt lat="47.10735345263696" lon="5.481889313091973"><ele>237.60000000000002</ele><time>2026-04-14T15:15:21Z</time></trkpt><trkpt lat="47.107285391583204" lon="5.481948992242554"><ele>237.39999999999998</ele><time>2026-04-14T15:15:23Z</time></trkpt><trkpt lat="47.10718740713513" lon="5.482097938661912"><ele>237.2</ele><time>2026-04-14T15:15:25Z</time></trkpt><trkpt lat="47.107101450718105" lon="5.4821826797029765"><ele>237.0</ele><time>2026-04-14T15:15:27Z</time></trkpt><trkpt lat="47.10704596251911" lon="5.482239006092289"><ele>236.5</ele><time>2026-04-14T15:15:28Z</time></trkpt><trkpt lat="47.10694294892913" lon="5.482336152350047"><ele>236.0</ele><time>2026-04-14T15:15:30Z</time></trkpt><trkpt lat="47.10683574438757" lon="5.48245693557475"><ele>235.5</ele><time>2026-04-14T15:15:32Z</time></trkpt><trkpt lat="47.10673289843565" lon="5.482571348553042"><ele>235.0</ele><time>2026-04-14T15:15:34Z</time></trkpt><trkpt lat="47.106643337800264" lon="5.482719540601114"><ele>235.0</ele><time>2026-04-14T15:15:36Z</time></trkpt><trkpt lat="47.10654950239426" lon="5.4828223027339975"><ele>235.0</ele><time>2026-04-14T15:15:38Z</time></trkpt><trkpt lat="47.10644963201797" lon="5.482923053210119"><ele>235.0</ele><time>2026-04-14T15:15:40Z</time></trkpt><trkpt lat="47.10634326566672" lon="5.4830228816768924"><ele>235.0</ele><time>2026-04-14T15:15:42Z</time></trkpt><trkpt lat="47.1062728995896" lon="5.4831250570765535"><ele>235.83333333333331</ele><time>2026-04-14T15:15:44Z</time></trkpt><trkpt lat="47.106193397238016" lon="5.483218347658853"><ele>236.66666666666666</ele><time>2026-04-14T15:15:46Z</time></trkpt><trkpt lat="47.10612889849311" lon="5.483299735938648"><ele>237.5</ele><time>2026-04-14T15:15:48Z</time></trkpt><trkpt lat="47.10608137310213" lon="5.483382800599079"><ele>238.33333333333331</ele><time>2026-04-14T15:15:50Z</time></trkpt><trkpt lat="47.10599214774287" lon="5.48345857300375"><ele>239.16666666666666</ele><time>2026-04-14T15:15:53Z</time></trkpt><trkpt lat="47.10594038949078" lon="5.483528729533296"><ele>240.0</ele><time>2026-04-14T15:15:55Z</time></trkpt><trkpt lat="47.105911136648714" lon="5.483643310149651"><ele>240.0</ele><time>2026-04-14T15:15:58Z</time></trkpt><trkpt lat="47.10586474281466" lon="5.483762081717591"><ele>240.0</ele><time>2026-04-14T15:16:01Z</time></trkpt><trkpt lat="47.10581243973887" lon="5.483875656505566"><ele>240.0</ele><time>2026-04-14T15:16:04Z</time></trkpt><trkpt lat="47.10575162903136" lon="5.483973724772673"><ele>240.0</ele><time>2026-04-14T15:16:07Z</time></trkpt><trkpt lat="47.10570678584939" lon="5.484046731149297"><ele>240.0</ele><time>2026-04-14T15:16:09Z</time></trkpt><trkpt lat="47.10565083664572" lon="5.484143877407055"><ele>240.0</ele><time>2026-04-14T15:16:12Z</time></trkpt><trkpt lat="47.105609136677444" lon="5.484241610398035"><ele>240.66666666666666</ele><time>2026-04-14T15:16:15Z</time></trkpt><trkpt lat="47.105566640428364" lon="5.484355771919232"><ele>241.33333333333331</ele><time>2026-04-14T15:16:18Z</time></trkpt><trkpt lat="47.10551961795157" lon="5.48447437584911"><ele>242.0</ele><time>2026-04-14T15:16:21Z</time></trkpt><trkpt lat="47.1054922091282" lon="5.484573701401692"><ele>242.66666666666666</ele><time>2026-04-14T15:16:23Z</time></trkpt><trkpt lat="47.10545977116293" lon="5.484671602030736"><ele>243.33333333333331</ele><time>2026-04-14T15:16:25Z</time></trkpt><trkpt lat="47.10542494435525" lon="5.484772352506858"><ele>244.0</ele><time>2026-04-14T15:16:27Z</time></trkpt><trkpt lat="47.10539862517929" lon="5.484872097154599"><ele>243.99999999999997</ele><time>2026-04-14T15:16:29Z</time></trkpt><trkpt lat="47.10536643867111" lon="5.484978547324878"><ele>244.0</ele><time>2026-04-14T15:16:31Z</time></trkpt><trkpt lat="47.1053402452237" lon="5.485077789058429"><ele>244.0</ele><time>2026-04-14T15:16:33Z</time></trkpt><trkpt lat="47.105312291576624" lon="5.4852312617055"><ele>244.0</ele><time>2026-04-14T15:16:35Z</time></trkpt><trkpt lat="47.1052860562197" lon="5.485393870627028"><ele>243.99999999999997</ele><time>2026-04-14T15:16:37Z</time></trkpt><trkpt lat="47.10528245200133" lon="5.485492274170262"><ele>244.0</ele><time>2026-04-14T15:16:38Z</time></trkpt><trkpt lat="47.10523551334357" lon="5.485665779565913"><ele>243.16666666666666</ele><time>2026-04-14T15:16:40Z</time></trkpt><trkpt lat="47.10520793688214" lon="5.485799470921499"><ele>242.33333333333331</ele><time>2026-04-14T15:16:41Z</time></trkpt><trkpt lat="47.10518417418665" lon="5.485917236661059"><ele>241.5</ele><time>2026-04-14T15:16:42Z</time></trkpt><trkpt lat="47.1051536640591" lon="5.486032906924827"><ele>240.66666666666669</ele><time>2026-04-14T15:16:43Z</time></trkpt><trkpt lat="47.10513103292054" lon="5.4861548636159725"><ele>239.83333333333334</ele><time>2026-04-14T15:16:44Z</time></trkpt><trkpt lat="47.10510249254024" lon="5.486255697911127"><ele>239.0</ele><time>2026-04-14T15:16:45Z</time></trkpt><trkpt lat="47.105076131454766" lon="5.486362399538501"><ele>238.33333333333334</ele><time>2026-04-14T15:16:46Z</time></trkpt><trkpt lat="47.10505203348315" lon="5.4864675924233035"><ele>237.66666666666669</ele><time>2026-04-14T15:16:47Z</time></trkpt><trkpt lat="47.105027055411696" lon="5.486566415061696"><ele>237.0</ele><time>2026-04-14T15:16:48Z</time></trkpt><trkpt lat="47.104985481171965" lon="5.486670769756182"><ele>236.33333333333331</ele><time>2026-04-14T15:16:49Z</time></trkpt><trkpt lat="47.1049464634127" lon="5.486776297917111"><ele>235.66666666666666</ele><time>2026-04-14T15:16:50Z</time></trkpt><trkpt lat="47.10491788112289" lon="5.486868917947157"><ele>235.0</ele><time>2026-04-14T15:16:51Z</time></trkpt><trkpt lat="47.10487957582539" lon="5.486981486906751"><ele>234.99999999999997</ele><time>2026-04-14T15:16:52Z</time></trkpt><trkpt lat="47.10484864660269" lon="5.487078968440636"><ele>235.0</ele><time>2026-04-14T15:16:53Z</time></trkpt><trkpt lat="47.104809754571974" lon="5.487183993687375"><ele>235.0</ele><time>2026-04-14T15:16:54Z</time></trkpt><trkpt lat="47.104777065149605" lon="5.487289018934115"><ele>235.0</ele><time>2026-04-14T15:16:55Z</time></trkpt><trkpt lat="47.104723337150276" lon="5.487441150476679"><ele>234.99999999999997</ele><time>2026-04-14T15:16:57Z</time></trkpt><trkpt lat="47.104668603322565" lon="5.4875554796359385"><ele>235.0</ele><time>2026-04-14T15:16:59Z</time></trkpt><trkpt lat="47.10459660277432" lon="5.487670227890357"><ele>234.83333333333331</ele><time>2026-04-14T15:17:01Z</time></trkpt><trkpt lat="47.104541827037096" lon="5.487737115477666"><ele>234.66666666666666</ele><time>2026-04-14T15:17:03Z</time></trkpt><trkpt lat="47.104466767094195" lon="5.487756226216897"><ele>234.5</ele><time>2026-04-14T15:17:06Z</time></trkpt><trkpt lat="47.10440855477667" lon="5.487639550124749"><ele>234.33333333333331</ele><time>2026-04-14T15:17:08Z</time></trkpt><trkpt lat="47.104356084062815" lon="5.4875457566282595"><ele>234.16666666666666</ele><time>2026-04-14T15:17:10Z</time></trkpt><trkpt lat="47.10430420008218" lon="5.487467804928764"><ele>234.0</ele><time>2026-04-14T15:17:12Z</time></trkpt><trkpt lat="47.10423035551524" lon="5.4874041024646605"><ele>234.0</ele><time>2026-04-14T15:17:15Z</time></trkpt><trkpt lat="47.10415257145381" lon="5.487442743038281"><ele>233.99999999999997</ele><time>2026-04-14T15:17:17Z</time></trkpt><trkpt lat="47.10407524839705" lon="5.487510804092034"><ele>233.99999999999997</ele><time>2026-04-14T15:17:19Z</time></trkpt><trkpt lat="47.10398937579906" lon="5.487564196815237"><ele>234.0</ele><time>2026-04-14T15:17:21Z</time></trkpt><trkpt lat="47.103880872062504" lon="5.487593617295369"><ele>234.0</ele><time>2026-04-14T15:17:23Z</time></trkpt><trkpt lat="47.10378590509957" lon="5.487619182100042"><ele>233.83333333333334</ele><time>2026-04-14T15:17:25Z</time></trkpt><trkpt lat="47.103693578436136" lon="5.4876420646957005"><ele>233.66666666666669</ele><time>2026-04-14T15:17:27Z</time></trkpt><trkpt lat="47.10361688402212" lon="5.4876735806516255"><ele>233.5</ele><time>2026-04-14T15:17:29Z</time></trkpt><trkpt lat="47.10354312327421" lon="5.487702582036599"><ele>233.33333333333334</ele><time>2026-04-14T15:17:31Z</time></trkpt><trkpt lat="47.10347895980543" lon="5.48771825619553"><ele>233.16666666666669</ele><time>2026-04-14T15:17:33Z</time></trkpt><trkpt lat="47.10341177885151" lon="5.487736109649285"><ele>233.0</ele><time>2026-04-14T15:17:36Z</time></trkpt><trkpt lat="47.103353859900594" lon="5.4876420646957005"><ele>233.0</ele><time>2026-04-14T15:17:40Z</time></trkpt><trkpt lat="47.103327959819794" lon="5.487553384160146"><ele>233.0</ele><time>2026-04-14T15:17:42Z</time></trkpt><trkpt lat="47.103310232094586" lon="5.487458836292371"><ele>233.0</ele><time>2026-04-14T15:17:44Z</time></trkpt><trkpt lat="47.10329246245986" lon="5.487340316181525"><ele>233.0</ele><time>2026-04-14T15:17:47Z</time></trkpt><trkpt lat="47.10326668810761" lon="5.487224981193885"><ele>233.0</ele><time>2026-04-14T15:17:50Z</time></trkpt><trkpt lat="47.103246194354355" lon="5.487134624277695"><ele>233.0</ele><time>2026-04-14T15:17:53Z</time></trkpt><trkpt lat="47.10321061317539" lon="5.4870507214269475"><ele>233.0</ele><time>2026-04-14T15:17:56Z</time></trkpt><trkpt lat="47.103161998137" lon="5.486979642888053"><ele>233.33333333333334</ele><time>2026-04-14T15:17:59Z</time></trkpt><trkpt lat="47.10307830483383" lon="5.486968327318771"><ele>233.66666666666669</ele><time>2026-04-14T15:18:02Z</time></trkpt><trkpt lat="47.10299188741213" lon="5.487005626787885"><ele>234.0</ele><time>2026-04-14T15:18:04Z</time></trkpt><trkpt lat="47.10293451328492" lon="5.48705717549239"><ele>234.33333333333331</ele><time>2026-04-14T15:18:05Z</time></trkpt><trkpt lat="47.102850400886595" lon="5.48710310832177"><ele>234.66666666666666</ele><time>2026-04-14T15:18:07Z</time></trkpt><trkpt lat="47.10277052134937" lon="5.4871293436786965"><ele>235.0</ele><time>2026-04-14T15:18:09Z</time></trkpt><trkpt lat="47.102665747559726" lon="5.487183993687375"><ele>235.0</ele><time>2026-04-14T15:18:11Z</time></trkpt><trkpt lat="47.10256441035038" lon="5.487212911253318"><ele>235.0</ele><time>2026-04-14T15:18:13Z</time></trkpt><trkpt lat="47.102460474751055" lon="5.4872310999832"><ele>235.0</ele><time>2026-04-14T15:18:15Z</time></trkpt><trkpt lat="47.1023614844746" lon="5.487270494928106"><ele>235.0</ele><time>2026-04-14T15:18:17Z</time></trkpt><trkpt lat="47.102250549986124" lon="5.487296814104065"><ele>235.0</ele><time>2026-04-14T15:18:19Z</time></trkpt><trkpt lat="47.10214363881117" lon="5.487280134116753"><ele>235.0</ele><time>2026-04-14T15:18:21Z</time></trkpt><trkpt lat="47.10203567989832" lon="5.48726236448203"><ele>235.0</ele><time>2026-04-14T15:18:23Z</time></trkpt><trkpt lat="47.10192696661418" lon="5.487248953436955"><ele>235.0</ele><time>2026-04-14T15:18:25Z</time></trkpt><trkpt lat="47.101828772618525" lon="5.487226741393551"><ele>235.0</ele><time>2026-04-14T15:18:27Z</time></trkpt><trkpt lat="47.10175610151803" lon="5.48717200756584"><ele>235.0</ele><time>2026-04-14T15:18:29Z</time></trkpt><trkpt lat="47.10170991723155" lon="5.487089864914759"><ele>235.0</ele><time>2026-04-14T15:18:31Z</time></trkpt><trkpt lat="47.1016981406576" lon="5.4869938921234445"><ele>235.0</ele><time>2026-04-14T15:18:33Z</time></trkpt><trkpt lat="47.10172098134374" lon="5.486854501073702"><ele>235.0</ele><time>2026-04-14T15:18:36Z</time></trkpt><trkpt lat="47.101741349368446" lon="5.4867662396333055"><ele>235.0</ele><time>2026-04-14T15:18:39Z</time></trkpt><trkpt lat="47.10180614147996" lon="5.48673958518122"><ele>235.0</ele><time>2026-04-14T15:19:14Z</time></trkpt></trkseg></trk></gpx>